QTR4U YSSY-OTHH
Flight info
| Callsign | QTR4U |
|---|---|
| Flight time | 14h 25m |
| Altitude | 34000 |
| Route | N0494F320 DCT KADOM A576 PKS J141 NEWMO DCT UPSES DCT ISMOR/N0490F340 DCT 26S127E DCT NONAX DCT 2045S12112E 1749S11809E/N0496F360 15S115E DCT SAPDA L896 OBMAT/N0489F380 M766 KAT P570 BASUR/M085F380 P570 TVM UL425 ENPOL/N0493F380 UL425 ANODA/M085F380 UL425 DONSA/M085F400 UL425 ASPUX/N0486F400 L425 BOVOS/N0486F400 L425 GOBRO DCT METNO DCT OBSEP/N0489F390 DCT ASPUS DCT LADBO T142 LAEEB |
| Aircraft | A35K/H-VGDW/C |
Departure
| Time | 2026-05-07 11:11 |
|---|---|
| Airport | Sydney Kingsford Smith International Airport (YSSY) |
Arrival
| Time | 2026-05-08 01:37 |
|---|---|
| Airport | Hamad International Airport (OTHH) |
| Time | Latitude | Longitude | Altitude | Speed | Heading |
|---|---|---|---|---|---|
| 2026-05-07 10:43 | -33.93829 | 151.16617 | 27 ft | 0 kts | 252° |
| 2026-05-07 10:56 | -33.93824 | 151.16637 | 27 ft | 4 kts | 252° |
| 2026-05-07 10:56 | -33.93816 | 151.16668 | 26 ft | 4 kts | 252° |
| 2026-05-07 10:56 | -33.93808 | 151.16698 | 26 ft | 4 kts | 251° |
| 2026-05-07 10:57 | -33.93798 | 151.16728 | 24 ft | 4 kts | 244° |
| 2026-05-07 10:57 | -33.93785 | 151.16756 | 25 ft | 4 kts | 238° |
| 2026-05-07 10:57 | -33.93778 | 151.16769 | 27 ft | 0 kts | 239° |
| 2026-05-07 10:59 | -33.93778 | 151.16768 | 27 ft | 0 kts | 239° |
| 2026-05-07 11:00 | -33.93778 | 151.16767 | 26 ft | 0 kts | 239° |
| 2026-05-07 11:01 | -33.93779 | 151.16765 | 27 ft | 0 kts | 239° |
| 2026-05-07 11:01 | -33.93786 | 151.16752 | 27 ft | 7 kts | 234° |
| 2026-05-07 11:01 | -33.93858 | 151.16736 | 27 ft | 12 kts | 158° |
| 2026-05-07 11:01 | -33.93939 | 151.16775 | 27 ft | 13 kts | 161° |
| 2026-05-07 11:02 | -33.94028 | 151.16808 | 27 ft | 13 kts | 154° |
| 2026-05-07 11:02 | -33.94042 | 151.16923 | 27 ft | 17 kts | 74° |
| 2026-05-07 11:02 | -33.94010 | 151.17057 | 26 ft | 8 kts | 73° |
| 2026-05-07 11:02 | -33.94002 | 151.17090 | 29 ft | 5 kts | 73° |
| 2026-05-07 11:03 | -33.93986 | 151.17156 | 28 ft | 12 kts | 74° |
| 2026-05-07 11:03 | -33.94010 | 151.17232 | 30 ft | 10 kts | 158° |
| 2026-05-07 11:03 | -33.94092 | 151.17255 | 27 ft | 12 kts | 168° |
| 2026-05-07 11:03 | -33.94110 | 151.17260 | 28 ft | 0 kts | 168° |
| 2026-05-07 11:05 | -33.94157 | 151.17272 | 28 ft | 15 kts | 168° |
| 2026-05-07 11:05 | -33.94289 | 151.17305 | 29 ft | 21 kts | 168° |
| 2026-05-07 11:06 | -33.94419 | 151.17338 | 32 ft | 18 kts | 168° |
| 2026-05-07 11:06 | -33.94544 | 151.17374 | 32 ft | 19 kts | 167° |
| 2026-05-07 11:06 | -33.94671 | 151.17408 | 32 ft | 19 kts | 168° |
| 2026-05-07 11:06 | -33.94806 | 151.17443 | 28 ft | 21 kts | 168° |
| 2026-05-07 11:07 | -33.94956 | 151.17481 | 28 ft | 22 kts | 168° |
| 2026-05-07 11:07 | -33.95106 | 151.17519 | 29 ft | 23 kts | 168° |
| 2026-05-07 11:07 | -33.95265 | 151.17560 | 27 ft | 24 kts | 168° |
| 2026-05-07 11:07 | -33.95445 | 151.17605 | 29 ft | 26 kts | 168° |
| 2026-05-07 11:08 | -33.95621 | 151.17650 | 29 ft | 25 kts | 168° |
| 2026-05-07 11:08 | -33.95786 | 151.17693 | 30 ft | 24 kts | 168° |
| 2026-05-07 11:08 | -33.95956 | 151.17737 | 28 ft | 26 kts | 168° |
| 2026-05-07 11:08 | -33.96126 | 151.17780 | 30 ft | 25 kts | 168° |
| 2026-05-07 11:09 | -33.96298 | 151.17824 | 28 ft | 25 kts | 168° |
| 2026-05-07 11:09 | -33.96427 | 151.17888 | 29 ft | 15 kts | 128° |
| 2026-05-07 11:09 | -33.96429 | 151.17993 | 30 ft | 11 kts | 77° |
| 2026-05-07 11:09 | -33.96380 | 151.18048 | 30 ft | 10 kts | 12° |
| 2026-05-07 11:10 | -33.96305 | 151.18034 | 29 ft | 0 kts | 347° |
| 2026-05-07 11:10 | -33.96299 | 151.18032 | 29 ft | 2 kts | 347° |
| 2026-05-07 11:10 | -33.96296 | 151.18031 | 29 ft | 1 kts | 347° |
| 2026-05-07 11:10 | -33.96248 | 151.18019 | 28 ft | 28 kts | 347° |
| 2026-05-07 11:11 | -33.95793 | 151.17899 | 27 ft | 104 kts | 347° |
| 2026-05-07 11:11 | -33.94866 | 151.17666 | 29 ft | 166 kts | 347° |
| 2026-05-07 11:11 | -33.93691 | 151.17370 | 700 ft | 169 kts | 342° |
| 2026-05-07 11:11 | -33.92471 | 151.17086 | 1274 ft | 190 kts | 340° |
| 2026-05-07 11:12 | -33.91190 | 151.16527 | 1611 ft | 200 kts | 310° |
| 2026-05-07 11:12 | -33.90537 | 151.15168 | 2240 ft | 187 kts | 276° |
| 2026-05-07 11:12 | -33.90210 | 151.13632 | 2587 ft | 196 kts | 277° |
| 2026-05-07 11:12 | -33.89718 | 151.12029 | 2807 ft | 214 kts | 285° |
| 2026-05-07 11:13 | -33.89009 | 151.10362 | 2982 ft | 234 kts | 291° |
| 2026-05-07 11:13 | -33.88129 | 151.08625 | 3244 ft | 249 kts | 294° |
| 2026-05-07 11:13 | -33.87161 | 151.06866 | 3674 ft | 255 kts | 296° |
| 2026-05-07 11:13 | -33.86153 | 151.05094 | 4184 ft | 259 kts | 297° |
| 2026-05-07 11:14 | -33.85122 | 151.03297 | 4710 ft | 260 kts | 296° |
| 2026-05-07 11:14 | -33.84328 | 151.01375 | 5189 ft | 254 kts | 279° |
| 2026-05-07 11:14 | -33.83900 | 150.99315 | 5669 ft | 256 kts | 275° |
| 2026-05-07 11:14 | -33.83538 | 150.97233 | 6135 ft | 260 kts | 275° |
| 2026-05-07 11:15 | -33.83161 | 150.95088 | 6659 ft | 264 kts | 277° |
| 2026-05-07 11:15 | -33.82772 | 150.92916 | 7205 ft | 266 kts | 277° |
| 2026-05-07 11:15 | -33.82376 | 150.90745 | 7814 ft | 266 kts | 277° |
| 2026-05-07 11:15 | -33.81977 | 150.88560 | 8409 ft | 268 kts | 277° |
| 2026-05-07 11:16 | -33.81575 | 150.86369 | 8995 ft | 270 kts | 278° |
| 2026-05-07 11:16 | -33.81170 | 150.84161 | 9590 ft | 271 kts | 278° |
| 2026-05-07 11:16 | -33.80762 | 150.81941 | 10168 ft | 273 kts | 278° |
| 2026-05-07 11:16 | -33.80346 | 150.79674 | 10513 ft | 284 kts | 277° |
| 2026-05-07 11:17 | -33.79912 | 150.77289 | 10649 ft | 302 kts | 277° |
| 2026-05-07 11:17 | -33.79453 | 150.74765 | 10645 ft | 324 kts | 277° |
| 2026-05-07 11:17 | -33.78954 | 150.72028 | 10654 ft | 346 kts | 277° |
| 2026-05-07 11:17 | -33.78421 | 150.69127 | 10677 ft | 365 kts | 277° |
| 2026-05-07 11:18 | -33.77859 | 150.66112 | 10995 ft | 373 kts | 277° |
| 2026-05-07 11:18 | -33.77285 | 150.63058 | 11544 ft | 375 kts | 277° |
| 2026-05-07 11:18 | -33.76709 | 150.59990 | 12054 ft | 379 kts | 276° |
| 2026-05-07 11:18 | -33.76131 | 150.56890 | 12529 ft | 382 kts | 275° |
| 2026-05-07 11:19 | -33.75548 | 150.53761 | 13026 ft | 385 kts | 275° |
| 2026-05-07 11:19 | -33.74955 | 150.50614 | 13550 ft | 387 kts | 274° |
| 2026-05-07 11:19 | -33.74367 | 150.47481 | 14029 ft | 391 kts | 274° |
| 2026-05-07 11:19 | -33.73769 | 150.44287 | 14406 ft | 394 kts | 273° |
| 2026-05-07 11:20 | -33.73165 | 150.41066 | 14875 ft | 396 kts | 274° |
| 2026-05-07 11:20 | -33.72558 | 150.37841 | 15396 ft | 396 kts | 274° |
| 2026-05-07 11:20 | -33.71950 | 150.34615 | 15921 ft | 397 kts | 274° |
| 2026-05-07 11:20 | -33.71338 | 150.31381 | 16433 ft | 398 kts | 274° |
| 2026-05-07 11:21 | -33.70620 | 150.28150 | 16998 ft | 402 kts | 277° |
| 2026-05-07 11:21 | -33.69800 | 150.24928 | 17500 ft | 405 kts | 279° |
| 2026-05-07 11:21 | -33.68928 | 150.21715 | 17989 ft | 406 kts | 279° |
| 2026-05-07 11:21 | -33.68028 | 150.18492 | 18493 ft | 408 kts | 280° |
| 2026-05-07 11:22 | -33.67137 | 150.15302 | 18880 ft | 409 kts | 280° |
| 2026-05-07 11:22 | -33.66235 | 150.12054 | 19260 ft | 411 kts | 280° |
| 2026-05-07 11:22 | -33.65334 | 150.08793 | 19662 ft | 412 kts | 280° |
| 2026-05-07 11:22 | -33.64433 | 150.05514 | 20127 ft | 413 kts | 280° |
| 2026-05-07 11:23 | -33.63537 | 150.02236 | 20559 ft | 415 kts | 280° |
| 2026-05-07 11:23 | -33.62637 | 149.98938 | 20938 ft | 417 kts | 280° |
| 2026-05-07 11:23 | -33.61736 | 149.95626 | 21357 ft | 418 kts | 281° |
| 2026-05-07 11:23 | -33.60826 | 149.92309 | 21767 ft | 419 kts | 281° |
| 2026-05-07 11:24 | -33.59909 | 149.88982 | 22232 ft | 420 kts | 281° |
| 2026-05-07 11:24 | -33.59001 | 149.85691 | 22581 ft | 423 kts | 281° |
| 2026-05-07 11:24 | -33.58075 | 149.82336 | 23006 ft | 425 kts | 281° |
| 2026-05-07 11:24 | -33.57144 | 149.78966 | 23400 ft | 427 kts | 281° |
| 2026-05-07 11:25 | -33.56212 | 149.75588 | 23840 ft | 428 kts | 281° |
| 2026-05-07 11:25 | -33.55272 | 149.72190 | 24181 ft | 431 kts | 281° |
| 2026-05-07 11:25 | -33.54326 | 149.68771 | 24498 ft | 433 kts | 281° |
| 2026-05-07 11:25 | -33.53375 | 149.65334 | 24818 ft | 436 kts | 281° |
| 2026-05-07 11:26 | -33.52415 | 149.61873 | 25124 ft | 439 kts | 281° |
| 2026-05-07 11:26 | -33.51449 | 149.58393 | 25404 ft | 441 kts | 282° |
| 2026-05-07 11:26 | -33.50479 | 149.54901 | 25691 ft | 444 kts | 282° |
| 2026-05-07 11:26 | -33.49511 | 149.51426 | 26000 ft | 446 kts | 282° |
| 2026-05-07 11:27 | -33.48524 | 149.47885 | 26306 ft | 449 kts | 282° |
| 2026-05-07 11:27 | -33.47531 | 149.44331 | 26597 ft | 451 kts | 282° |
| 2026-05-07 11:27 | -33.46532 | 149.40755 | 26885 ft | 454 kts | 282° |
| 2026-05-07 11:27 | -33.45528 | 149.37166 | 27197 ft | 456 kts | 282° |
| 2026-05-07 11:28 | -33.44516 | 149.33555 | 27483 ft | 458 kts | 282° |
| 2026-05-07 11:28 | -33.43499 | 149.29930 | 27771 ft | 461 kts | 282° |
| 2026-05-07 11:28 | -33.42473 | 149.26281 | 28039 ft | 463 kts | 282° |
| 2026-05-07 11:28 | -33.41443 | 149.22620 | 28249 ft | 466 kts | 282° |
| 2026-05-07 11:29 | -33.39385 | 149.15323 | 28294 ft | 466 kts | 282° |
| 2026-05-07 11:29 | -33.37310 | 149.07983 | 28292 ft | 466 kts | 282° |
| 2026-05-07 11:30 | -33.35229 | 149.00630 | 28476 ft | 468 kts | 283° |
| 2026-05-07 11:30 | -33.34183 | 148.96942 | 28775 ft | 469 kts | 283° |
| 2026-05-07 11:30 | -33.33144 | 148.93286 | 29038 ft | 471 kts | 283° |
| 2026-05-07 11:31 | -33.32089 | 148.89581 | 29407 ft | 470 kts | 283° |
| 2026-05-07 11:31 | -33.31035 | 148.85888 | 29785 ft | 470 kts | 283° |
| 2026-05-07 11:31 | -33.29981 | 148.82193 | 30117 ft | 469 kts | 283° |
| 2026-05-07 11:31 | -33.28927 | 148.78504 | 30450 ft | 469 kts | 283° |
| 2026-05-07 11:32 | -33.26820 | 148.71141 | 30990 ft | 467 kts | 283° |
| 2026-05-07 11:32 | -33.25770 | 148.67483 | 31296 ft | 465 kts | 283° |
| 2026-05-07 11:32 | -33.24721 | 148.63831 | 31569 ft | 464 kts | 284° |
| 2026-05-07 11:33 | -33.23685 | 148.60229 | 31831 ft | 463 kts | 284° |
| 2026-05-07 11:33 | -33.22640 | 148.56596 | 32070 ft | 463 kts | 284° |
| 2026-05-07 11:33 | -33.21594 | 148.52966 | 32295 ft | 462 kts | 284° |
| 2026-05-07 11:33 | -33.20549 | 148.49342 | 32540 ft | 461 kts | 284° |
| 2026-05-07 11:34 | -33.19505 | 148.45725 | 32763 ft | 460 kts | 284° |
| 2026-05-07 11:34 | -33.18464 | 148.42123 | 33033 ft | 458 kts | 284° |
| 2026-05-07 11:34 | -33.17425 | 148.38534 | 33253 ft | 457 kts | 285° |
| 2026-05-07 11:34 | -33.16385 | 148.34947 | 33457 ft | 457 kts | 285° |
| 2026-05-07 11:35 | -33.15346 | 148.31368 | 33653 ft | 456 kts | 285° |
| 2026-05-07 11:35 | -33.14322 | 148.27844 | 33824 ft | 456 kts | 285° |
| 2026-05-07 11:35 | -33.13283 | 148.24273 | 34013 ft | 455 kts | 285° |
| 2026-05-07 11:35 | -33.12290 | 148.20697 | 34181 ft | 453 kts | 282° |
| 2026-05-07 11:36 | -33.11466 | 148.17077 | 34252 ft | 453 kts | 280° |
| 2026-05-07 11:36 | -33.10011 | 148.09713 | 34303 ft | 458 kts | 279° |
| 2026-05-07 11:37 | -33.08535 | 148.02354 | 34314 ft | 458 kts | 280° |
| 2026-05-07 11:37 | -33.06973 | 147.94956 | 34315 ft | 462 kts | 281° |
| 2026-05-07 11:38 | -33.05358 | 147.87483 | 34315 ft | 466 kts | 281° |
| 2026-05-07 11:38 | -33.03735 | 147.80016 | 34316 ft | 468 kts | 281° |
| 2026-05-07 11:39 | -33.02377 | 147.73776 | 34316 ft | 467 kts | 281° |
| 2026-05-07 11:39 | -33.00745 | 147.66293 | 34324 ft | 463 kts | 281° |
| 2026-05-07 11:40 | -32.99130 | 147.58900 | 34326 ft | 464 kts | 282° |
| 2026-05-07 11:40 | -32.97498 | 147.51449 | 34325 ft | 464 kts | 282° |
| 2026-05-07 11:41 | -32.95862 | 147.44002 | 34331 ft | 464 kts | 282° |
| 2026-05-07 11:41 | -32.94228 | 147.36594 | 34320 ft | 464 kts | 282° |
| 2026-05-07 11:42 | -32.92579 | 147.29136 | 34333 ft | 466 kts | 282° |
| 2026-05-07 11:42 | -32.90925 | 147.21679 | 34338 ft | 466 kts | 282° |
| 2026-05-07 11:43 | -32.89265 | 147.14224 | 34342 ft | 466 kts | 282° |
| 2026-05-07 11:43 | -32.87610 | 147.06808 | 34341 ft | 466 kts | 283° |
| 2026-05-07 11:44 | -32.85936 | 146.99331 | 34342 ft | 467 kts | 283° |
| 2026-05-07 11:44 | -32.84267 | 146.91899 | 34343 ft | 467 kts | 283° |
| 2026-05-07 11:45 | -32.82583 | 146.84422 | 34343 ft | 467 kts | 283° |
| 2026-05-07 11:45 | -32.80899 | 146.76965 | 34346 ft | 471 kts | 283° |
| 2026-05-07 11:46 | -32.79184 | 146.69394 | 34349 ft | 474 kts | 283° |
| 2026-05-07 11:46 | -32.77464 | 146.61831 | 34356 ft | 474 kts | 283° |
| 2026-05-07 11:47 | -32.75752 | 146.54327 | 34358 ft | 473 kts | 283° |
| 2026-05-07 11:47 | -32.74023 | 146.46764 | 34356 ft | 473 kts | 283° |
| 2026-05-07 11:48 | -32.72303 | 146.39262 | 34355 ft | 473 kts | 283° |
| 2026-05-07 11:48 | -32.70565 | 146.31708 | 34354 ft | 473 kts | 283° |
| 2026-05-07 11:49 | -32.68834 | 146.24206 | 34360 ft | 473 kts | 283° |
| 2026-05-07 11:49 | -32.67086 | 146.16652 | 34356 ft | 473 kts | 283° |
| 2026-05-07 11:50 | -32.65350 | 146.09172 | 34365 ft | 473 kts | 283° |
| 2026-05-07 11:50 | -32.63594 | 146.01629 | 34361 ft | 473 kts | 284° |
| 2026-05-07 11:51 | -32.61842 | 145.94123 | 34369 ft | 475 kts | 284° |
| 2026-05-07 11:51 | -32.60075 | 145.86578 | 34374 ft | 473 kts | 284° |
| 2026-05-07 11:52 | -32.58306 | 145.79049 | 34369 ft | 471 kts | 284° |
| 2026-05-07 11:52 | -32.56558 | 145.71628 | 34374 ft | 467 kts | 284° |
| 2026-05-07 11:53 | -32.54800 | 145.64187 | 34374 ft | 467 kts | 284° |
| 2026-05-07 11:53 | -32.53054 | 145.56816 | 34376 ft | 467 kts | 284° |
| 2026-05-07 11:54 | -32.51289 | 145.49385 | 34369 ft | 469 kts | 284° |
| 2026-05-07 11:54 | -32.49525 | 145.41981 | 34374 ft | 469 kts | 284° |
| 2026-05-07 11:55 | -32.47744 | 145.34527 | 34378 ft | 469 kts | 284° |
| 2026-05-07 11:55 | -32.45962 | 145.27088 | 34377 ft | 469 kts | 284° |
| 2026-05-07 11:56 | -32.44184 | 145.19689 | 34382 ft | 469 kts | 284° |
| 2026-05-07 11:56 | -32.42390 | 145.12246 | 34385 ft | 469 kts | 284° |
| 2026-05-07 11:57 | -32.40602 | 145.04847 | 34385 ft | 469 kts | 284° |
| 2026-05-07 11:57 | -32.38793 | 144.97382 | 34382 ft | 472 kts | 284° |
| 2026-05-07 11:58 | -32.36966 | 144.89860 | 34388 ft | 477 kts | 284° |
| 2026-05-07 11:58 | -32.35132 | 144.82334 | 34387 ft | 480 kts | 284° |
| 2026-05-07 11:59 | -32.33268 | 144.74712 | 34374 ft | 481 kts | 284° |
| 2026-05-07 11:59 | -32.31416 | 144.67157 | 34389 ft | 480 kts | 284° |
| 2026-05-07 12:00 | -32.29546 | 144.59554 | 34394 ft | 480 kts | 284° |
| 2026-05-07 12:00 | -32.27686 | 144.52007 | 34398 ft | 480 kts | 284° |
| 2026-05-07 12:01 | -32.25809 | 144.44414 | 34397 ft | 480 kts | 285° |
| 2026-05-07 12:01 | -32.23944 | 144.36889 | 34399 ft | 480 kts | 285° |
| 2026-05-07 12:02 | -32.22057 | 144.29300 | 34399 ft | 481 kts | 285° |
| 2026-05-07 12:02 | -32.20169 | 144.21726 | 34399 ft | 482 kts | 285° |
| 2026-05-07 12:03 | -32.18265 | 144.14111 | 34405 ft | 483 kts | 285° |
| 2026-05-07 12:03 | -32.16369 | 144.06548 | 34402 ft | 481 kts | 285° |
| 2026-05-07 12:04 | -32.14464 | 143.98973 | 34401 ft | 480 kts | 285° |
| 2026-05-07 12:04 | -32.12567 | 143.91451 | 34404 ft | 480 kts | 285° |
| 2026-05-07 12:05 | -32.10658 | 143.83898 | 34405 ft | 480 kts | 285° |
| 2026-05-07 12:05 | -32.08742 | 143.76341 | 34407 ft | 480 kts | 285° |
| 2026-05-07 12:06 | -32.06827 | 143.68804 | 34402 ft | 480 kts | 285° |
| 2026-05-07 12:06 | -32.04908 | 143.61277 | 34418 ft | 481 kts | 285° |
| 2026-05-07 12:07 | -32.02979 | 143.53718 | 34403 ft | 480 kts | 285° |
| 2026-05-07 12:07 | -32.01545 | 143.46139 | 34414 ft | 475 kts | 281° |
| 2026-05-07 12:08 | -32.00280 | 143.38522 | 34417 ft | 470 kts | 280° |
| 2026-05-07 12:08 | -31.99046 | 143.30946 | 34421 ft | 469 kts | 280° |
| 2026-05-07 12:09 | -31.97814 | 143.23428 | 34413 ft | 469 kts | 280° |
| 2026-05-07 12:09 | -31.96567 | 143.15889 | 34415 ft | 468 kts | 280° |
| 2026-05-07 12:10 | -31.95321 | 143.08399 | 34417 ft | 469 kts | 280° |
| 2026-05-07 12:10 | -31.94060 | 143.00847 | 34417 ft | 470 kts | 280° |
| 2026-05-07 12:11 | -31.92792 | 142.93275 | 34419 ft | 471 kts | 281° |
| 2026-05-07 12:11 | -31.91528 | 142.85761 | 34420 ft | 471 kts | 281° |
| 2026-05-07 12:12 | -31.90250 | 142.78192 | 34422 ft | 471 kts | 281° |
| 2026-05-07 12:12 | -31.88966 | 142.70618 | 34424 ft | 471 kts | 281° |
| 2026-05-07 12:13 | -31.87678 | 142.63049 | 34428 ft | 471 kts | 281° |
| 2026-05-07 12:13 | -31.86392 | 142.55516 | 34426 ft | 471 kts | 281° |
| 2026-05-07 12:14 | -31.85101 | 142.47984 | 34430 ft | 471 kts | 281° |
| 2026-05-07 12:14 | -31.83801 | 142.40429 | 34430 ft | 470 kts | 281° |
| 2026-05-07 12:15 | -31.82506 | 142.32927 | 34431 ft | 470 kts | 281° |
| 2026-05-07 12:15 | -31.81199 | 142.25383 | 34431 ft | 470 kts | 281° |
| 2026-05-07 12:16 | -31.79888 | 142.17847 | 34433 ft | 470 kts | 281° |
| 2026-05-07 12:16 | -31.78563 | 142.10259 | 34434 ft | 475 kts | 281° |
| 2026-05-07 12:17 | -31.77230 | 142.02650 | 34438 ft | 479 kts | 281° |
| 2026-05-07 12:17 | -31.75876 | 141.94955 | 34441 ft | 481 kts | 282° |
| 2026-05-07 12:18 | -31.74517 | 141.87256 | 34443 ft | 481 kts | 282° |
| 2026-05-07 12:18 | -31.73148 | 141.79533 | 34442 ft | 482 kts | 282° |
| 2026-05-07 12:19 | -31.71783 | 141.71854 | 34440 ft | 484 kts | 282° |
| 2026-05-07 12:19 | -31.70400 | 141.64105 | 34440 ft | 484 kts | 282° |
| 2026-05-07 12:20 | -31.69014 | 141.56370 | 34442 ft | 484 kts | 282° |
| 2026-05-07 12:20 | -31.67627 | 141.48658 | 34447 ft | 484 kts | 282° |
| 2026-05-07 12:21 | -31.66236 | 141.40951 | 34447 ft | 484 kts | 282° |
| 2026-05-07 12:21 | -31.64837 | 141.33224 | 34441 ft | 485 kts | 282° |
| 2026-05-07 12:22 | -31.63425 | 141.25459 | 34446 ft | 486 kts | 282° |
| 2026-05-07 12:22 | -31.62015 | 141.17729 | 34448 ft | 486 kts | 282° |
| 2026-05-07 12:23 | -31.60595 | 141.09974 | 34444 ft | 486 kts | 282° |
| 2026-05-07 12:23 | -31.59169 | 141.02213 | 34447 ft | 485 kts | 282° |
| 2026-05-07 12:24 | -31.57770 | 140.94626 | 34450 ft | 473 kts | 282° |
| 2026-05-07 12:24 | -31.56367 | 140.87043 | 34448 ft | 477 kts | 282° |
| 2026-05-07 12:25 | -31.55201 | 140.80765 | 34451 ft | 470 kts | 282° |
| 2026-05-07 12:25 | -31.53586 | 140.72094 | 34458 ft | 463 kts | 282° |
| 2026-05-07 12:26 | -31.52439 | 140.65959 | 34461 ft | 463 kts | 282° |
| 2026-05-07 12:26 | -31.51056 | 140.58584 | 34457 ft | 461 kts | 282° |
| 2026-05-07 12:27 | -31.49673 | 140.51234 | 34457 ft | 461 kts | 282° |
| 2026-05-07 12:27 | -31.48293 | 140.43923 | 34457 ft | 461 kts | 282° |
| 2026-05-07 12:28 | -31.46897 | 140.36553 | 34463 ft | 465 kts | 282° |
| 2026-05-07 12:28 | -31.45500 | 140.29202 | 34460 ft | 464 kts | 282° |
| 2026-05-07 12:29 | -31.44094 | 140.21823 | 34460 ft | 463 kts | 282° |
| 2026-05-07 12:29 | -31.42682 | 140.14444 | 34462 ft | 463 kts | 282° |
| 2026-05-07 12:30 | -31.41277 | 140.07118 | 34460 ft | 463 kts | 282° |
| 2026-05-07 12:30 | -31.39860 | 139.99757 | 34463 ft | 463 kts | 282° |
| 2026-05-07 12:31 | -31.38437 | 139.92392 | 34462 ft | 463 kts | 282° |
| 2026-05-07 12:31 | -31.37010 | 139.85030 | 34461 ft | 465 kts | 283° |
| 2026-05-07 12:32 | -31.35581 | 139.77678 | 34460 ft | 466 kts | 283° |
| 2026-05-07 12:32 | -31.34139 | 139.70282 | 34462 ft | 465 kts | 283° |
| 2026-05-07 12:33 | -31.32007 | 139.59400 | 34463 ft | 454 kts | 283° |
| 2026-05-07 12:33 | -31.30591 | 139.52193 | 34462 ft | 454 kts | 283° |
| 2026-05-07 12:34 | -31.29178 | 139.45032 | 34466 ft | 454 kts | 283° |
| 2026-05-07 12:34 | -31.27744 | 139.37781 | 34468 ft | 456 kts | 283° |
| 2026-05-07 12:35 | -31.26309 | 139.30551 | 34468 ft | 462 kts | 283° |
| 2026-05-07 12:35 | -31.24862 | 139.23284 | 34473 ft | 457 kts | 283° |
| 2026-05-07 12:36 | -31.23408 | 139.16001 | 34474 ft | 462 kts | 283° |
| 2026-05-07 12:36 | -31.21933 | 139.08637 | 34475 ft | 466 kts | 283° |
| 2026-05-07 12:37 | -31.20458 | 139.01297 | 34476 ft | 465 kts | 283° |
| 2026-05-07 12:37 | -31.18972 | 138.93929 | 34479 ft | 464 kts | 283° |
| 2026-05-07 12:38 | -31.17496 | 138.86626 | 34473 ft | 466 kts | 283° |
| 2026-05-07 12:38 | -31.15995 | 138.79227 | 34480 ft | 466 kts | 283° |
| 2026-05-07 12:39 | -31.14502 | 138.71893 | 34478 ft | 466 kts | 283° |
| 2026-05-07 12:39 | -31.13000 | 138.64535 | 34476 ft | 467 kts | 283° |
| 2026-05-07 12:40 | -31.11485 | 138.57132 | 34478 ft | 468 kts | 283° |
| 2026-05-07 12:40 | -31.09972 | 138.49771 | 34475 ft | 468 kts | 283° |
| 2026-05-07 12:41 | -31.08445 | 138.42358 | 34476 ft | 468 kts | 283° |
| 2026-05-07 12:41 | -31.06925 | 138.35000 | 34470 ft | 468 kts | 283° |
| 2026-05-07 12:42 | -31.05393 | 138.27611 | 34473 ft | 468 kts | 283° |
| 2026-05-07 12:42 | -31.03859 | 138.20231 | 34465 ft | 469 kts | 283° |
| 2026-05-07 12:43 | -31.02314 | 138.12824 | 34462 ft | 470 kts | 283° |
| 2026-05-07 12:43 | -31.00762 | 138.05406 | 34462 ft | 470 kts | 284° |
| 2026-05-07 12:44 | -30.99214 | 137.98030 | 34462 ft | 470 kts | 284° |
| 2026-05-07 12:44 | -30.97651 | 137.90602 | 34462 ft | 470 kts | 284° |
| 2026-05-07 12:45 | -30.96096 | 137.83242 | 34465 ft | 470 kts | 284° |
| 2026-05-07 12:45 | -30.94525 | 137.75818 | 34468 ft | 470 kts | 284° |
| 2026-05-07 12:46 | -30.92963 | 137.68464 | 34467 ft | 469 kts | 284° |
| 2026-05-07 12:46 | -30.91396 | 137.61111 | 34470 ft | 466 kts | 284° |
| 2026-05-07 12:47 | -30.89831 | 137.53785 | 34474 ft | 464 kts | 284° |
| 2026-05-07 12:47 | -30.88272 | 137.46512 | 34473 ft | 465 kts | 284° |
| 2026-05-07 12:48 | -30.86700 | 137.39196 | 34473 ft | 465 kts | 284° |
| 2026-05-07 12:48 | -30.85133 | 137.31930 | 34473 ft | 465 kts | 284° |
| 2026-05-07 12:49 | -30.83555 | 137.24630 | 34476 ft | 464 kts | 284° |
| 2026-05-07 12:49 | -30.81974 | 137.17338 | 34478 ft | 465 kts | 284° |
| 2026-05-07 12:50 | -30.80382 | 137.10020 | 34479 ft | 467 kts | 284° |
| 2026-05-07 12:50 | -30.78794 | 137.02737 | 34479 ft | 467 kts | 284° |
| 2026-05-07 12:51 | -30.77187 | 136.95388 | 34481 ft | 467 kts | 284° |
| 2026-05-07 12:51 | -30.75588 | 136.88100 | 34478 ft | 467 kts | 284° |
| 2026-05-07 12:52 | -30.73974 | 136.80764 | 34481 ft | 467 kts | 284° |
| 2026-05-07 12:52 | -30.72356 | 136.73430 | 34484 ft | 467 kts | 284° |
| 2026-05-07 12:53 | -30.70743 | 136.66152 | 34481 ft | 467 kts | 285° |
| 2026-05-07 12:53 | -30.68515 | 136.59069 | 34484 ft | 467 kts | 292° |
| 2026-05-07 12:54 | -30.65949 | 136.52138 | 34484 ft | 465 kts | 294° |
| 2026-05-07 12:54 | -30.63350 | 136.45297 | 34487 ft | 464 kts | 294° |
| 2026-05-07 12:55 | -30.60737 | 136.38420 | 34486 ft | 464 kts | 294° |
| 2026-05-07 12:55 | -30.58131 | 136.31541 | 34487 ft | 465 kts | 294° |
| 2026-05-07 12:56 | -30.55543 | 136.24713 | 34484 ft | 464 kts | 294° |
| 2026-05-07 12:56 | -30.52932 | 136.17835 | 34484 ft | 464 kts | 294° |
| 2026-05-07 12:57 | -30.50336 | 136.11011 | 34487 ft | 464 kts | 294° |
| 2026-05-07 12:57 | -30.47711 | 136.04126 | 34487 ft | 466 kts | 294° |
| 2026-05-07 12:58 | -30.45087 | 135.97255 | 34484 ft | 466 kts | 294° |
| 2026-05-07 12:58 | -30.42472 | 135.90420 | 34484 ft | 466 kts | 294° |
| 2026-05-07 12:59 | -30.39831 | 135.83532 | 34484 ft | 466 kts | 294° |
| 2026-05-07 12:59 | -30.37192 | 135.76660 | 34483 ft | 466 kts | 294° |
| 2026-05-07 13:00 | -30.34562 | 135.69829 | 34490 ft | 467 kts | 294° |
| 2026-05-07 13:00 | -30.31910 | 135.62950 | 34487 ft | 467 kts | 294° |
| 2026-05-07 13:01 | -30.29256 | 135.56080 | 34485 ft | 467 kts | 294° |
| 2026-05-07 13:01 | -30.26615 | 135.49254 | 34484 ft | 467 kts | 294° |
| 2026-05-07 13:02 | -30.23948 | 135.42377 | 34484 ft | 467 kts | 294° |
| 2026-05-07 13:02 | -30.21299 | 135.35560 | 34484 ft | 467 kts | 294° |
| 2026-05-07 13:03 | -30.18626 | 135.28690 | 34484 ft | 467 kts | 294° |
| 2026-05-07 13:03 | -30.15966 | 135.21871 | 34484 ft | 467 kts | 294° |
| 2026-05-07 13:04 | -30.13288 | 135.15014 | 34487 ft | 467 kts | 294° |
| 2026-05-07 13:04 | -30.10617 | 135.08191 | 34487 ft | 467 kts | 294° |
| 2026-05-07 13:05 | -30.07940 | 135.01364 | 34490 ft | 470 kts | 294° |
| 2026-05-07 13:05 | -30.05235 | 134.94480 | 34487 ft | 473 kts | 294° |
| 2026-05-07 13:06 | -30.02512 | 134.87561 | 34484 ft | 473 kts | 294° |
| 2026-05-07 13:06 | -29.99777 | 134.80626 | 34489 ft | 473 kts | 294° |
| 2026-05-07 13:07 | -29.97070 | 134.73774 | 34486 ft | 471 kts | 294° |
| 2026-05-07 13:07 | -29.94346 | 134.66893 | 34486 ft | 471 kts | 295° |
| 2026-05-07 13:08 | -29.92078 | 134.61172 | 34492 ft | 471 kts | 295° |
| 2026-05-07 13:08 | -29.88900 | 134.53172 | 34488 ft | 472 kts | 295° |
| 2026-05-07 13:09 | -29.86626 | 134.47457 | 34489 ft | 471 kts | 295° |
| 2026-05-07 13:09 | -29.83885 | 134.40583 | 34491 ft | 471 kts | 295° |
| 2026-05-07 13:10 | -29.81153 | 134.33742 | 34489 ft | 472 kts | 295° |
| 2026-05-07 13:10 | -29.78402 | 134.26865 | 34487 ft | 472 kts | 295° |
| 2026-05-07 13:11 | -29.75654 | 134.20011 | 34492 ft | 471 kts | 295° |
| 2026-05-07 13:11 | -29.72915 | 134.13190 | 34495 ft | 472 kts | 295° |
| 2026-05-07 13:12 | -29.70155 | 134.06329 | 34489 ft | 472 kts | 295° |
| 2026-05-07 13:12 | -29.67402 | 133.99499 | 34490 ft | 473 kts | 295° |
| 2026-05-07 13:13 | -29.64625 | 133.92623 | 34492 ft | 473 kts | 295° |
| 2026-05-07 13:13 | -29.61860 | 133.85787 | 34492 ft | 474 kts | 295° |
| 2026-05-07 13:14 | -29.59074 | 133.78912 | 34489 ft | 474 kts | 295° |
| 2026-05-07 13:14 | -29.56279 | 133.72028 | 34492 ft | 474 kts | 295° |
| 2026-05-07 13:15 | -29.53495 | 133.65183 | 34495 ft | 474 kts | 295° |
| 2026-05-07 13:15 | -29.50701 | 133.58328 | 34495 ft | 474 kts | 295° |
| 2026-05-07 13:16 | -29.47912 | 133.51495 | 34495 ft | 475 kts | 295° |
| 2026-05-07 13:16 | -29.45104 | 133.44629 | 34492 ft | 474 kts | 295° |
| 2026-05-07 13:17 | -29.42293 | 133.37769 | 34492 ft | 476 kts | 295° |
| 2026-05-07 13:17 | -29.39474 | 133.30899 | 34492 ft | 477 kts | 295° |
| 2026-05-07 13:18 | -29.36660 | 133.24056 | 34491 ft | 476 kts | 295° |
| 2026-05-07 13:18 | -29.33822 | 133.17167 | 34492 ft | 477 kts | 295° |
| 2026-05-07 13:19 | -29.30981 | 133.10282 | 34492 ft | 477 kts | 295° |
| 2026-05-07 13:19 | -29.28154 | 133.03444 | 34493 ft | 477 kts | 295° |
| 2026-05-07 13:20 | -29.25307 | 132.96567 | 34492 ft | 477 kts | 295° |
| 2026-05-07 13:20 | -29.22456 | 132.89695 | 34489 ft | 477 kts | 295° |
| 2026-05-07 13:21 | -29.19621 | 132.82876 | 34489 ft | 477 kts | 295° |
| 2026-05-07 13:21 | -29.16757 | 132.75998 | 34489 ft | 477 kts | 295° |
| 2026-05-07 13:22 | -29.13915 | 132.69183 | 34489 ft | 477 kts | 295° |
| 2026-05-07 13:22 | -29.11045 | 132.62315 | 34484 ft | 476 kts | 295° |
| 2026-05-07 13:23 | -29.08192 | 132.55499 | 34487 ft | 477 kts | 295° |
| 2026-05-07 13:23 | -29.05331 | 132.48676 | 34480 ft | 477 kts | 295° |
| 2026-05-07 13:24 | -29.02458 | 132.41836 | 34484 ft | 477 kts | 295° |
| 2026-05-07 13:24 | -28.99580 | 132.34997 | 34487 ft | 477 kts | 295° |
| 2026-05-07 13:25 | -28.96695 | 132.28153 | 34482 ft | 477 kts | 295° |
| 2026-05-07 13:25 | -28.93826 | 132.21359 | 34481 ft | 477 kts | 296° |
| 2026-05-07 13:26 | -28.90932 | 132.14518 | 34482 ft | 479 kts | 296° |
| 2026-05-07 13:26 | -28.88022 | 132.07651 | 34481 ft | 480 kts | 296° |
| 2026-05-07 13:27 | -28.85115 | 132.00801 | 34484 ft | 481 kts | 296° |
| 2026-05-07 13:27 | -28.82189 | 131.93923 | 34482 ft | 482 kts | 296° |
| 2026-05-07 13:28 | -28.79254 | 131.87031 | 34481 ft | 482 kts | 296° |
| 2026-05-07 13:28 | -28.76333 | 131.80187 | 34481 ft | 482 kts | 296° |
| 2026-05-07 13:29 | -28.73393 | 131.73309 | 34482 ft | 483 kts | 296° |
| 2026-05-07 13:29 | -28.70461 | 131.66462 | 34475 ft | 483 kts | 296° |
| 2026-05-07 13:30 | -28.67506 | 131.59573 | 34481 ft | 482 kts | 296° |
| 2026-05-07 13:30 | -28.64571 | 131.52743 | 34483 ft | 482 kts | 296° |
| 2026-05-07 13:31 | -28.61609 | 131.45864 | 34481 ft | 482 kts | 296° |
| 2026-05-07 13:31 | -28.58674 | 131.39057 | 34481 ft | 480 kts | 296° |
| 2026-05-07 13:32 | -28.55723 | 131.32226 | 34484 ft | 479 kts | 296° |
| 2026-05-07 13:32 | -28.52792 | 131.25452 | 34481 ft | 480 kts | 296° |
| 2026-05-07 13:33 | -28.49682 | 131.18728 | 34484 ft | 480 kts | 301° |
| 2026-05-07 13:33 | -28.46117 | 131.12287 | 34482 ft | 480 kts | 302° |
| 2026-05-07 13:34 | -28.40660 | 131.02738 | 34478 ft | 481 kts | 302° |
| 2026-05-07 13:35 | -28.37025 | 130.96391 | 34484 ft | 481 kts | 302° |
| 2026-05-07 13:35 | -28.33376 | 130.90015 | 34480 ft | 481 kts | 302° |
| 2026-05-07 13:36 | -28.29711 | 130.83613 | 34477 ft | 481 kts | 302° |
| 2026-05-07 13:36 | -28.26080 | 130.77278 | 34479 ft | 481 kts | 302° |
| 2026-05-07 13:37 | -28.22423 | 130.70909 | 34478 ft | 481 kts | 302° |
| 2026-05-07 13:37 | -28.18766 | 130.64550 | 34472 ft | 481 kts | 302° |
| 2026-05-07 13:38 | -28.15129 | 130.58235 | 34476 ft | 480 kts | 302° |
| 2026-05-07 13:38 | -28.11468 | 130.51889 | 34475 ft | 480 kts | 302° |
| 2026-05-07 13:39 | -28.07801 | 130.45540 | 34474 ft | 480 kts | 302° |
| 2026-05-07 13:39 | -28.04146 | 130.39222 | 34472 ft | 481 kts | 302° |
| 2026-05-07 13:40 | -28.00489 | 130.32910 | 34471 ft | 481 kts | 302° |
| 2026-05-07 13:40 | -27.96819 | 130.26583 | 34471 ft | 481 kts | 302° |
| 2026-05-07 13:41 | -27.93136 | 130.20245 | 34474 ft | 481 kts | 302° |
| 2026-05-07 13:41 | -27.89467 | 130.13939 | 34469 ft | 481 kts | 302° |
| 2026-05-07 13:42 | -27.85774 | 130.07603 | 34469 ft | 481 kts | 302° |
| 2026-05-07 13:42 | -27.82106 | 130.01318 | 34469 ft | 481 kts | 302° |
| 2026-05-07 13:43 | -27.78413 | 129.95000 | 34464 ft | 481 kts | 302° |
| 2026-05-07 13:43 | -27.74746 | 129.88734 | 34464 ft | 481 kts | 302° |
| 2026-05-07 13:44 | -27.71052 | 129.82432 | 34462 ft | 480 kts | 302° |
| 2026-05-07 13:44 | -27.67347 | 129.76119 | 34457 ft | 481 kts | 302° |
| 2026-05-07 13:45 | -27.63667 | 129.69860 | 34464 ft | 481 kts | 302° |
| 2026-05-07 13:45 | -27.59962 | 129.63567 | 34454 ft | 480 kts | 302° |
| 2026-05-07 13:46 | -27.56259 | 129.57286 | 34460 ft | 480 kts | 302° |
| 2026-05-07 13:46 | -27.52576 | 129.51046 | 34454 ft | 481 kts | 302° |
| 2026-05-07 13:47 | -27.48865 | 129.44771 | 34451 ft | 480 kts | 302° |
| 2026-05-07 13:47 | -27.45165 | 129.38522 | 34452 ft | 480 kts | 302° |
| 2026-05-07 13:48 | -27.41450 | 129.32256 | 34449 ft | 480 kts | 302° |
| 2026-05-07 13:48 | -27.37757 | 129.26037 | 34441 ft | 480 kts | 302° |
| 2026-05-07 13:49 | -27.34036 | 129.19779 | 34448 ft | 481 kts | 302° |
| 2026-05-07 13:49 | -27.30331 | 129.13557 | 34438 ft | 479 kts | 302° |
| 2026-05-07 13:50 | -27.26613 | 129.07322 | 34443 ft | 480 kts | 302° |
| 2026-05-07 13:50 | -27.22887 | 129.01081 | 34440 ft | 480 kts | 302° |
| 2026-05-07 13:51 | -27.19178 | 128.94878 | 34436 ft | 480 kts | 302° |
| 2026-05-07 13:51 | -27.15441 | 128.88639 | 34436 ft | 480 kts | 302° |
| 2026-05-07 13:52 | -27.11722 | 128.82436 | 34437 ft | 481 kts | 302° |
| 2026-05-07 13:52 | -27.07977 | 128.76200 | 34427 ft | 481 kts | 302° |
| 2026-05-07 13:53 | -27.04225 | 128.69959 | 34433 ft | 481 kts | 302° |
| 2026-05-07 13:53 | -27.00489 | 128.63757 | 34427 ft | 480 kts | 302° |
| 2026-05-07 13:54 | -26.96735 | 128.57532 | 34425 ft | 481 kts | 302° |
| 2026-05-07 13:54 | -26.93004 | 128.51353 | 34425 ft | 481 kts | 302° |
| 2026-05-07 13:55 | -26.89881 | 128.46186 | 34419 ft | 481 kts | 302° |
| 2026-05-07 13:55 | -26.86116 | 128.39969 | 34414 ft | 481 kts | 302° |
| 2026-05-07 13:56 | -26.82381 | 128.33808 | 34419 ft | 479 kts | 302° |
| 2026-05-07 13:56 | -26.78645 | 128.27654 | 34414 ft | 479 kts | 302° |
| 2026-05-07 13:57 | -26.74889 | 128.21474 | 34411 ft | 479 kts | 302° |
| 2026-05-07 13:57 | -26.71133 | 128.15305 | 34400 ft | 479 kts | 302° |
| 2026-05-07 13:58 | -26.67395 | 128.09171 | 34409 ft | 478 kts | 302° |
| 2026-05-07 13:58 | -26.63634 | 128.03010 | 34403 ft | 478 kts | 302° |
| 2026-05-07 13:59 | -26.59904 | 127.96907 | 34403 ft | 478 kts | 302° |
| 2026-05-07 13:59 | -26.56129 | 127.90740 | 34401 ft | 481 kts | 302° |
| 2026-05-07 14:00 | -26.52346 | 127.84568 | 34400 ft | 481 kts | 302° |
| 2026-05-07 14:00 | -26.48584 | 127.78439 | 34399 ft | 481 kts | 302° |
| 2026-05-07 14:01 | -26.44795 | 127.72274 | 34396 ft | 480 kts | 302° |
| 2026-05-07 14:01 | -26.41026 | 127.66149 | 34397 ft | 482 kts | 302° |
| 2026-05-07 14:02 | -26.37212 | 127.59960 | 34395 ft | 482 kts | 302° |
| 2026-05-07 14:02 | -26.33433 | 127.53835 | 34392 ft | 481 kts | 302° |
| 2026-05-07 14:03 | -26.29625 | 127.47672 | 34387 ft | 481 kts | 302° |
| 2026-05-07 14:03 | -26.25834 | 127.41546 | 34387 ft | 482 kts | 302° |
| 2026-05-07 14:04 | -26.22013 | 127.35377 | 34383 ft | 482 kts | 302° |
| 2026-05-07 14:04 | -26.18218 | 127.29262 | 34387 ft | 481 kts | 302° |
| 2026-05-07 14:05 | -26.14427 | 127.23159 | 34387 ft | 481 kts | 302° |
| 2026-05-07 14:05 | -26.10610 | 127.17023 | 34385 ft | 481 kts | 302° |
| 2026-05-07 14:06 | -26.06793 | 127.10893 | 34384 ft | 481 kts | 302° |
| 2026-05-07 14:06 | -26.02995 | 127.04804 | 34378 ft | 479 kts | 302° |
| 2026-05-07 14:07 | -25.99060 | 126.98850 | 34383 ft | 477 kts | 306° |
| 2026-05-07 14:07 | -25.94824 | 126.93210 | 34376 ft | 478 kts | 307° |
| 2026-05-07 14:08 | -25.90493 | 126.87574 | 34368 ft | 478 kts | 307° |
| 2026-05-07 14:08 | -25.86164 | 126.81959 | 34373 ft | 477 kts | 307° |
| 2026-05-07 14:09 | -25.81876 | 126.76391 | 34371 ft | 477 kts | 307° |
| 2026-05-07 14:09 | -25.77550 | 126.70771 | 34365 ft | 477 kts | 307° |
| 2026-05-07 14:10 | -25.73250 | 126.65191 | 34366 ft | 478 kts | 307° |
| 2026-05-07 14:10 | -25.68924 | 126.59586 | 34361 ft | 477 kts | 307° |
| 2026-05-07 14:11 | -25.64628 | 126.54026 | 34362 ft | 476 kts | 307° |
| 2026-05-07 14:11 | -25.60316 | 126.48451 | 34363 ft | 476 kts | 307° |
| 2026-05-07 14:12 | -25.56019 | 126.42902 | 34356 ft | 476 kts | 307° |
| 2026-05-07 14:12 | -25.51699 | 126.37331 | 34358 ft | 476 kts | 307° |
| 2026-05-07 14:13 | -25.47362 | 126.31745 | 34354 ft | 476 kts | 307° |
| 2026-05-07 14:13 | -25.43054 | 126.26203 | 34355 ft | 476 kts | 307° |
| 2026-05-07 14:14 | -25.38718 | 126.20633 | 34349 ft | 477 kts | 307° |
| 2026-05-07 14:14 | -25.34404 | 126.15096 | 34329 ft | 477 kts | 306° |
| 2026-05-07 14:15 | -25.30069 | 126.09541 | 34346 ft | 475 kts | 306° |
| 2026-05-07 14:15 | -25.25766 | 126.04031 | 34349 ft | 475 kts | 306° |
| 2026-05-07 14:16 | -25.21443 | 125.98502 | 34355 ft | 475 kts | 306° |
| 2026-05-07 14:16 | -25.17109 | 125.92967 | 34338 ft | 475 kts | 306° |
| 2026-05-07 14:17 | -25.12802 | 125.87475 | 34339 ft | 473 kts | 306° |
| 2026-05-07 14:17 | -25.08488 | 125.81979 | 34332 ft | 472 kts | 306° |
| 2026-05-07 14:18 | -25.04205 | 125.76526 | 34332 ft | 472 kts | 306° |
| 2026-05-07 14:18 | -24.99885 | 125.71034 | 34336 ft | 473 kts | 306° |
| 2026-05-07 14:19 | -24.95593 | 125.65584 | 34318 ft | 472 kts | 306° |
| 2026-05-07 14:19 | -24.91284 | 125.60120 | 34331 ft | 471 kts | 306° |
| 2026-05-07 14:20 | -24.86978 | 125.54665 | 34326 ft | 471 kts | 306° |
| 2026-05-07 14:20 | -24.82670 | 125.49212 | 34323 ft | 471 kts | 306° |
| 2026-05-07 14:21 | -24.78387 | 125.43799 | 34319 ft | 471 kts | 306° |
| 2026-05-07 14:21 | -24.74074 | 125.38355 | 34317 ft | 470 kts | 305° |
| 2026-05-07 14:22 | -24.69802 | 125.32967 | 34316 ft | 469 kts | 305° |
| 2026-05-07 14:22 | -24.65500 | 125.27547 | 34315 ft | 469 kts | 306° |
| 2026-05-07 14:23 | -24.61192 | 125.22128 | 34316 ft | 469 kts | 305° |
| 2026-05-07 14:23 | -24.56914 | 125.16753 | 34303 ft | 469 kts | 305° |
| 2026-05-07 14:24 | -24.52612 | 125.11349 | 34311 ft | 473 kts | 305° |
| 2026-05-07 14:24 | -24.48250 | 125.05877 | 34304 ft | 474 kts | 305° |
| 2026-05-07 14:25 | -24.43932 | 125.00473 | 34305 ft | 474 kts | 305° |
| 2026-05-07 14:25 | -24.39572 | 124.95020 | 34293 ft | 474 kts | 305° |
| 2026-05-07 14:26 | -24.35220 | 124.89585 | 34301 ft | 471 kts | 304° |
| 2026-05-07 14:26 | -24.30912 | 124.84206 | 34300 ft | 471 kts | 304° |
| 2026-05-07 14:27 | -24.26577 | 124.78799 | 34296 ft | 471 kts | 304° |
| 2026-05-07 14:27 | -24.22272 | 124.73438 | 34293 ft | 471 kts | 304° |
| 2026-05-07 14:28 | -24.17930 | 124.68037 | 34281 ft | 471 kts | 304° |
| 2026-05-07 14:28 | -24.13620 | 124.62683 | 34293 ft | 469 kts | 304° |
| 2026-05-07 14:29 | -24.09289 | 124.57305 | 34293 ft | 469 kts | 304° |
| 2026-05-07 14:29 | -24.04989 | 124.51973 | 34289 ft | 469 kts | 304° |
| 2026-05-07 14:30 | -24.00646 | 124.46594 | 34291 ft | 470 kts | 304° |
| 2026-05-07 14:30 | -23.96330 | 124.41256 | 34287 ft | 469 kts | 304° |
| 2026-05-07 14:31 | -23.92004 | 124.35911 | 34287 ft | 469 kts | 304° |
| 2026-05-07 14:31 | -23.87700 | 124.30596 | 34281 ft | 469 kts | 304° |
| 2026-05-07 14:32 | -23.83369 | 124.25256 | 34283 ft | 469 kts | 304° |
| 2026-05-07 14:32 | -23.79050 | 124.19936 | 34252 ft | 468 kts | 303° |
| 2026-05-07 14:33 | -23.74743 | 124.14641 | 34278 ft | 467 kts | 303° |
| 2026-05-07 14:33 | -23.70432 | 124.09341 | 34279 ft | 466 kts | 303° |
| 2026-05-07 14:34 | -23.66108 | 124.04031 | 34276 ft | 467 kts | 303° |
| 2026-05-07 14:34 | -23.61808 | 123.98756 | 34277 ft | 467 kts | 303° |
| 2026-05-07 14:35 | -23.57489 | 123.93465 | 34276 ft | 466 kts | 303° |
| 2026-05-07 14:35 | -23.53175 | 123.88197 | 34269 ft | 467 kts | 304° |
| 2026-05-07 14:36 | -23.48444 | 123.83236 | 34273 ft | 473 kts | 308° |
| 2026-05-07 14:36 | -23.43597 | 123.78423 | 34271 ft | 474 kts | 309° |
| 2026-05-07 14:37 | -23.38694 | 123.73603 | 34271 ft | 474 kts | 309° |
| 2026-05-07 14:37 | -23.31388 | 123.66411 | 34264 ft | 473 kts | 308° |
| 2026-05-07 14:38 | -23.26505 | 123.61597 | 34268 ft | 473 kts | 308° |
| 2026-05-07 14:38 | -23.21646 | 123.56811 | 34260 ft | 473 kts | 308° |
| 2026-05-07 14:39 | -23.16753 | 123.51998 | 34222 ft | 473 kts | 308° |
| 2026-05-07 14:39 | -23.11876 | 123.47207 | 34258 ft | 472 kts | 308° |
| 2026-05-07 14:40 | -23.07026 | 123.42446 | 34256 ft | 472 kts | 308° |
| 2026-05-07 14:40 | -23.02966 | 123.38464 | 34255 ft | 472 kts | 308° |
| 2026-05-07 14:41 | -22.98080 | 123.33676 | 34257 ft | 472 kts | 308° |
| 2026-05-07 14:41 | -22.93227 | 123.28926 | 34247 ft | 471 kts | 308° |
| 2026-05-07 14:42 | -22.88368 | 123.24177 | 34251 ft | 470 kts | 308° |
| 2026-05-07 14:42 | -22.83492 | 123.19414 | 34249 ft | 470 kts | 308° |
| 2026-05-07 14:43 | -22.78621 | 123.14660 | 34243 ft | 470 kts | 307° |
| 2026-05-07 14:43 | -22.73771 | 123.09931 | 34245 ft | 470 kts | 307° |
| 2026-05-07 14:44 | -22.68914 | 123.05203 | 34246 ft | 469 kts | 307° |
| 2026-05-07 14:44 | -22.64087 | 123.00506 | 34244 ft | 468 kts | 307° |
| 2026-05-07 14:45 | -22.59232 | 122.95785 | 34237 ft | 468 kts | 307° |
| 2026-05-07 14:45 | -22.54401 | 122.91092 | 34238 ft | 468 kts | 307° |
| 2026-05-07 14:46 | -22.49548 | 122.86387 | 34211 ft | 468 kts | 306° |
| 2026-05-07 14:46 | -22.44700 | 122.81690 | 34235 ft | 466 kts | 306° |
| 2026-05-07 14:47 | -22.39889 | 122.77031 | 34230 ft | 466 kts | 306° |
| 2026-05-07 14:47 | -22.35041 | 122.72340 | 34236 ft | 466 kts | 306° |
| 2026-05-07 14:48 | -22.30220 | 122.67681 | 34229 ft | 466 kts | 306° |
| 2026-05-07 14:48 | -22.25374 | 122.63003 | 34224 ft | 466 kts | 306° |
| 2026-05-07 14:49 | -22.20531 | 122.58332 | 34225 ft | 466 kts | 306° |
| 2026-05-07 14:49 | -22.15691 | 122.53670 | 34225 ft | 466 kts | 306° |
| 2026-05-07 14:50 | -22.10878 | 122.49037 | 34221 ft | 466 kts | 306° |
| 2026-05-07 14:50 | -22.06038 | 122.44381 | 34222 ft | 466 kts | 306° |
| 2026-05-07 14:51 | -22.01217 | 122.39750 | 34218 ft | 465 kts | 306° |
| 2026-05-07 14:51 | -21.96372 | 122.35100 | 34215 ft | 465 kts | 306° |
| 2026-05-07 14:52 | -21.91560 | 122.30486 | 34216 ft | 465 kts | 306° |
| 2026-05-07 14:52 | -21.86723 | 122.25852 | 34205 ft | 465 kts | 306° |
| 2026-05-07 14:53 | -21.81882 | 122.21219 | 34175 ft | 465 kts | 306° |
| 2026-05-07 14:53 | -21.77083 | 122.16629 | 34204 ft | 464 kts | 306° |
| 2026-05-07 14:54 | -21.72241 | 122.12005 | 34203 ft | 464 kts | 306° |
| 2026-05-07 14:54 | -21.67429 | 122.07412 | 34201 ft | 464 kts | 306° |
| 2026-05-07 14:55 | -21.62590 | 122.02799 | 34201 ft | 464 kts | 307° |
| 2026-05-07 14:55 | -21.57778 | 121.98214 | 34181 ft | 463 kts | 307° |
| 2026-05-07 14:56 | -21.52934 | 121.93603 | 34194 ft | 463 kts | 307° |
| 2026-05-07 14:56 | -21.48125 | 121.89031 | 34194 ft | 463 kts | 307° |
| 2026-05-07 14:57 | -21.43295 | 121.84442 | 34195 ft | 463 kts | 307° |
| 2026-05-07 14:57 | -21.38482 | 121.79873 | 34190 ft | 464 kts | 307° |
| 2026-05-07 14:58 | -21.33644 | 121.75286 | 34193 ft | 463 kts | 307° |
| 2026-05-07 14:58 | -21.28812 | 121.70708 | 34183 ft | 463 kts | 307° |
| 2026-05-07 14:59 | -21.23978 | 121.66133 | 34184 ft | 463 kts | 307° |
| 2026-05-07 14:59 | -21.19169 | 121.61585 | 34181 ft | 463 kts | 307° |
| 2026-05-07 15:00 | -21.14327 | 121.57010 | 34183 ft | 463 kts | 307° |
| 2026-05-07 15:00 | -21.09508 | 121.52461 | 34172 ft | 463 kts | 307° |
| 2026-05-07 15:01 | -21.04658 | 121.47887 | 34173 ft | 463 kts | 307° |
| 2026-05-07 15:01 | -20.99840 | 121.43347 | 34177 ft | 463 kts | 307° |
| 2026-05-07 15:02 | -20.94992 | 121.38784 | 34165 ft | 463 kts | 307° |
| 2026-05-07 15:02 | -20.90174 | 121.34253 | 34163 ft | 463 kts | 307° |
| 2026-05-07 15:03 | -20.85324 | 121.29694 | 34167 ft | 464 kts | 308° |
| 2026-05-07 15:03 | -20.80461 | 121.25128 | 34159 ft | 464 kts | 308° |
| 2026-05-07 15:04 | -20.75629 | 121.20596 | 34158 ft | 463 kts | 308° |
| 2026-05-07 15:04 | -20.70950 | 121.15965 | 34153 ft | 457 kts | 304° |
| 2026-05-07 15:05 | -20.66512 | 121.11106 | 34154 ft | 456 kts | 303° |
| 2026-05-07 15:05 | -20.62079 | 121.06250 | 34139 ft | 457 kts | 304° |
| 2026-05-07 15:06 | -20.57616 | 121.01453 | 34141 ft | 458 kts | 304° |
| 2026-05-07 15:06 | -20.53101 | 120.96648 | 34140 ft | 458 kts | 304° |
| 2026-05-07 15:07 | -20.48582 | 120.91850 | 34140 ft | 457 kts | 305° |
| 2026-05-07 15:07 | -20.44061 | 120.87050 | 34135 ft | 457 kts | 305° |
| 2026-05-07 15:08 | -20.39581 | 120.82294 | 34123 ft | 457 kts | 305° |
| 2026-05-07 15:08 | -20.35059 | 120.77494 | 34127 ft | 459 kts | 305° |
| 2026-05-07 15:09 | -20.30515 | 120.72679 | 34129 ft | 459 kts | 305° |
| 2026-05-07 15:09 | -20.25997 | 120.67897 | 34118 ft | 459 kts | 305° |
| 2026-05-07 15:10 | -20.21483 | 120.63123 | 34119 ft | 459 kts | 305° |
| 2026-05-07 15:10 | -20.16939 | 120.58320 | 34122 ft | 459 kts | 305° |
| 2026-05-07 15:11 | -20.12419 | 120.53544 | 34113 ft | 460 kts | 306° |
| 2026-05-07 15:11 | -20.07857 | 120.48731 | 34114 ft | 461 kts | 306° |
| 2026-05-07 15:12 | -20.03296 | 120.43924 | 34107 ft | 461 kts | 306° |
| 2026-05-07 15:12 | -19.98760 | 120.39147 | 34108 ft | 461 kts | 306° |
| 2026-05-07 15:13 | -19.94197 | 120.34345 | 34103 ft | 460 kts | 306° |
| 2026-05-07 15:13 | -19.89651 | 120.29568 | 34102 ft | 458 kts | 306° |
| 2026-05-07 15:14 | -19.85149 | 120.24838 | 34099 ft | 457 kts | 306° |
| 2026-05-07 15:14 | -19.80618 | 120.20080 | 34100 ft | 457 kts | 306° |
| 2026-05-07 15:15 | -19.76085 | 120.15325 | 34094 ft | 457 kts | 306° |
| 2026-05-07 15:15 | -19.71575 | 120.10599 | 34092 ft | 457 kts | 306° |
| 2026-05-07 15:16 | -19.67047 | 120.05857 | 34076 ft | 457 kts | 307° |
| 2026-05-07 15:16 | -19.62507 | 120.01107 | 34101 ft | 458 kts | 307° |
| 2026-05-07 15:17 | -19.57972 | 119.96367 | 34076 ft | 459 kts | 307° |
| 2026-05-07 15:17 | -19.53413 | 119.91606 | 34092 ft | 459 kts | 307° |
| 2026-05-07 15:18 | -19.48874 | 119.86869 | 34095 ft | 459 kts | 307° |
| 2026-05-07 15:18 | -19.44334 | 119.82136 | 34068 ft | 459 kts | 307° |
| 2026-05-07 15:19 | -19.39769 | 119.77379 | 34073 ft | 460 kts | 307° |
| 2026-05-07 15:19 | -19.35223 | 119.72646 | 34078 ft | 460 kts | 307° |
| 2026-05-07 15:20 | -19.30637 | 119.67878 | 34073 ft | 461 kts | 307° |
| 2026-05-07 15:20 | -19.26075 | 119.63137 | 34070 ft | 461 kts | 307° |
| 2026-05-07 15:21 | -19.21487 | 119.58374 | 34066 ft | 460 kts | 307° |
| 2026-05-07 15:21 | -19.16915 | 119.53629 | 34048 ft | 461 kts | 307° |
| 2026-05-07 15:22 | -19.12334 | 119.48878 | 34064 ft | 462 kts | 307° |
| 2026-05-07 15:22 | -19.07759 | 119.44139 | 34062 ft | 463 kts | 307° |
| 2026-05-07 15:23 | -19.03141 | 119.39362 | 34064 ft | 463 kts | 307° |
| 2026-05-07 15:23 | -18.98564 | 119.34629 | 34061 ft | 463 kts | 307° |
| 2026-05-07 15:24 | -18.93944 | 119.29856 | 34061 ft | 463 kts | 307° |
| 2026-05-07 15:24 | -18.89362 | 119.25125 | 34061 ft | 463 kts | 307° |
| 2026-05-07 15:25 | -18.84732 | 119.20349 | 34058 ft | 462 kts | 308° |
| 2026-05-07 15:25 | -18.80155 | 119.15631 | 34059 ft | 462 kts | 308° |
| 2026-05-07 15:26 | -18.76313 | 119.11674 | 34053 ft | 462 kts | 308° |
| 2026-05-07 15:26 | -18.70955 | 119.06160 | 34053 ft | 462 kts | 308° |
| 2026-05-07 15:27 | -18.67116 | 119.02212 | 34039 ft | 462 kts | 308° |
| 2026-05-07 15:27 | -18.61736 | 118.96681 | 34052 ft | 464 kts | 308° |
| 2026-05-07 15:28 | -18.57871 | 118.92713 | 34049 ft | 465 kts | 308° |
| 2026-05-07 15:28 | -18.53221 | 118.87944 | 34048 ft | 465 kts | 308° |
| 2026-05-07 15:29 | -18.48583 | 118.83190 | 34047 ft | 465 kts | 308° |
| 2026-05-07 15:29 | -18.43961 | 118.78456 | 34046 ft | 465 kts | 308° |
| 2026-05-07 15:30 | -18.39308 | 118.73692 | 34048 ft | 467 kts | 308° |
| 2026-05-07 15:30 | -18.34665 | 118.68942 | 34044 ft | 468 kts | 308° |
| 2026-05-07 15:31 | -18.29980 | 118.64157 | 34043 ft | 468 kts | 308° |
| 2026-05-07 15:31 | -18.25335 | 118.59415 | 34043 ft | 468 kts | 308° |
| 2026-05-07 15:32 | -18.20649 | 118.54635 | 34043 ft | 467 kts | 308° |
| 2026-05-07 15:32 | -18.15987 | 118.49882 | 34018 ft | 467 kts | 308° |
| 2026-05-07 15:33 | -18.11300 | 118.45105 | 34038 ft | 469 kts | 308° |
| 2026-05-07 15:33 | -18.06631 | 118.40354 | 34041 ft | 469 kts | 308° |
| 2026-05-07 15:34 | -18.01937 | 118.35581 | 34035 ft | 469 kts | 309° |
| 2026-05-07 15:34 | -17.97264 | 118.30834 | 34037 ft | 468 kts | 309° |
| 2026-05-07 15:35 | -17.92567 | 118.26064 | 34038 ft | 468 kts | 309° |
| 2026-05-07 15:35 | -17.87881 | 118.21308 | 34033 ft | 469 kts | 309° |
| 2026-05-07 15:36 | -17.83206 | 118.16567 | 34034 ft | 471 kts | 309° |
| 2026-05-07 15:36 | -17.78564 | 118.11715 | 34032 ft | 468 kts | 306° |
| 2026-05-07 15:37 | -17.74203 | 118.06649 | 34034 ft | 466 kts | 305° |
| 2026-05-07 15:37 | -17.69909 | 118.01609 | 34031 ft | 466 kts | 305° |
| 2026-05-07 15:38 | -17.65543 | 117.96570 | 34029 ft | 466 kts | 306° |
| 2026-05-07 15:38 | -17.61149 | 117.91549 | 34026 ft | 468 kts | 306° |
| 2026-05-07 15:39 | -17.56763 | 117.86551 | 34026 ft | 468 kts | 306° |
| 2026-05-07 15:39 | -17.52343 | 117.81521 | 34028 ft | 468 kts | 306° |
| 2026-05-07 15:40 | -17.47954 | 117.76525 | 34026 ft | 468 kts | 306° |
| 2026-05-07 15:40 | -17.43531 | 117.71493 | 34026 ft | 468 kts | 306° |
| 2026-05-07 15:41 | -17.39126 | 117.66485 | 34020 ft | 468 kts | 306° |
| 2026-05-07 15:41 | -17.34690 | 117.61445 | 34020 ft | 470 kts | 306° |
| 2026-05-07 15:42 | -17.30255 | 117.56409 | 34021 ft | 471 kts | 306° |
| 2026-05-07 15:42 | -17.25823 | 117.51384 | 34020 ft | 471 kts | 306° |
| 2026-05-07 15:43 | -17.21382 | 117.46352 | 34020 ft | 471 kts | 306° |
| 2026-05-07 15:43 | -17.16958 | 117.41343 | 34020 ft | 470 kts | 306° |
| 2026-05-07 15:44 | -17.12517 | 117.36317 | 34021 ft | 470 kts | 306° |
| 2026-05-07 15:44 | -17.08056 | 117.31270 | 34019 ft | 472 kts | 306° |
| 2026-05-07 15:45 | -17.03602 | 117.26236 | 34018 ft | 473 kts | 306° |
| 2026-05-07 15:45 | -16.99139 | 117.21199 | 34015 ft | 473 kts | 306° |
| 2026-05-07 15:46 | -16.92445 | 117.13650 | 34013 ft | 473 kts | 306° |
| 2026-05-07 15:47 | -16.87960 | 117.08595 | 34005 ft | 472 kts | 306° |
| 2026-05-07 15:47 | -16.83510 | 117.03584 | 34002 ft | 473 kts | 307° |
| 2026-05-07 15:48 | -16.79020 | 116.98529 | 34007 ft | 474 kts | 307° |
| 2026-05-07 15:48 | -16.74550 | 116.93504 | 34007 ft | 474 kts | 307° |
| 2026-05-07 15:49 | -16.70064 | 116.88464 | 34005 ft | 474 kts | 307° |
| 2026-05-07 15:49 | -16.65575 | 116.83424 | 34007 ft | 474 kts | 307° |
| 2026-05-07 15:50 | -16.61101 | 116.78405 | 34007 ft | 473 kts | 307° |
| 2026-05-07 15:50 | -16.56632 | 116.73394 | 33989 ft | 473 kts | 307° |
| 2026-05-07 15:51 | -16.52127 | 116.68346 | 34007 ft | 475 kts | 307° |
| 2026-05-07 15:51 | -16.47606 | 116.63285 | 34007 ft | 476 kts | 307° |
| 2026-05-07 15:52 | -16.43109 | 116.58255 | 34006 ft | 476 kts | 307° |
| 2026-05-07 15:52 | -16.38618 | 116.53237 | 34007 ft | 475 kts | 307° |
| 2026-05-07 15:53 | -16.34099 | 116.48189 | 34007 ft | 475 kts | 307° |
| 2026-05-07 15:53 | -16.29588 | 116.43154 | 34006 ft | 475 kts | 307° |
| 2026-05-07 15:54 | -16.25103 | 116.38151 | 34007 ft | 475 kts | 307° |
| 2026-05-07 15:54 | -16.20580 | 116.33109 | 34004 ft | 475 kts | 307° |
| 2026-05-07 15:55 | -16.16086 | 116.28104 | 34004 ft | 475 kts | 307° |
| 2026-05-07 15:55 | -16.11570 | 116.23078 | 34004 ft | 474 kts | 307° |
| 2026-05-07 15:56 | -16.07063 | 116.18066 | 34004 ft | 474 kts | 307° |
| 2026-05-07 15:56 | -16.02561 | 116.13062 | 33989 ft | 473 kts | 308° |
| 2026-05-07 15:57 | -15.98076 | 116.08080 | 33997 ft | 475 kts | 308° |
| 2026-05-07 15:57 | -15.93539 | 116.03043 | 34152 ft | 476 kts | 308° |
| 2026-05-07 15:57 | -15.91280 | 116.00539 | 34349 ft | 474 kts | 308° |
| 2026-05-07 15:58 | -15.89025 | 115.98040 | 34519 ft | 474 kts | 308° |
| 2026-05-07 15:58 | -15.86789 | 115.95562 | 34688 ft | 473 kts | 308° |
| 2026-05-07 15:58 | -15.84536 | 115.93067 | 34885 ft | 471 kts | 308° |
| 2026-05-07 15:58 | -15.82292 | 115.90582 | 35093 ft | 470 kts | 308° |
| 2026-05-07 15:59 | -15.80042 | 115.88091 | 35230 ft | 470 kts | 308° |
| 2026-05-07 15:59 | -15.77833 | 115.85644 | 35361 ft | 470 kts | 308° |
| 2026-05-07 15:59 | -15.75590 | 115.83162 | 35482 ft | 470 kts | 308° |
| 2026-05-07 15:59 | -15.73354 | 115.80688 | 35602 ft | 470 kts | 308° |
| 2026-05-07 16:00 | -15.71110 | 115.78206 | 35714 ft | 470 kts | 308° |
| 2026-05-07 16:00 | -15.68868 | 115.75727 | 35844 ft | 470 kts | 308° |
| 2026-05-07 16:00 | -15.66659 | 115.73286 | 35962 ft | 470 kts | 308° |
| 2026-05-07 16:01 | -15.62178 | 115.68338 | 36007 ft | 469 kts | 308° |
| 2026-05-07 16:01 | -15.57700 | 115.63395 | 35985 ft | 469 kts | 308° |
| 2026-05-07 16:02 | -15.53253 | 115.58491 | 36002 ft | 469 kts | 308° |
| 2026-05-07 16:02 | -15.48782 | 115.53563 | 36003 ft | 468 kts | 308° |
| 2026-05-07 16:03 | -15.44306 | 115.48632 | 35990 ft | 469 kts | 308° |
| 2026-05-07 16:03 | -15.39850 | 115.43727 | 35990 ft | 469 kts | 308° |
| 2026-05-07 16:04 | -15.35370 | 115.38799 | 35992 ft | 469 kts | 308° |
| 2026-05-07 16:04 | -15.30920 | 115.33908 | 35991 ft | 469 kts | 308° |
| 2026-05-07 16:05 | -15.26422 | 115.28968 | 35986 ft | 468 kts | 308° |
| 2026-05-07 16:05 | -15.21977 | 115.24088 | 35989 ft | 468 kts | 308° |
| 2026-05-07 16:06 | -15.17501 | 115.19177 | 35983 ft | 468 kts | 308° |
| 2026-05-07 16:06 | -15.13002 | 115.14242 | 35989 ft | 472 kts | 308° |
| 2026-05-07 16:07 | -15.08513 | 115.09324 | 35987 ft | 472 kts | 308° |
| 2026-05-07 16:07 | -15.03994 | 115.04379 | 35988 ft | 472 kts | 308° |
| 2026-05-07 16:08 | -14.99508 | 114.99471 | 35982 ft | 471 kts | 308° |
| 2026-05-07 16:08 | -14.95188 | 114.94386 | 35984 ft | 469 kts | 305° |
| 2026-05-07 16:09 | -14.91041 | 114.89211 | 35985 ft | 468 kts | 305° |
| 2026-05-07 16:09 | -14.86850 | 114.84027 | 35982 ft | 470 kts | 306° |
| 2026-05-07 16:10 | -14.82608 | 114.78853 | 35985 ft | 471 kts | 306° |
| 2026-05-07 16:10 | -14.78371 | 114.73715 | 35982 ft | 471 kts | 306° |
| 2026-05-07 16:11 | -14.74140 | 114.68589 | 35982 ft | 471 kts | 306° |
| 2026-05-07 16:11 | -14.69873 | 114.63419 | 35979 ft | 471 kts | 306° |
| 2026-05-07 16:12 | -14.65638 | 114.58290 | 35977 ft | 471 kts | 306° |
| 2026-05-07 16:12 | -14.61376 | 114.53130 | 35967 ft | 471 kts | 306° |
| 2026-05-07 16:13 | -14.57106 | 114.47963 | 35978 ft | 473 kts | 306° |
| 2026-05-07 16:13 | -14.52855 | 114.42824 | 35978 ft | 473 kts | 306° |
| 2026-05-07 16:14 | -14.48567 | 114.37644 | 35977 ft | 473 kts | 306° |
| 2026-05-07 16:14 | -14.44325 | 114.32523 | 35977 ft | 472 kts | 306° |
| 2026-05-07 16:15 | -14.40036 | 114.27349 | 35977 ft | 472 kts | 306° |
| 2026-05-07 16:15 | -14.35785 | 114.22223 | 35977 ft | 472 kts | 306° |
| 2026-05-07 16:16 | -14.32218 | 114.17924 | 35965 ft | 473 kts | 307° |
| 2026-05-07 16:16 | -14.27227 | 114.11912 | 35974 ft | 474 kts | 307° |
| 2026-05-07 16:17 | -14.23646 | 114.07602 | 35974 ft | 475 kts | 307° |
| 2026-05-07 16:17 | -14.19345 | 114.02430 | 35971 ft | 474 kts | 307° |
| 2026-05-07 16:18 | -14.15044 | 113.97261 | 35974 ft | 474 kts | 307° |
| 2026-05-07 16:18 | -14.10773 | 113.92130 | 35974 ft | 474 kts | 307° |
| 2026-05-07 16:19 | -14.06478 | 113.86974 | 35971 ft | 474 kts | 307° |
| 2026-05-07 16:19 | -14.02176 | 113.81811 | 35969 ft | 474 kts | 307° |
| 2026-05-07 16:20 | -13.97887 | 113.76667 | 35972 ft | 476 kts | 307° |
| 2026-05-07 16:20 | -13.93557 | 113.71480 | 35971 ft | 475 kts | 307° |
| 2026-05-07 16:21 | -13.89275 | 113.66353 | 35968 ft | 474 kts | 307° |
| 2026-05-07 16:21 | -13.84980 | 113.61213 | 35966 ft | 474 kts | 307° |
| 2026-05-07 16:22 | -13.80664 | 113.56051 | 35969 ft | 474 kts | 307° |
| 2026-05-07 16:22 | -13.76373 | 113.50921 | 35968 ft | 474 kts | 307° |
| 2026-05-07 16:23 | -13.72052 | 113.45758 | 35960 ft | 476 kts | 307° |
| 2026-05-07 16:23 | -13.67699 | 113.40560 | 35963 ft | 479 kts | 307° |
| 2026-05-07 16:24 | -13.63374 | 113.35401 | 35965 ft | 479 kts | 307° |
| 2026-05-07 16:24 | -13.59010 | 113.30198 | 35967 ft | 479 kts | 307° |
| 2026-05-07 16:25 | -13.54687 | 113.25048 | 35967 ft | 479 kts | 307° |
| 2026-05-07 16:25 | -13.50336 | 113.19866 | 35963 ft | 479 kts | 307° |
| 2026-05-07 16:26 | -13.45980 | 113.14682 | 35962 ft | 479 kts | 307° |
| 2026-05-07 16:26 | -13.41636 | 113.09515 | 35964 ft | 478 kts | 307° |
| 2026-05-07 16:27 | -13.37273 | 113.04328 | 35964 ft | 478 kts | 307° |
| 2026-05-07 16:27 | -13.32951 | 112.99194 | 35963 ft | 478 kts | 307° |
| 2026-05-07 16:28 | -13.28586 | 112.94011 | 35961 ft | 477 kts | 307° |
| 2026-05-07 16:28 | -13.24243 | 112.88857 | 35957 ft | 477 kts | 307° |
| 2026-05-07 16:29 | -13.19899 | 112.83706 | 35961 ft | 477 kts | 307° |
| 2026-05-07 16:29 | -13.15581 | 112.78588 | 35961 ft | 477 kts | 307° |
| 2026-05-07 16:30 | -13.11216 | 112.73416 | 35958 ft | 479 kts | 307° |
| 2026-05-07 16:30 | -13.06868 | 112.68269 | 35961 ft | 479 kts | 307° |
| 2026-05-07 16:31 | -13.02485 | 112.63084 | 35960 ft | 479 kts | 307° |
| 2026-05-07 16:31 | -12.98138 | 112.57945 | 35958 ft | 479 kts | 307° |
| 2026-05-07 16:32 | -12.93758 | 112.52769 | 35961 ft | 479 kts | 307° |
| 2026-05-07 16:32 | -12.89416 | 112.47642 | 35954 ft | 477 kts | 307° |
| 2026-05-07 16:33 | -12.85056 | 112.42496 | 35957 ft | 476 kts | 307° |
| 2026-05-07 16:33 | -12.80707 | 112.37364 | 35956 ft | 477 kts | 307° |
| 2026-05-07 16:34 | -12.76343 | 112.32218 | 35955 ft | 478 kts | 307° |
| 2026-05-07 16:34 | -12.71991 | 112.27091 | 35951 ft | 478 kts | 307° |
| 2026-05-07 16:35 | -12.67645 | 112.21973 | 35955 ft | 478 kts | 308° |
| 2026-05-07 16:35 | -12.63277 | 112.16832 | 35950 ft | 478 kts | 308° |
| 2026-05-07 16:36 | -12.58892 | 112.11674 | 35952 ft | 477 kts | 307° |
| 2026-05-07 16:36 | -12.54556 | 112.06577 | 35951 ft | 476 kts | 307° |
| 2026-05-07 16:37 | -12.50195 | 112.01452 | 35949 ft | 478 kts | 308° |
| 2026-05-07 16:37 | -12.45818 | 111.96311 | 35951 ft | 478 kts | 308° |
| 2026-05-07 16:38 | -12.41452 | 111.91187 | 35949 ft | 479 kts | 308° |
| 2026-05-07 16:38 | -12.37076 | 111.86053 | 35948 ft | 482 kts | 308° |
| 2026-05-07 16:39 | -12.32662 | 111.80879 | 35949 ft | 481 kts | 308° |
| 2026-05-07 16:39 | -12.28271 | 111.75735 | 35948 ft | 480 kts | 308° |
| 2026-05-07 16:40 | -12.23863 | 111.70573 | 35948 ft | 480 kts | 308° |
| 2026-05-07 16:40 | -12.19491 | 111.65454 | 35947 ft | 482 kts | 308° |
| 2026-05-07 16:41 | -12.15061 | 111.60271 | 35948 ft | 482 kts | 308° |
| 2026-05-07 16:41 | -12.10662 | 111.55129 | 35947 ft | 483 kts | 308° |
| 2026-05-07 16:42 | -12.06244 | 111.49967 | 35946 ft | 481 kts | 308° |
| 2026-05-07 16:42 | -12.01841 | 111.44826 | 35944 ft | 480 kts | 308° |
| 2026-05-07 16:43 | -11.97528 | 111.39654 | 35944 ft | 478 kts | 305° |
| 2026-05-07 16:43 | -11.93576 | 111.34213 | 35944 ft | 478 kts | 303° |
| 2026-05-07 16:44 | -11.89658 | 111.28701 | 35939 ft | 479 kts | 304° |
| 2026-05-07 16:44 | -11.85700 | 111.23250 | 35943 ft | 481 kts | 304° |
| 2026-05-07 16:45 | -11.81669 | 111.17776 | 35943 ft | 481 kts | 304° |
| 2026-05-07 16:45 | -11.77671 | 111.12365 | 35938 ft | 481 kts | 304° |
| 2026-05-07 16:46 | -11.73635 | 111.06902 | 35941 ft | 480 kts | 304° |
| 2026-05-07 16:46 | -11.69626 | 111.01475 | 35941 ft | 481 kts | 304° |
| 2026-05-07 16:47 | -11.65589 | 110.96011 | 35942 ft | 482 kts | 304° |
| 2026-05-07 16:47 | -11.61549 | 110.90547 | 35939 ft | 482 kts | 304° |
| 2026-05-07 16:48 | -11.57493 | 110.85064 | 35937 ft | 484 kts | 305° |
| 2026-05-07 16:48 | -11.53425 | 110.79568 | 35939 ft | 485 kts | 305° |
| 2026-05-07 16:49 | -11.49370 | 110.74093 | 35948 ft | 486 kts | 305° |
| 2026-05-07 16:49 | -11.45297 | 110.68595 | 35940 ft | 487 kts | 305° |
| 2026-05-07 16:50 | -11.41199 | 110.63068 | 35938 ft | 488 kts | 305° |
| 2026-05-07 16:50 | -11.37127 | 110.57579 | 35937 ft | 487 kts | 305° |
| 2026-05-07 16:51 | -11.33032 | 110.52062 | 35939 ft | 486 kts | 305° |
| 2026-05-07 16:51 | -11.28959 | 110.46577 | 35930 ft | 485 kts | 305° |
| 2026-05-07 16:52 | -11.24896 | 110.41108 | 35942 ft | 485 kts | 305° |
| 2026-05-07 16:52 | -11.20835 | 110.35645 | 35938 ft | 485 kts | 305° |
| 2026-05-07 16:53 | -11.16746 | 110.30147 | 35931 ft | 485 kts | 305° |
| 2026-05-07 16:53 | -11.12658 | 110.24654 | 35932 ft | 485 kts | 305° |
| 2026-05-07 16:54 | -11.08600 | 110.19203 | 35935 ft | 485 kts | 305° |
| 2026-05-07 16:54 | -11.04514 | 110.13717 | 35932 ft | 485 kts | 305° |
| 2026-05-07 16:55 | -11.00438 | 110.08249 | 35928 ft | 485 kts | 306° |
| 2026-05-07 16:55 | -10.96377 | 110.02803 | 35944 ft | 487 kts | 306° |
| 2026-05-07 16:56 | -10.92253 | 109.97274 | 35928 ft | 488 kts | 306° |
| 2026-05-07 16:56 | -10.86107 | 109.89043 | 35926 ft | 488 kts | 306° |
| 2026-05-07 16:57 | -10.82012 | 109.83561 | 35927 ft | 487 kts | 306° |
| 2026-05-07 16:57 | -10.77907 | 109.78069 | 35937 ft | 486 kts | 306° |
| 2026-05-07 16:58 | -10.73807 | 109.72586 | 35920 ft | 486 kts | 306° |
| 2026-05-07 16:58 | -10.69724 | 109.67129 | 35921 ft | 486 kts | 306° |
| 2026-05-07 16:59 | -10.65614 | 109.61637 | 35920 ft | 487 kts | 306° |
| 2026-05-07 16:59 | -10.61502 | 109.56148 | 35935 ft | 487 kts | 306° |
| 2026-05-07 17:00 | -10.57405 | 109.50681 | 35937 ft | 487 kts | 306° |
| 2026-05-07 17:00 | -10.53296 | 109.45199 | 35919 ft | 486 kts | 306° |
| 2026-05-07 17:01 | -10.49212 | 109.39752 | 35934 ft | 487 kts | 306° |
| 2026-05-07 17:01 | -10.45100 | 109.34272 | 35916 ft | 487 kts | 306° |
| 2026-05-07 17:02 | -10.41687 | 109.29726 | 35917 ft | 488 kts | 306° |
| 2026-05-07 17:02 | -10.37570 | 109.24246 | 35913 ft | 487 kts | 306° |
| 2026-05-07 17:03 | -10.33459 | 109.18776 | 35915 ft | 486 kts | 306° |
| 2026-05-07 17:03 | -10.29347 | 109.13305 | 35922 ft | 486 kts | 306° |
| 2026-05-07 17:04 | -10.25253 | 109.07862 | 35911 ft | 487 kts | 306° |
| 2026-05-07 17:04 | -10.21136 | 109.02391 | 35930 ft | 487 kts | 306° |
| 2026-05-07 17:05 | -10.17040 | 108.96951 | 35926 ft | 487 kts | 306° |
| 2026-05-07 17:05 | -10.12921 | 108.91482 | 35925 ft | 487 kts | 306° |
| 2026-05-07 17:06 | -10.08825 | 108.86048 | 35912 ft | 486 kts | 306° |
| 2026-05-07 17:06 | -10.04717 | 108.80599 | 35929 ft | 487 kts | 306° |
| 2026-05-07 17:07 | -10.00597 | 108.75136 | 35919 ft | 487 kts | 306° |
| 2026-05-07 17:07 | -9.96459 | 108.69654 | 35907 ft | 487 kts | 306° |
| 2026-05-07 17:08 | -9.92355 | 108.64218 | 35922 ft | 489 kts | 306° |
| 2026-05-07 17:08 | -9.88210 | 108.58731 | 35921 ft | 488 kts | 306° |
| 2026-05-07 17:09 | -9.84102 | 108.53295 | 35917 ft | 487 kts | 306° |
| 2026-05-07 17:09 | -9.79955 | 108.47811 | 35918 ft | 491 kts | 306° |
| 2026-05-07 17:10 | -9.75783 | 108.42295 | 35907 ft | 493 kts | 306° |
| 2026-05-07 17:10 | -9.71612 | 108.36784 | 35901 ft | 494 kts | 306° |
| 2026-05-07 17:11 | -9.67432 | 108.31261 | 35911 ft | 493 kts | 306° |
| 2026-05-07 17:11 | -9.65346 | 108.28508 | 36038 ft | 490 kts | 306° |
| 2026-05-07 17:11 | -9.63305 | 108.25817 | 36316 ft | 486 kts | 306° |
| 2026-05-07 17:12 | -9.61239 | 108.23092 | 36427 ft | 487 kts | 306° |
| 2026-05-07 17:12 | -9.59178 | 108.20373 | 36594 ft | 486 kts | 306° |
| 2026-05-07 17:12 | -9.55049 | 108.14926 | 36862 ft | 484 kts | 306° |
| 2026-05-07 17:13 | -9.50955 | 108.09527 | 37059 ft | 485 kts | 306° |
| 2026-05-07 17:13 | -9.46835 | 108.04098 | 37325 ft | 483 kts | 306° |
| 2026-05-07 17:14 | -9.44782 | 108.01394 | 37502 ft | 482 kts | 306° |
| 2026-05-07 17:14 | -9.42761 | 107.98732 | 37545 ft | 483 kts | 306° |
| 2026-05-07 17:14 | -9.40714 | 107.96037 | 37669 ft | 482 kts | 306° |
| 2026-05-07 17:14 | -9.38668 | 107.93343 | 37820 ft | 481 kts | 306° |
| 2026-05-07 17:15 | -9.34581 | 107.87960 | 37909 ft | 482 kts | 306° |
| 2026-05-07 17:15 | -9.30484 | 107.82565 | 37908 ft | 482 kts | 306° |
| 2026-05-07 17:16 | -9.26401 | 107.77193 | 37908 ft | 482 kts | 306° |
| 2026-05-07 17:16 | -9.22305 | 107.71806 | 37905 ft | 482 kts | 306° |
| 2026-05-07 17:17 | -9.18242 | 107.66465 | 37907 ft | 481 kts | 306° |
| 2026-05-07 17:17 | -9.14137 | 107.61071 | 37907 ft | 483 kts | 306° |
| 2026-05-07 17:18 | -9.10049 | 107.55701 | 37906 ft | 486 kts | 306° |
| 2026-05-07 17:18 | -9.05899 | 107.50253 | 37907 ft | 488 kts | 306° |
| 2026-05-07 17:19 | -9.01741 | 107.44796 | 37905 ft | 491 kts | 306° |
| 2026-05-07 17:19 | -8.97586 | 107.39347 | 37904 ft | 492 kts | 306° |
| 2026-05-07 17:20 | -8.93392 | 107.33846 | 37904 ft | 493 kts | 306° |
| 2026-05-07 17:20 | -8.89201 | 107.28356 | 37902 ft | 492 kts | 306° |
| 2026-05-07 17:21 | -8.85038 | 107.22902 | 37902 ft | 493 kts | 306° |
| 2026-05-07 17:21 | -8.80847 | 107.17413 | 37898 ft | 493 kts | 306° |
| 2026-05-07 17:22 | -8.76648 | 107.11916 | 37900 ft | 494 kts | 306° |
| 2026-05-07 17:22 | -8.72455 | 107.06430 | 37900 ft | 494 kts | 306° |
| 2026-05-07 17:23 | -8.68248 | 107.00928 | 37901 ft | 494 kts | 306° |
| 2026-05-07 17:23 | -8.64065 | 106.95460 | 37900 ft | 494 kts | 306° |
| 2026-05-07 17:24 | -8.59857 | 106.89960 | 37897 ft | 494 kts | 306° |
| 2026-05-07 17:24 | -8.55640 | 106.84455 | 37898 ft | 494 kts | 306° |
| 2026-05-07 17:25 | -8.51449 | 106.78981 | 37897 ft | 495 kts | 306° |
| 2026-05-07 17:25 | -8.47218 | 106.73455 | 37896 ft | 496 kts | 306° |
| 2026-05-07 17:26 | -8.43024 | 106.67983 | 37896 ft | 495 kts | 307° |
| 2026-05-07 17:26 | -8.38799 | 106.62471 | 37895 ft | 495 kts | 306° |
| 2026-05-07 17:27 | -8.34601 | 106.56999 | 37889 ft | 494 kts | 307° |
| 2026-05-07 17:27 | -8.30385 | 106.51504 | 37893 ft | 495 kts | 306° |
| 2026-05-07 17:28 | -8.26161 | 106.45997 | 37890 ft | 496 kts | 307° |
| 2026-05-07 17:28 | -8.21920 | 106.40474 | 37895 ft | 497 kts | 306° |
| 2026-05-07 17:29 | -8.17683 | 106.34964 | 37892 ft | 496 kts | 306° |
| 2026-05-07 17:29 | -8.13437 | 106.29521 | 37891 ft | 496 kts | 308° |
| 2026-05-07 17:30 | -8.09072 | 106.24116 | 37890 ft | 495 kts | 308° |
| 2026-05-07 17:30 | -8.04701 | 106.18709 | 37891 ft | 496 kts | 308° |
| 2026-05-07 17:31 | -8.00375 | 106.13326 | 37884 ft | 497 kts | 309° |
| 2026-05-07 17:31 | -7.96009 | 106.07887 | 37889 ft | 499 kts | 309° |
| 2026-05-07 17:32 | -7.91624 | 106.02426 | 37885 ft | 500 kts | 309° |
| 2026-05-07 17:32 | -7.88004 | 105.97919 | 37886 ft | 501 kts | 309° |
| 2026-05-07 17:33 | -7.82875 | 105.91535 | 37890 ft | 499 kts | 309° |
| 2026-05-07 17:33 | -7.78530 | 105.86129 | 37889 ft | 498 kts | 309° |
| 2026-05-07 17:34 | -7.74153 | 105.80686 | 37884 ft | 498 kts | 309° |
| 2026-05-07 17:34 | -7.69809 | 105.75284 | 37888 ft | 497 kts | 309° |
| 2026-05-07 17:35 | -7.65452 | 105.69867 | 37887 ft | 498 kts | 309° |
| 2026-05-07 17:35 | -7.61105 | 105.64467 | 37887 ft | 498 kts | 309° |
| 2026-05-07 17:36 | -7.56726 | 105.59030 | 37887 ft | 500 kts | 309° |
| 2026-05-07 17:36 | -7.52322 | 105.53563 | 37886 ft | 502 kts | 310° |
| 2026-05-07 17:37 | -7.47912 | 105.48090 | 37884 ft | 502 kts | 309° |
| 2026-05-07 17:37 | -7.43526 | 105.42647 | 37884 ft | 501 kts | 309° |
| 2026-05-07 17:38 | -7.39122 | 105.37187 | 37884 ft | 501 kts | 310° |
| 2026-05-07 17:38 | -7.34731 | 105.31743 | 37884 ft | 501 kts | 310° |
| 2026-05-07 17:39 | -7.30344 | 105.26305 | 37883 ft | 501 kts | 310° |
| 2026-05-07 17:39 | -7.26005 | 105.20825 | 37884 ft | 499 kts | 308° |
| 2026-05-07 17:40 | -7.21899 | 105.15225 | 37884 ft | 500 kts | 307° |
| 2026-05-07 17:40 | -7.17785 | 105.09561 | 37884 ft | 500 kts | 307° |
| 2026-05-07 17:41 | -7.13666 | 105.03958 | 37884 ft | 499 kts | 308° |
| 2026-05-07 17:41 | -7.09504 | 104.98341 | 37884 ft | 499 kts | 308° |
| 2026-05-07 17:42 | -7.05347 | 104.92738 | 37883 ft | 497 kts | 308° |
| 2026-05-07 17:42 | -7.01238 | 104.87203 | 37883 ft | 493 kts | 308° |
| 2026-05-07 17:43 | -6.97149 | 104.81701 | 37883 ft | 493 kts | 308° |
| 2026-05-07 17:43 | -6.93030 | 104.76145 | 37883 ft | 493 kts | 308° |
| 2026-05-07 17:44 | -6.88940 | 104.70643 | 37884 ft | 493 kts | 308° |
| 2026-05-07 17:44 | -6.84824 | 104.65106 | 37884 ft | 494 kts | 308° |
| 2026-05-07 17:45 | -6.80701 | 104.59558 | 37885 ft | 494 kts | 308° |
| 2026-05-07 17:45 | -6.76606 | 104.54049 | 37881 ft | 493 kts | 308° |
| 2026-05-07 17:46 | -6.72507 | 104.48543 | 37883 ft | 493 kts | 308° |
| 2026-05-07 17:46 | -6.68391 | 104.43006 | 37883 ft | 492 kts | 308° |
| 2026-05-07 17:47 | -6.64306 | 104.37517 | 37883 ft | 492 kts | 308° |
| 2026-05-07 17:47 | -6.60189 | 104.31991 | 37885 ft | 491 kts | 308° |
| 2026-05-07 17:48 | -6.56123 | 104.26527 | 37884 ft | 488 kts | 308° |
| 2026-05-07 17:48 | -6.52038 | 104.21043 | 37879 ft | 489 kts | 308° |
| 2026-05-07 17:49 | -6.47966 | 104.15578 | 37886 ft | 489 kts | 308° |
| 2026-05-07 17:49 | -6.43888 | 104.10103 | 37886 ft | 488 kts | 308° |
| 2026-05-07 17:50 | -6.39806 | 104.04628 | 37885 ft | 491 kts | 308° |
| 2026-05-07 17:50 | -6.35714 | 103.99138 | 37884 ft | 494 kts | 308° |
| 2026-05-07 17:51 | -6.32279 | 103.94535 | 37883 ft | 495 kts | 308° |
| 2026-05-07 17:51 | -6.28142 | 103.88993 | 37884 ft | 496 kts | 308° |
| 2026-05-07 17:52 | -6.23974 | 103.83416 | 37884 ft | 497 kts | 307° |
| 2026-05-07 17:52 | -6.19844 | 103.77878 | 37882 ft | 497 kts | 307° |
| 2026-05-07 17:53 | -6.15688 | 103.72315 | 37883 ft | 496 kts | 307° |
| 2026-05-07 17:53 | -6.11555 | 103.66786 | 37884 ft | 497 kts | 307° |
| 2026-05-07 17:54 | -6.07406 | 103.61233 | 37882 ft | 497 kts | 308° |
| 2026-05-07 17:54 | -6.03251 | 103.55675 | 37882 ft | 497 kts | 307° |
| 2026-05-07 17:55 | -5.99104 | 103.50131 | 37885 ft | 497 kts | 308° |
| 2026-05-07 17:55 | -5.94941 | 103.44562 | 37883 ft | 495 kts | 307° |
| 2026-05-07 17:56 | -5.90812 | 103.39043 | 37881 ft | 495 kts | 307° |
| 2026-05-07 17:56 | -5.86676 | 103.33521 | 37883 ft | 496 kts | 307° |
| 2026-05-07 17:57 | -5.82535 | 103.27989 | 37883 ft | 497 kts | 307° |
| 2026-05-07 17:57 | -5.78370 | 103.22426 | 37884 ft | 497 kts | 307° |
| 2026-05-07 17:58 | -5.74228 | 103.16894 | 37883 ft | 497 kts | 307° |
| 2026-05-07 17:58 | -5.70056 | 103.11326 | 37885 ft | 498 kts | 307° |
| 2026-05-07 17:59 | -5.65896 | 103.05774 | 37884 ft | 498 kts | 308° |
| 2026-05-07 17:59 | -5.61712 | 103.00197 | 37884 ft | 499 kts | 307° |
| 2026-05-07 18:00 | -5.57557 | 102.94653 | 37887 ft | 499 kts | 308° |
| 2026-05-07 18:00 | -5.53381 | 102.89084 | 37886 ft | 498 kts | 308° |
| 2026-05-07 18:01 | -5.49239 | 102.83564 | 37883 ft | 498 kts | 308° |
| 2026-05-07 18:01 | -5.45056 | 102.77990 | 37885 ft | 499 kts | 308° |
| 2026-05-07 18:02 | -5.38778 | 102.69626 | 37884 ft | 501 kts | 308° |
| 2026-05-07 18:03 | -5.34594 | 102.64058 | 37887 ft | 503 kts | 308° |
| 2026-05-07 18:03 | -5.30377 | 102.58442 | 37887 ft | 504 kts | 308° |
| 2026-05-07 18:04 | -5.26143 | 102.52807 | 37885 ft | 504 kts | 308° |
| 2026-05-07 18:04 | -5.21937 | 102.47210 | 37889 ft | 504 kts | 308° |
| 2026-05-07 18:05 | -5.17701 | 102.41577 | 37887 ft | 506 kts | 308° |
| 2026-05-07 18:05 | -5.13474 | 102.35952 | 37887 ft | 507 kts | 308° |
| 2026-05-07 18:06 | -5.09211 | 102.30285 | 37887 ft | 509 kts | 308° |
| 2026-05-07 18:06 | -5.04941 | 102.24608 | 37884 ft | 509 kts | 308° |
| 2026-05-07 18:07 | -5.00666 | 102.18927 | 37883 ft | 508 kts | 308° |
| 2026-05-07 18:07 | -4.96438 | 102.13308 | 37883 ft | 504 kts | 308° |
| 2026-05-07 18:08 | -4.92237 | 102.07728 | 37886 ft | 503 kts | 308° |
| 2026-05-07 18:08 | -4.88005 | 102.02107 | 37882 ft | 502 kts | 308° |
| 2026-05-07 18:09 | -4.83801 | 101.96526 | 37874 ft | 498 kts | 308° |
| 2026-05-07 18:09 | -4.79659 | 101.91027 | 37881 ft | 495 kts | 308° |
| 2026-05-07 18:10 | -4.75502 | 101.85511 | 37883 ft | 495 kts | 308° |
| 2026-05-07 18:10 | -4.71335 | 101.79982 | 37881 ft | 495 kts | 308° |
| 2026-05-07 18:11 | -4.67204 | 101.74503 | 37876 ft | 495 kts | 308° |
| 2026-05-07 18:11 | -4.63045 | 101.68987 | 37878 ft | 495 kts | 308° |
| 2026-05-07 18:12 | -4.58874 | 101.63455 | 37884 ft | 496 kts | 308° |
| 2026-05-07 18:12 | -4.54705 | 101.57930 | 37881 ft | 497 kts | 308° |
| 2026-05-07 18:13 | -4.50528 | 101.52394 | 37881 ft | 497 kts | 308° |
| 2026-05-07 18:13 | -4.46376 | 101.46893 | 37883 ft | 497 kts | 308° |
| 2026-05-07 18:14 | -4.42213 | 101.41377 | 37878 ft | 498 kts | 308° |
| 2026-05-07 18:14 | -4.38024 | 101.35829 | 37878 ft | 499 kts | 308° |
| 2026-05-07 18:15 | -4.33828 | 101.30272 | 37886 ft | 498 kts | 308° |
| 2026-05-07 18:15 | -4.29642 | 101.24729 | 37881 ft | 498 kts | 308° |
| 2026-05-07 18:16 | -4.25464 | 101.19198 | 37883 ft | 498 kts | 308° |
| 2026-05-07 18:16 | -4.21292 | 101.13678 | 37881 ft | 498 kts | 308° |
| 2026-05-07 18:17 | -4.17099 | 101.08130 | 37880 ft | 498 kts | 308° |
| 2026-05-07 18:17 | -4.12901 | 101.02577 | 37878 ft | 498 kts | 308° |
| 2026-05-07 18:18 | -4.08727 | 100.97057 | 37878 ft | 499 kts | 308° |
| 2026-05-07 18:18 | -4.04554 | 100.91539 | 37878 ft | 499 kts | 308° |
| 2026-05-07 18:19 | -4.00354 | 100.85985 | 37877 ft | 499 kts | 308° |
| 2026-05-07 18:19 | -3.96150 | 100.80427 | 37875 ft | 499 kts | 308° |
| 2026-05-07 18:20 | -3.91974 | 100.74908 | 37876 ft | 499 kts | 308° |
| 2026-05-07 18:20 | -3.87764 | 100.69345 | 37876 ft | 499 kts | 308° |
| 2026-05-07 18:21 | -3.83565 | 100.63798 | 37877 ft | 499 kts | 308° |
| 2026-05-07 18:21 | -3.79391 | 100.58285 | 37875 ft | 499 kts | 308° |
| 2026-05-07 18:22 | -3.75186 | 100.52730 | 37877 ft | 500 kts | 309° |
| 2026-05-07 18:22 | -3.70976 | 100.47173 | 37875 ft | 500 kts | 308° |
| 2026-05-07 18:23 | -3.66774 | 100.41626 | 37877 ft | 500 kts | 308° |
| 2026-05-07 18:23 | -3.62588 | 100.36100 | 37875 ft | 500 kts | 308° |
| 2026-05-07 18:24 | -3.58372 | 100.30536 | 37873 ft | 500 kts | 308° |
| 2026-05-07 18:24 | -3.54191 | 100.25019 | 37873 ft | 500 kts | 308° |
| 2026-05-07 18:25 | -3.49970 | 100.19450 | 37876 ft | 500 kts | 309° |
| 2026-05-07 18:25 | -3.45775 | 100.13917 | 37873 ft | 500 kts | 309° |
| 2026-05-07 18:26 | -3.41590 | 100.08398 | 37873 ft | 500 kts | 309° |
| 2026-05-07 18:26 | -3.37366 | 100.02828 | 37873 ft | 500 kts | 309° |
| 2026-05-07 18:27 | -3.33173 | 99.97300 | 37870 ft | 500 kts | 309° |
| 2026-05-07 18:27 | -3.28991 | 99.91788 | 37870 ft | 500 kts | 309° |
| 2026-05-07 18:28 | -3.24776 | 99.86233 | 37870 ft | 500 kts | 309° |
| 2026-05-07 18:28 | -3.20586 | 99.80710 | 37871 ft | 500 kts | 309° |
| 2026-05-07 18:29 | -3.16371 | 99.75156 | 37870 ft | 501 kts | 309° |
| 2026-05-07 18:29 | -3.12167 | 99.69620 | 37870 ft | 501 kts | 309° |
| 2026-05-07 18:30 | -3.07943 | 99.64056 | 37870 ft | 501 kts | 309° |
| 2026-05-07 18:30 | -3.03743 | 99.58524 | 37870 ft | 501 kts | 309° |
| 2026-05-07 18:31 | -2.99521 | 99.52965 | 37870 ft | 501 kts | 309° |
| 2026-05-07 18:31 | -2.95297 | 99.47403 | 37870 ft | 500 kts | 309° |
| 2026-05-07 18:32 | -2.91093 | 99.41869 | 37870 ft | 500 kts | 309° |
| 2026-05-07 18:32 | -2.86876 | 99.36319 | 37864 ft | 500 kts | 309° |
| 2026-05-07 18:33 | -2.82684 | 99.30803 | 37867 ft | 500 kts | 309° |
| 2026-05-07 18:33 | -2.78482 | 99.25273 | 37867 ft | 500 kts | 309° |
| 2026-05-07 18:34 | -2.74266 | 99.19726 | 37864 ft | 500 kts | 309° |
| 2026-05-07 18:34 | -2.70070 | 99.14206 | 37865 ft | 500 kts | 309° |
| 2026-05-07 18:35 | -2.65854 | 99.08661 | 37865 ft | 500 kts | 309° |
| 2026-05-07 18:35 | -2.61637 | 99.03116 | 37863 ft | 497 kts | 309° |
| 2026-05-07 18:36 | -2.57482 | 98.97651 | 37866 ft | 496 kts | 309° |
| 2026-05-07 18:36 | -2.53293 | 98.92142 | 37864 ft | 495 kts | 309° |
| 2026-05-07 18:37 | -2.49141 | 98.86684 | 37863 ft | 495 kts | 309° |
| 2026-05-07 18:37 | -2.44960 | 98.81187 | 37865 ft | 495 kts | 309° |
| 2026-05-07 18:38 | -2.41481 | 98.76615 | 37867 ft | 495 kts | 309° |
| 2026-05-07 18:38 | -2.36620 | 98.70227 | 37862 ft | 496 kts | 309° |
| 2026-05-07 18:39 | -2.33137 | 98.65651 | 37868 ft | 499 kts | 309° |
| 2026-05-07 18:39 | -2.28906 | 98.60090 | 37864 ft | 500 kts | 309° |
| 2026-05-07 18:40 | -2.24712 | 98.54580 | 37860 ft | 500 kts | 309° |
| 2026-05-07 18:40 | -2.20485 | 98.49026 | 37862 ft | 500 kts | 309° |
| 2026-05-07 18:41 | -2.16287 | 98.43513 | 37864 ft | 500 kts | 309° |
| 2026-05-07 18:41 | -2.12069 | 98.37972 | 37862 ft | 500 kts | 309° |
| 2026-05-07 18:42 | -2.07845 | 98.32425 | 37871 ft | 501 kts | 309° |
| 2026-05-07 18:42 | -2.03625 | 98.26884 | 37867 ft | 503 kts | 309° |
| 2026-05-07 18:43 | -1.99386 | 98.21319 | 37867 ft | 503 kts | 309° |
| 2026-05-07 18:43 | -1.95164 | 98.15775 | 37867 ft | 503 kts | 309° |
| 2026-05-07 18:44 | -1.90930 | 98.10217 | 37867 ft | 503 kts | 309° |
| 2026-05-07 18:44 | -1.86680 | 98.04638 | 37866 ft | 503 kts | 309° |
| 2026-05-07 18:45 | -1.82457 | 97.99096 | 37868 ft | 503 kts | 309° |
| 2026-05-07 18:45 | -1.78217 | 97.93530 | 37868 ft | 503 kts | 309° |
| 2026-05-07 18:46 | -1.73978 | 97.87967 | 37870 ft | 504 kts | 309° |
| 2026-05-07 18:46 | -1.69716 | 97.82375 | 37867 ft | 503 kts | 309° |
| 2026-05-07 18:47 | -1.65488 | 97.76828 | 37865 ft | 503 kts | 309° |
| 2026-05-07 18:47 | -1.61245 | 97.71259 | 37868 ft | 503 kts | 309° |
| 2026-05-07 18:48 | -1.57654 | 97.65278 | 37870 ft | 505 kts | 298° |
| 2026-05-07 18:48 | -1.54522 | 97.58979 | 37876 ft | 506 kts | 297° |
| 2026-05-07 18:49 | -1.51461 | 97.52646 | 37865 ft | 505 kts | 297° |
| 2026-05-07 18:49 | -1.48414 | 97.46356 | 37868 ft | 505 kts | 297° |
| 2026-05-07 18:50 | -1.45334 | 97.40030 | 37866 ft | 506 kts | 297° |
| 2026-05-07 18:50 | -1.42260 | 97.33729 | 37867 ft | 505 kts | 297° |
| 2026-05-07 18:51 | -1.39172 | 97.27402 | 37869 ft | 505 kts | 297° |
| 2026-05-07 18:51 | -1.36086 | 97.21079 | 37869 ft | 505 kts | 297° |
| 2026-05-07 18:52 | -1.33009 | 97.14773 | 37869 ft | 505 kts | 297° |
| 2026-05-07 18:52 | -1.29942 | 97.08489 | 37869 ft | 506 kts | 297° |
| 2026-05-07 18:53 | -1.26848 | 97.02151 | 37865 ft | 505 kts | 297° |
| 2026-05-07 18:53 | -1.23774 | 96.95854 | 37864 ft | 505 kts | 297° |
| 2026-05-07 18:54 | -1.20700 | 96.89557 | 37868 ft | 505 kts | 297° |
| 2026-05-07 18:54 | -1.17612 | 96.83230 | 37878 ft | 505 kts | 297° |
| 2026-05-07 18:55 | -1.14543 | 96.76945 | 37866 ft | 506 kts | 297° |
| 2026-05-07 18:55 | -1.11447 | 96.70604 | 37871 ft | 507 kts | 297° |
| 2026-05-07 18:56 | -1.08356 | 96.64273 | 37865 ft | 508 kts | 297° |
| 2026-05-07 18:56 | -1.05256 | 96.57924 | 37869 ft | 507 kts | 297° |
| 2026-05-07 18:57 | -1.02173 | 96.51611 | 37868 ft | 507 kts | 297° |
| 2026-05-07 18:57 | -0.99065 | 96.45246 | 37873 ft | 507 kts | 297° |
| 2026-05-07 18:58 | -0.95971 | 96.38913 | 37870 ft | 510 kts | 297° |
| 2026-05-07 18:58 | -0.92860 | 96.32544 | 37867 ft | 510 kts | 297° |
| 2026-05-07 18:59 | -0.89761 | 96.26198 | 37867 ft | 510 kts | 297° |
| 2026-05-07 18:59 | -0.86639 | 96.19808 | 37868 ft | 510 kts | 297° |
| 2026-05-07 19:00 | -0.83548 | 96.13480 | 37868 ft | 510 kts | 297° |
| 2026-05-07 19:00 | -0.80432 | 96.07100 | 37871 ft | 510 kts | 297° |
| 2026-05-07 19:01 | -0.77300 | 96.00692 | 37867 ft | 512 kts | 297° |
| 2026-05-07 19:01 | -0.74191 | 95.94329 | 37864 ft | 512 kts | 297° |
| 2026-05-07 19:02 | -0.71059 | 95.87916 | 37864 ft | 512 kts | 297° |
| 2026-05-07 19:02 | -0.67927 | 95.81507 | 37865 ft | 512 kts | 297° |
| 2026-05-07 19:03 | -0.64811 | 95.75129 | 37865 ft | 512 kts | 297° |
| 2026-05-07 19:03 | -0.61683 | 95.68730 | 37867 ft | 513 kts | 297° |
| 2026-05-07 19:04 | -0.58556 | 95.62331 | 37863 ft | 516 kts | 297° |
| 2026-05-07 19:04 | -0.55402 | 95.55876 | 37861 ft | 516 kts | 297° |
| 2026-05-07 19:05 | -0.52244 | 95.49414 | 37863 ft | 516 kts | 297° |
| 2026-05-07 19:05 | -0.49102 | 95.42984 | 37863 ft | 516 kts | 297° |
| 2026-05-07 19:06 | -0.45942 | 95.36519 | 37866 ft | 516 kts | 297° |
| 2026-05-07 19:06 | -0.41217 | 95.26850 | 37863 ft | 519 kts | 297° |
| 2026-05-07 19:07 | -0.38052 | 95.20376 | 37865 ft | 520 kts | 297° |
| 2026-05-07 19:07 | -0.34873 | 95.13872 | 37861 ft | 520 kts | 297° |
| 2026-05-07 19:08 | -0.31715 | 95.07413 | 37863 ft | 520 kts | 297° |
| 2026-05-07 19:08 | -0.28538 | 95.00913 | 37863 ft | 520 kts | 297° |
| 2026-05-07 19:09 | -0.25355 | 94.94399 | 37860 ft | 520 kts | 297° |
| 2026-05-07 19:09 | -0.22183 | 94.87909 | 37862 ft | 524 kts | 297° |
| 2026-05-07 19:10 | -0.18987 | 94.81372 | 37861 ft | 525 kts | 297° |
| 2026-05-07 19:10 | -0.15772 | 94.74794 | 37862 ft | 525 kts | 297° |
| 2026-05-07 19:11 | -0.12583 | 94.68269 | 37856 ft | 525 kts | 297° |
| 2026-05-07 19:11 | -0.09374 | 94.61704 | 37858 ft | 525 kts | 297° |
| 2026-05-07 19:12 | -0.06168 | 94.55146 | 37854 ft | 525 kts | 297° |
| 2026-05-07 19:12 | -0.02977 | 94.48617 | 37856 ft | 525 kts | 297° |
| 2026-05-07 19:13 | 0.00223 | 94.42072 | 37859 ft | 525 kts | 297° |
| 2026-05-07 19:13 | 0.03442 | 94.35487 | 37852 ft | 526 kts | 297° |
| 2026-05-07 19:14 | 0.06645 | 94.28935 | 37853 ft | 527 kts | 297° |
| 2026-05-07 19:14 | 0.09861 | 94.22354 | 37843 ft | 527 kts | 297° |
| 2026-05-07 19:15 | 0.13068 | 94.15793 | 37849 ft | 527 kts | 298° |
| 2026-05-07 19:15 | 0.16298 | 94.09185 | 37849 ft | 527 kts | 298° |
| 2026-05-07 19:16 | 0.19501 | 94.02633 | 37849 ft | 527 kts | 298° |
| 2026-05-07 19:16 | 0.22705 | 93.96080 | 37849 ft | 527 kts | 298° |
| 2026-05-07 19:17 | 0.25932 | 93.89477 | 37848 ft | 527 kts | 298° |
| 2026-05-07 19:17 | 0.29141 | 93.82913 | 37850 ft | 527 kts | 298° |
| 2026-05-07 19:18 | 0.32343 | 93.76361 | 37848 ft | 526 kts | 297° |
| 2026-05-07 19:18 | 0.35562 | 93.69775 | 37848 ft | 526 kts | 297° |
| 2026-05-07 19:19 | 0.38760 | 93.63239 | 37850 ft | 526 kts | 297° |
| 2026-05-07 19:19 | 0.41979 | 93.56636 | 37850 ft | 526 kts | 297° |
| 2026-05-07 19:20 | 0.45173 | 93.50079 | 37847 ft | 526 kts | 297° |
| 2026-05-07 19:20 | 0.48382 | 93.43497 | 37849 ft | 526 kts | 297° |
| 2026-05-07 19:21 | 0.51590 | 93.36920 | 37847 ft | 526 kts | 297° |
| 2026-05-07 19:21 | 0.54781 | 93.30377 | 37847 ft | 526 kts | 297° |
| 2026-05-07 19:22 | 0.57992 | 93.23794 | 37847 ft | 526 kts | 297° |
| 2026-05-07 19:22 | 0.61205 | 93.17205 | 37845 ft | 526 kts | 297° |
| 2026-05-07 19:23 | 0.64395 | 93.10665 | 37847 ft | 526 kts | 297° |
| 2026-05-07 19:23 | 0.67609 | 93.04074 | 37843 ft | 526 kts | 297° |
| 2026-05-07 19:24 | 0.70811 | 92.97508 | 37843 ft | 526 kts | 297° |
| 2026-05-07 19:24 | 0.74018 | 92.90930 | 37845 ft | 526 kts | 297° |
| 2026-05-07 19:25 | 0.77233 | 92.84336 | 37838 ft | 526 kts | 297° |
| 2026-05-07 19:25 | 0.80425 | 92.77790 | 37840 ft | 526 kts | 297° |
| 2026-05-07 19:26 | 0.83635 | 92.71205 | 37836 ft | 526 kts | 297° |
| 2026-05-07 19:26 | 0.86827 | 92.64660 | 37834 ft | 526 kts | 297° |
| 2026-05-07 19:27 | 0.89497 | 92.59181 | 37833 ft | 525 kts | 297° |
| 2026-05-07 19:27 | 0.92697 | 92.52616 | 37833 ft | 525 kts | 297° |
| 2026-05-07 19:28 | 0.95880 | 92.46086 | 37831 ft | 525 kts | 297° |
| 2026-05-07 19:28 | 0.99084 | 92.39513 | 37833 ft | 525 kts | 297° |
| 2026-05-07 19:29 | 1.02269 | 92.32979 | 37834 ft | 525 kts | 297° |
| 2026-05-07 19:29 | 1.05474 | 92.26404 | 37836 ft | 525 kts | 297° |
| 2026-05-07 19:30 | 1.08677 | 92.19831 | 37837 ft | 524 kts | 297° |
| 2026-05-07 19:30 | 1.11852 | 92.13316 | 37836 ft | 525 kts | 297° |
| 2026-05-07 19:31 | 1.15056 | 92.06739 | 37833 ft | 525 kts | 297° |
| 2026-05-07 19:31 | 1.18243 | 92.00198 | 37833 ft | 525 kts | 297° |
| 2026-05-07 19:32 | 1.21487 | 91.93627 | 37833 ft | 525 kts | 297° |
| 2026-05-07 19:32 | 1.24736 | 91.87117 | 37818 ft | 525 kts | 298° |
| 2026-05-07 19:33 | 1.27987 | 91.80596 | 37837 ft | 525 kts | 298° |
| 2026-05-07 19:33 | 1.31242 | 91.74053 | 37841 ft | 525 kts | 297° |
| 2026-05-07 19:34 | 1.34497 | 91.67505 | 37822 ft | 525 kts | 297° |
| 2026-05-07 19:34 | 1.37731 | 91.60999 | 37837 ft | 525 kts | 297° |
| 2026-05-07 19:35 | 1.40985 | 91.54453 | 37835 ft | 525 kts | 297° |
| 2026-05-07 19:35 | 1.44224 | 91.47935 | 37817 ft | 524 kts | 298° |
| 2026-05-07 19:36 | 1.47470 | 91.41403 | 37818 ft | 524 kts | 298° |
| 2026-05-07 19:36 | 1.50702 | 91.34899 | 37835 ft | 524 kts | 298° |
| 2026-05-07 19:37 | 1.53951 | 91.28359 | 37831 ft | 524 kts | 298° |
| 2026-05-07 19:37 | 1.57171 | 91.21877 | 37835 ft | 522 kts | 298° |
| 2026-05-07 19:38 | 1.60408 | 91.15363 | 37815 ft | 522 kts | 298° |
| 2026-05-07 19:38 | 1.63634 | 91.08869 | 37829 ft | 521 kts | 297° |
| 2026-05-07 19:39 | 1.66841 | 91.02413 | 37833 ft | 520 kts | 297° |
| 2026-05-07 19:39 | 1.70072 | 90.95906 | 37828 ft | 520 kts | 297° |
| 2026-05-07 19:40 | 1.73283 | 90.89440 | 37811 ft | 520 kts | 297° |
| 2026-05-07 19:40 | 1.76508 | 90.82944 | 37829 ft | 521 kts | 297° |
| 2026-05-07 19:41 | 1.79712 | 90.76492 | 37812 ft | 520 kts | 297° |
| 2026-05-07 19:41 | 1.82930 | 90.70010 | 37824 ft | 518 kts | 297° |
| 2026-05-07 19:42 | 1.86118 | 90.63586 | 37825 ft | 517 kts | 297° |
| 2026-05-07 19:42 | 1.89324 | 90.57127 | 37823 ft | 517 kts | 297° |
| 2026-05-07 19:43 | 1.92528 | 90.50670 | 37821 ft | 516 kts | 297° |
| 2026-05-07 19:43 | 1.95687 | 90.44304 | 37822 ft | 513 kts | 297° |
| 2026-05-07 19:44 | 1.98869 | 90.37890 | 37816 ft | 513 kts | 297° |
| 2026-05-07 19:44 | 2.02020 | 90.31540 | 37820 ft | 513 kts | 297° |
| 2026-05-07 19:45 | 2.05198 | 90.25134 | 37821 ft | 513 kts | 297° |
| 2026-05-07 19:45 | 2.08373 | 90.18732 | 37820 ft | 513 kts | 297° |
| 2026-05-07 19:46 | 2.11530 | 90.12366 | 37820 ft | 513 kts | 297° |
| 2026-05-07 19:46 | 2.14687 | 90.05999 | 37821 ft | 513 kts | 297° |
| 2026-05-07 19:47 | 2.17866 | 89.99587 | 37818 ft | 513 kts | 297° |
| 2026-05-07 19:47 | 2.21012 | 89.93242 | 37822 ft | 510 kts | 297° |
| 2026-05-07 19:48 | 2.24166 | 89.86878 | 37816 ft | 510 kts | 297° |
| 2026-05-07 19:48 | 2.27304 | 89.80545 | 37819 ft | 510 kts | 297° |
| 2026-05-07 19:49 | 2.30458 | 89.74182 | 37823 ft | 511 kts | 297° |
| 2026-05-07 19:49 | 2.33616 | 89.67798 | 37822 ft | 512 kts | 297° |
| 2026-05-07 19:50 | 2.36776 | 89.61408 | 37823 ft | 516 kts | 297° |
| 2026-05-07 19:50 | 2.39956 | 89.54976 | 37821 ft | 517 kts | 297° |
| 2026-05-07 19:51 | 2.43153 | 89.48511 | 37820 ft | 517 kts | 297° |
| 2026-05-07 19:51 | 2.46326 | 89.42093 | 37822 ft | 517 kts | 297° |
| 2026-05-07 19:52 | 2.49525 | 89.35622 | 37819 ft | 517 kts | 297° |
| 2026-05-07 19:52 | 2.52696 | 89.29207 | 37816 ft | 517 kts | 297° |
| 2026-05-07 19:53 | 2.55892 | 89.22740 | 37820 ft | 517 kts | 297° |
| 2026-05-07 19:53 | 2.59101 | 89.16246 | 37817 ft | 521 kts | 297° |
| 2026-05-07 19:54 | 2.62302 | 89.09769 | 37817 ft | 523 kts | 297° |
| 2026-05-07 19:54 | 2.65531 | 89.03230 | 37814 ft | 523 kts | 297° |
| 2026-05-07 19:55 | 2.68760 | 88.96691 | 37812 ft | 522 kts | 297° |
| 2026-05-07 19:55 | 2.71953 | 88.90225 | 37813 ft | 519 kts | 297° |
| 2026-05-07 19:56 | 2.75158 | 88.83736 | 37813 ft | 519 kts | 297° |
| 2026-05-07 19:56 | 2.78342 | 88.77285 | 37815 ft | 520 kts | 297° |
| 2026-05-07 19:57 | 2.81545 | 88.70796 | 37811 ft | 520 kts | 297° |
| 2026-05-07 19:57 | 2.84736 | 88.64332 | 37812 ft | 520 kts | 297° |
| 2026-05-07 19:58 | 2.87942 | 88.57835 | 37812 ft | 520 kts | 297° |
| 2026-05-07 19:58 | 2.91151 | 88.51330 | 37806 ft | 520 kts | 297° |
| 2026-05-07 19:59 | 2.94352 | 88.44852 | 37811 ft | 520 kts | 297° |
| 2026-05-07 19:59 | 2.97689 | 88.38473 | 37811 ft | 519 kts | 299° |
| 2026-05-07 20:00 | 3.01086 | 88.32133 | 37813 ft | 519 kts | 299° |
| 2026-05-07 20:00 | 3.04491 | 88.25728 | 37809 ft | 519 kts | 299° |
| 2026-05-07 20:01 | 3.07865 | 88.19336 | 37808 ft | 519 kts | 298° |
| 2026-05-07 20:01 | 3.11213 | 88.12977 | 37807 ft | 518 kts | 298° |
| 2026-05-07 20:02 | 3.14584 | 88.06574 | 37801 ft | 519 kts | 298° |
| 2026-05-07 20:02 | 3.17939 | 88.00204 | 37809 ft | 520 kts | 298° |
| 2026-05-07 20:03 | 3.21310 | 87.93801 | 37806 ft | 520 kts | 298° |
| 2026-05-07 20:03 | 3.24695 | 87.87373 | 37806 ft | 520 kts | 298° |
| 2026-05-07 20:04 | 3.28065 | 87.80969 | 37809 ft | 520 kts | 298° |
| 2026-05-07 20:04 | 3.31423 | 87.74589 | 37807 ft | 520 kts | 298° |
| 2026-05-07 20:05 | 3.34729 | 87.68108 | 37804 ft | 520 kts | 297° |
| 2026-05-07 20:05 | 3.37907 | 87.61646 | 37807 ft | 520 kts | 296° |
| 2026-05-07 20:06 | 3.41111 | 87.55146 | 37804 ft | 519 kts | 297° |
| 2026-05-07 20:06 | 3.44329 | 87.48666 | 37804 ft | 520 kts | 297° |
| 2026-05-07 20:07 | 3.47543 | 87.42212 | 37805 ft | 521 kts | 297° |
| 2026-05-07 20:07 | 3.50780 | 87.35711 | 37802 ft | 521 kts | 297° |
| 2026-05-07 20:08 | 3.54019 | 87.29205 | 37800 ft | 521 kts | 297° |
| 2026-05-07 20:08 | 3.57226 | 87.22758 | 37800 ft | 520 kts | 297° |
| 2026-05-07 20:09 | 3.60464 | 87.16247 | 37801 ft | 520 kts | 297° |
| 2026-05-07 20:10 | 3.65289 | 87.06543 | 37804 ft | 520 kts | 297° |
| 2026-05-07 20:10 | 3.68520 | 87.00043 | 37802 ft | 520 kts | 297° |
| 2026-05-07 20:11 | 3.71751 | 86.93544 | 37801 ft | 520 kts | 297° |
| 2026-05-07 20:11 | 3.74955 | 86.87096 | 37798 ft | 520 kts | 297° |
| 2026-05-07 20:12 | 3.78180 | 86.80605 | 37801 ft | 519 kts | 297° |
| 2026-05-07 20:12 | 3.81385 | 86.74152 | 37800 ft | 519 kts | 297° |
| 2026-05-07 20:13 | 3.84065 | 86.68754 | 37794 ft | 520 kts | 297° |
| 2026-05-07 20:13 | 3.87828 | 86.61175 | 37797 ft | 521 kts | 297° |
| 2026-05-07 20:14 | 3.90514 | 86.55764 | 37800 ft | 521 kts | 296° |
| 2026-05-07 20:14 | 3.93750 | 86.49243 | 37802 ft | 522 kts | 296° |
| 2026-05-07 20:15 | 3.96948 | 86.42797 | 37796 ft | 516 kts | 296° |
| 2026-05-07 20:15 | 4.00142 | 86.36357 | 37800 ft | 514 kts | 296° |
| 2026-05-07 20:16 | 4.03310 | 86.29969 | 37800 ft | 514 kts | 296° |
| 2026-05-07 20:16 | 4.06496 | 86.23543 | 37798 ft | 514 kts | 296° |
| 2026-05-07 20:17 | 4.09657 | 86.17165 | 37800 ft | 514 kts | 296° |
| 2026-05-07 20:17 | 4.12829 | 86.10764 | 37799 ft | 514 kts | 296° |
| 2026-05-07 20:18 | 4.16019 | 86.04326 | 37800 ft | 514 kts | 296° |
| 2026-05-07 20:18 | 4.19176 | 85.97952 | 37794 ft | 514 kts | 296° |
| 2026-05-07 20:19 | 4.22358 | 85.91526 | 37800 ft | 514 kts | 296° |
| 2026-05-07 20:19 | 4.25540 | 85.85100 | 37800 ft | 514 kts | 296° |
| 2026-05-07 20:20 | 4.28698 | 85.78719 | 37794 ft | 514 kts | 296° |
| 2026-05-07 20:20 | 4.31875 | 85.72298 | 37796 ft | 514 kts | 296° |
| 2026-05-07 20:21 | 4.35057 | 85.65866 | 37797 ft | 514 kts | 296° |
| 2026-05-07 20:21 | 4.38216 | 85.59477 | 37794 ft | 514 kts | 296° |
| 2026-05-07 20:22 | 4.41399 | 85.53040 | 37795 ft | 514 kts | 296° |
| 2026-05-07 20:22 | 4.44559 | 85.46647 | 37795 ft | 514 kts | 296° |
| 2026-05-07 20:23 | 4.47725 | 85.40240 | 37795 ft | 514 kts | 297° |
| 2026-05-07 20:23 | 4.50912 | 85.33789 | 37798 ft | 515 kts | 297° |
| 2026-05-07 20:24 | 4.54086 | 85.27364 | 37795 ft | 515 kts | 297° |
| 2026-05-07 20:24 | 4.57260 | 85.20938 | 37796 ft | 515 kts | 296° |
| 2026-05-07 20:25 | 4.60438 | 85.14501 | 37793 ft | 514 kts | 296° |
| 2026-05-07 20:25 | 4.63595 | 85.08102 | 37793 ft | 514 kts | 296° |
| 2026-05-07 20:26 | 4.66772 | 85.01660 | 37789 ft | 515 kts | 297° |
| 2026-05-07 20:26 | 4.69947 | 84.95225 | 37793 ft | 516 kts | 297° |
| 2026-05-07 20:27 | 4.73134 | 84.88761 | 37791 ft | 516 kts | 296° |
| 2026-05-07 20:27 | 4.76309 | 84.82321 | 37790 ft | 516 kts | 296° |
| 2026-05-07 20:28 | 4.79477 | 84.75894 | 37797 ft | 516 kts | 296° |
| 2026-05-07 20:28 | 4.82667 | 84.69420 | 37794 ft | 516 kts | 296° |
| 2026-05-07 20:29 | 4.85839 | 84.62979 | 37787 ft | 517 kts | 296° |
| 2026-05-07 20:29 | 4.89032 | 84.56494 | 37791 ft | 517 kts | 296° |
| 2026-05-07 20:30 | 4.92195 | 84.50070 | 37789 ft | 517 kts | 296° |
| 2026-05-07 20:30 | 4.95392 | 84.43573 | 37791 ft | 517 kts | 296° |
| 2026-05-07 20:31 | 4.98561 | 84.37133 | 37792 ft | 517 kts | 296° |
| 2026-05-07 20:31 | 5.01748 | 84.30653 | 37788 ft | 517 kts | 296° |
| 2026-05-07 20:32 | 5.04923 | 84.24196 | 37790 ft | 516 kts | 296° |
| 2026-05-07 20:32 | 5.08100 | 84.17731 | 37789 ft | 515 kts | 296° |
| 2026-05-07 20:33 | 5.11246 | 84.11329 | 37785 ft | 515 kts | 296° |
| 2026-05-07 20:33 | 5.14425 | 84.04859 | 37787 ft | 515 kts | 296° |
| 2026-05-07 20:34 | 5.17593 | 83.98404 | 37784 ft | 515 kts | 296° |
| 2026-05-07 20:34 | 5.20673 | 83.91953 | 37789 ft | 515 kts | 295° |
| 2026-05-07 20:35 | 5.23736 | 83.85450 | 37786 ft | 514 kts | 295° |
| 2026-05-07 20:35 | 5.26791 | 83.78987 | 37787 ft | 514 kts | 296° |
| 2026-05-07 20:36 | 5.29870 | 83.72496 | 37788 ft | 514 kts | 296° |
| 2026-05-07 20:36 | 5.32941 | 83.66028 | 37786 ft | 516 kts | 296° |
| 2026-05-07 20:37 | 5.36036 | 83.59507 | 37781 ft | 517 kts | 296° |
| 2026-05-07 20:37 | 5.39123 | 83.52998 | 37784 ft | 517 kts | 295° |
| 2026-05-07 20:38 | 5.42214 | 83.46479 | 37779 ft | 516 kts | 295° |
| 2026-05-07 20:38 | 5.45288 | 83.39994 | 37782 ft | 515 kts | 295° |
| 2026-05-07 20:39 | 5.48357 | 83.33514 | 37781 ft | 515 kts | 295° |
| 2026-05-07 20:39 | 5.51440 | 83.27005 | 37780 ft | 515 kts | 295° |
| 2026-05-07 20:40 | 5.54523 | 83.20495 | 37780 ft | 515 kts | 295° |
| 2026-05-07 20:40 | 5.57596 | 83.14002 | 37782 ft | 515 kts | 295° |
| 2026-05-07 20:41 | 5.60655 | 83.07538 | 37784 ft | 515 kts | 295° |
| 2026-05-07 20:41 | 5.63731 | 83.01034 | 37782 ft | 515 kts | 295° |
| 2026-05-07 20:42 | 5.66805 | 82.94536 | 37784 ft | 515 kts | 295° |
| 2026-05-07 20:42 | 5.69862 | 82.88067 | 37787 ft | 515 kts | 296° |
| 2026-05-07 20:43 | 5.72936 | 82.81563 | 37785 ft | 515 kts | 296° |
| 2026-05-07 20:43 | 5.76009 | 82.75060 | 37783 ft | 514 kts | 296° |
| 2026-05-07 20:44 | 5.79062 | 82.68594 | 37784 ft | 514 kts | 296° |
| 2026-05-07 20:44 | 5.82108 | 82.62142 | 37786 ft | 514 kts | 296° |
| 2026-05-07 20:45 | 5.85173 | 82.55645 | 37784 ft | 514 kts | 296° |
| 2026-05-07 20:45 | 5.88242 | 82.49139 | 37785 ft | 514 kts | 296° |
| 2026-05-07 20:46 | 5.91295 | 82.42666 | 37789 ft | 514 kts | 296° |
| 2026-05-07 20:46 | 5.94339 | 82.36207 | 37789 ft | 513 kts | 296° |
| 2026-05-07 20:47 | 5.97406 | 82.29698 | 37785 ft | 513 kts | 296° |
| 2026-05-07 20:47 | 6.00444 | 82.23249 | 37781 ft | 513 kts | 296° |
| 2026-05-07 20:48 | 6.03503 | 82.16753 | 37779 ft | 513 kts | 296° |
| 2026-05-07 20:48 | 6.06565 | 82.10248 | 37785 ft | 515 kts | 296° |
| 2026-05-07 20:49 | 6.09630 | 82.03735 | 37787 ft | 515 kts | 296° |
| 2026-05-07 20:49 | 6.12673 | 81.97266 | 37783 ft | 515 kts | 296° |
| 2026-05-07 20:50 | 6.15743 | 81.90757 | 37784 ft | 515 kts | 296° |
| 2026-05-07 20:50 | 6.18829 | 81.84250 | 37785 ft | 515 kts | 296° |
| 2026-05-07 20:51 | 6.21910 | 81.77749 | 37780 ft | 515 kts | 296° |
| 2026-05-07 20:51 | 6.24989 | 81.71248 | 37782 ft | 515 kts | 296° |
| 2026-05-07 20:52 | 6.28053 | 81.64770 | 37787 ft | 515 kts | 296° |
| 2026-05-07 20:52 | 6.31143 | 81.58234 | 37790 ft | 515 kts | 296° |
| 2026-05-07 20:53 | 6.34210 | 81.51759 | 37782 ft | 516 kts | 296° |
| 2026-05-07 20:53 | 6.37431 | 81.45305 | 37784 ft | 515 kts | 297° |
| 2026-05-07 20:54 | 6.40696 | 81.38906 | 37790 ft | 512 kts | 297° |
| 2026-05-07 20:54 | 6.43918 | 81.32548 | 37793 ft | 511 kts | 297° |
| 2026-05-07 20:55 | 6.47136 | 81.26155 | 37799 ft | 511 kts | 297° |
| 2026-05-07 20:55 | 6.50325 | 81.19804 | 37807 ft | 511 kts | 297° |
| 2026-05-07 20:56 | 6.53526 | 81.13427 | 37808 ft | 511 kts | 297° |
| 2026-05-07 20:56 | 6.56736 | 81.07032 | 37812 ft | 511 kts | 297° |
| 2026-05-07 20:57 | 6.59938 | 81.00650 | 37820 ft | 511 kts | 297° |
| 2026-05-07 20:57 | 6.63137 | 80.94272 | 37835 ft | 511 kts | 297° |
| 2026-05-07 20:58 | 6.66329 | 80.87906 | 37855 ft | 510 kts | 297° |
| 2026-05-07 20:58 | 6.69528 | 80.81525 | 37856 ft | 510 kts | 297° |
| 2026-05-07 20:59 | 6.72711 | 80.75171 | 37857 ft | 509 kts | 297° |
| 2026-05-07 20:59 | 6.75885 | 80.68825 | 37867 ft | 509 kts | 297° |
| 2026-05-07 21:00 | 6.79028 | 80.62435 | 37866 ft | 508 kts | 296° |
| 2026-05-07 21:00 | 6.82157 | 80.56053 | 37865 ft | 508 kts | 296° |
| 2026-05-07 21:01 | 6.85271 | 80.49710 | 37861 ft | 507 kts | 296° |
| 2026-05-07 21:01 | 6.88395 | 80.43356 | 37845 ft | 506 kts | 296° |
| 2026-05-07 21:02 | 6.90993 | 80.38072 | 37848 ft | 506 kts | 296° |
| 2026-05-07 21:02 | 6.94103 | 80.31746 | 37849 ft | 506 kts | 296° |
| 2026-05-07 21:03 | 6.97734 | 80.24355 | 37827 ft | 506 kts | 296° |
| 2026-05-07 21:03 | 7.00329 | 80.19070 | 37828 ft | 506 kts | 296° |
| 2026-05-07 21:04 | 7.03447 | 80.12718 | 37809 ft | 505 kts | 297° |
| 2026-05-07 21:04 | 7.06567 | 80.06361 | 37809 ft | 505 kts | 297° |
| 2026-05-07 21:05 | 7.09663 | 80.00050 | 37801 ft | 505 kts | 297° |
| 2026-05-07 21:05 | 7.12776 | 79.93701 | 37799 ft | 504 kts | 297° |
| 2026-05-07 21:06 | 7.15882 | 79.87363 | 37799 ft | 503 kts | 297° |
| 2026-05-07 21:06 | 7.18927 | 79.81063 | 37801 ft | 503 kts | 296° |
| 2026-05-07 21:07 | 7.21933 | 79.74671 | 37802 ft | 504 kts | 296° |
| 2026-05-07 21:07 | 7.24929 | 79.68307 | 37799 ft | 504 kts | 296° |
| 2026-05-07 21:08 | 7.27952 | 79.61911 | 37801 ft | 505 kts | 296° |
| 2026-05-07 21:08 | 7.30977 | 79.55523 | 37794 ft | 505 kts | 296° |
| 2026-05-07 21:09 | 7.33984 | 79.49173 | 37796 ft | 505 kts | 296° |
| 2026-05-07 21:09 | 7.37012 | 79.42773 | 37797 ft | 505 kts | 296° |
| 2026-05-07 21:10 | 7.40019 | 79.36414 | 37792 ft | 505 kts | 296° |
| 2026-05-07 21:10 | 7.43048 | 79.30005 | 37790 ft | 505 kts | 296° |
| 2026-05-07 21:11 | 7.46054 | 79.23643 | 37786 ft | 505 kts | 296° |
| 2026-05-07 21:11 | 7.50589 | 79.14040 | 37787 ft | 503 kts | 296° |
| 2026-05-07 21:12 | 7.53522 | 79.07664 | 37785 ft | 503 kts | 294° |
| 2026-05-07 21:12 | 7.56278 | 79.01167 | 37785 ft | 505 kts | 293° |
| 2026-05-07 21:13 | 7.59017 | 78.94675 | 37788 ft | 506 kts | 294° |
| 2026-05-07 21:13 | 7.61811 | 78.88139 | 37788 ft | 506 kts | 294° |
| 2026-05-07 21:14 | 7.64614 | 78.81626 | 37785 ft | 506 kts | 294° |
| 2026-05-07 21:14 | 7.67403 | 78.75149 | 37785 ft | 506 kts | 294° |
| 2026-05-07 21:15 | 7.70214 | 78.68613 | 37791 ft | 506 kts | 294° |
| 2026-05-07 21:15 | 7.73011 | 78.62104 | 37788 ft | 508 kts | 294° |
| 2026-05-07 21:16 | 7.75828 | 78.55547 | 37783 ft | 509 kts | 294° |
| 2026-05-07 21:16 | 7.78631 | 78.49017 | 37784 ft | 509 kts | 294° |
| 2026-05-07 21:17 | 7.81452 | 78.42442 | 37782 ft | 509 kts | 294° |
| 2026-05-07 21:17 | 7.84271 | 78.35870 | 37783 ft | 509 kts | 294° |
| 2026-05-07 21:18 | 7.87067 | 78.29349 | 37787 ft | 509 kts | 294° |
| 2026-05-07 21:18 | 7.89873 | 78.22798 | 37785 ft | 509 kts | 294° |
| 2026-05-07 21:19 | 7.92690 | 78.16222 | 37783 ft | 509 kts | 294° |
| 2026-05-07 21:19 | 7.95538 | 78.09693 | 37780 ft | 509 kts | 295° |
| 2026-05-07 21:20 | 7.98459 | 78.03168 | 37782 ft | 509 kts | 295° |
| 2026-05-07 21:20 | 8.01353 | 77.96695 | 37781 ft | 509 kts | 295° |
| 2026-05-07 21:21 | 8.04259 | 77.90161 | 37782 ft | 510 kts | 295° |
| 2026-05-07 21:21 | 8.07160 | 77.83626 | 37781 ft | 511 kts | 295° |
| 2026-05-07 21:22 | 8.10052 | 77.77106 | 37780 ft | 511 kts | 295° |
| 2026-05-07 21:22 | 8.12959 | 77.70551 | 37776 ft | 511 kts | 295° |
| 2026-05-07 21:23 | 8.15857 | 77.64011 | 37790 ft | 511 kts | 295° |
| 2026-05-07 21:23 | 8.18764 | 77.57450 | 37793 ft | 512 kts | 295° |
| 2026-05-07 21:24 | 8.21682 | 77.50858 | 37792 ft | 515 kts | 295° |
| 2026-05-07 21:24 | 8.24588 | 77.44290 | 37791 ft | 515 kts | 295° |
| 2026-05-07 21:25 | 8.27514 | 77.37674 | 37792 ft | 515 kts | 295° |
| 2026-05-07 21:25 | 8.30438 | 77.31060 | 37802 ft | 515 kts | 295° |
| 2026-05-07 21:26 | 8.33355 | 77.24457 | 37799 ft | 515 kts | 295° |
| 2026-05-07 21:26 | 8.36257 | 77.17885 | 37798 ft | 514 kts | 295° |
| 2026-05-07 21:27 | 8.39164 | 77.11301 | 37794 ft | 514 kts | 295° |
| 2026-05-07 21:27 | 8.42083 | 77.04684 | 37789 ft | 514 kts | 295° |
| 2026-05-07 21:28 | 8.45000 | 76.98067 | 37803 ft | 514 kts | 295° |
| 2026-05-07 21:28 | 8.47767 | 76.91439 | 37804 ft | 515 kts | 290° |
| 2026-05-07 21:29 | 8.50121 | 76.84615 | 37795 ft | 514 kts | 289° |
| 2026-05-07 21:29 | 8.52397 | 76.77791 | 37791 ft | 509 kts | 289° |
| 2026-05-07 21:30 | 8.54642 | 76.71031 | 37792 ft | 509 kts | 289° |
| 2026-05-07 21:30 | 8.56912 | 76.64218 | 37786 ft | 509 kts | 289° |
| 2026-05-07 21:31 | 8.59157 | 76.57490 | 37786 ft | 509 kts | 289° |
| 2026-05-07 21:31 | 8.61422 | 76.50702 | 37784 ft | 508 kts | 289° |
| 2026-05-07 21:32 | 8.63686 | 76.43912 | 37783 ft | 508 kts | 289° |
| 2026-05-07 21:32 | 8.65931 | 76.37172 | 37783 ft | 508 kts | 289° |
| 2026-05-07 21:33 | 8.68184 | 76.30402 | 37774 ft | 508 kts | 289° |
| 2026-05-07 21:33 | 8.70427 | 76.23658 | 37781 ft | 508 kts | 289° |
| 2026-05-07 21:34 | 8.72681 | 76.16879 | 37775 ft | 508 kts | 289° |
| 2026-05-07 21:34 | 8.74929 | 76.10113 | 37775 ft | 506 kts | 288° |
| 2026-05-07 21:35 | 8.77159 | 76.03398 | 37772 ft | 504 kts | 288° |
| 2026-05-07 21:35 | 8.79394 | 75.96661 | 37775 ft | 504 kts | 288° |
| 2026-05-07 21:36 | 8.81615 | 75.89961 | 37774 ft | 504 kts | 288° |
| 2026-05-07 21:36 | 8.83844 | 75.83237 | 37777 ft | 504 kts | 288° |
| 2026-05-07 21:37 | 8.86064 | 75.76529 | 37776 ft | 504 kts | 288° |
| 2026-05-07 21:37 | 8.88288 | 75.69809 | 37777 ft | 502 kts | 288° |
| 2026-05-07 21:38 | 8.90500 | 75.63122 | 37777 ft | 503 kts | 288° |
| 2026-05-07 21:38 | 8.92710 | 75.56436 | 37777 ft | 502 kts | 288° |
| 2026-05-07 21:39 | 8.94924 | 75.49731 | 37774 ft | 502 kts | 288° |
| 2026-05-07 21:39 | 8.97130 | 75.43047 | 37774 ft | 503 kts | 288° |
| 2026-05-07 21:40 | 8.99350 | 75.36316 | 37777 ft | 505 kts | 289° |
| 2026-05-07 21:40 | 9.01574 | 75.29570 | 37777 ft | 505 kts | 289° |
| 2026-05-07 21:41 | 9.03790 | 75.22842 | 37776 ft | 505 kts | 289° |
| 2026-05-07 21:41 | 9.06017 | 75.16078 | 37777 ft | 505 kts | 289° |
| 2026-05-07 21:42 | 9.08238 | 75.09324 | 37774 ft | 505 kts | 289° |
| 2026-05-07 21:42 | 9.10447 | 75.02603 | 37774 ft | 506 kts | 289° |
| 2026-05-07 21:43 | 9.12676 | 74.95820 | 37776 ft | 507 kts | 289° |
| 2026-05-07 21:43 | 9.14901 | 74.89042 | 37775 ft | 507 kts | 289° |
| 2026-05-07 21:44 | 9.17114 | 74.82296 | 37774 ft | 507 kts | 289° |
| 2026-05-07 21:44 | 9.19337 | 74.75514 | 37774 ft | 506 kts | 289° |
| 2026-05-07 21:45 | 9.21545 | 74.68773 | 37773 ft | 506 kts | 289° |
| 2026-05-07 21:45 | 9.23768 | 74.61984 | 37773 ft | 507 kts | 289° |
| 2026-05-07 21:46 | 9.25973 | 74.55243 | 37774 ft | 506 kts | 289° |
| 2026-05-07 21:46 | 9.28186 | 74.48473 | 37774 ft | 506 kts | 289° |
| 2026-05-07 21:47 | 9.30401 | 74.41693 | 37774 ft | 507 kts | 289° |
| 2026-05-07 21:47 | 9.32605 | 74.34942 | 37776 ft | 507 kts | 289° |
| 2026-05-07 21:48 | 9.34812 | 74.28176 | 37774 ft | 508 kts | 289° |
| 2026-05-07 21:48 | 9.37030 | 74.21373 | 37774 ft | 509 kts | 289° |
| 2026-05-07 21:49 | 9.39251 | 74.14556 | 37774 ft | 509 kts | 289° |
| 2026-05-07 21:49 | 9.41092 | 74.08899 | 37774 ft | 509 kts | 289° |
| 2026-05-07 21:50 | 9.43342 | 74.02096 | 37773 ft | 508 kts | 289° |
| 2026-05-07 21:50 | 9.45611 | 73.95302 | 37776 ft | 510 kts | 289° |
| 2026-05-07 21:51 | 9.47892 | 73.88459 | 37771 ft | 512 kts | 289° |
| 2026-05-07 21:51 | 9.50166 | 73.81616 | 37769 ft | 512 kts | 289° |
| 2026-05-07 21:52 | 9.52428 | 73.74795 | 37771 ft | 512 kts | 289° |
| 2026-05-07 21:52 | 9.54704 | 73.67932 | 37773 ft | 512 kts | 289° |
| 2026-05-07 21:53 | 9.56964 | 73.61111 | 37772 ft | 514 kts | 289° |
| 2026-05-07 21:53 | 9.59241 | 73.54233 | 37774 ft | 515 kts | 289° |
| 2026-05-07 21:54 | 9.61520 | 73.47345 | 37773 ft | 515 kts | 289° |
| 2026-05-07 21:54 | 9.63787 | 73.40491 | 37773 ft | 515 kts | 289° |
| 2026-05-07 21:55 | 9.66072 | 73.33574 | 37775 ft | 515 kts | 289° |
| 2026-05-07 21:55 | 9.68345 | 73.26687 | 37778 ft | 515 kts | 289° |
| 2026-05-07 21:56 | 9.70602 | 73.19846 | 37777 ft | 514 kts | 289° |
| 2026-05-07 21:56 | 9.72875 | 73.12954 | 37776 ft | 514 kts | 289° |
| 2026-05-07 21:57 | 9.75133 | 73.06099 | 37770 ft | 514 kts | 289° |
| 2026-05-07 21:57 | 9.77401 | 72.99209 | 37776 ft | 514 kts | 289° |
| 2026-05-07 21:58 | 9.79655 | 72.92355 | 37776 ft | 513 kts | 289° |
| 2026-05-07 21:58 | 9.81914 | 72.85483 | 37773 ft | 512 kts | 289° |
| 2026-05-07 21:59 | 9.84153 | 72.78665 | 37772 ft | 512 kts | 289° |
| 2026-05-07 21:59 | 9.86406 | 72.71803 | 37773 ft | 512 kts | 289° |
| 2026-05-07 22:00 | 9.88661 | 72.64927 | 37782 ft | 512 kts | 289° |
| 2026-05-07 22:00 | 9.90898 | 72.58098 | 37793 ft | 512 kts | 289° |
| 2026-05-07 22:01 | 9.92023 | 72.54662 | 37917 ft | 512 kts | 289° |
| 2026-05-07 22:01 | 9.93150 | 72.51221 | 38133 ft | 512 kts | 289° |
| 2026-05-07 22:01 | 9.94258 | 72.47836 | 38291 ft | 512 kts | 289° |
| 2026-05-07 22:01 | 9.95381 | 72.44405 | 38463 ft | 512 kts | 289° |
| 2026-05-07 22:02 | 9.96636 | 72.41029 | 38566 ft | 511 kts | 295° |
| 2026-05-07 22:02 | 9.98320 | 72.37853 | 38700 ft | 510 kts | 303° |
| 2026-05-07 22:02 | 10.00215 | 72.34801 | 38836 ft | 509 kts | 304° |
| 2026-05-07 22:02 | 10.02170 | 72.31791 | 38948 ft | 509 kts | 305° |
| 2026-05-07 22:03 | 10.04159 | 72.28797 | 39096 ft | 509 kts | 305° |
| 2026-05-07 22:03 | 10.06120 | 72.25869 | 39219 ft | 508 kts | 305° |
| 2026-05-07 22:03 | 10.10095 | 72.19922 | 39500 ft | 506 kts | 305° |
| 2026-05-07 22:04 | 10.12061 | 72.16965 | 39678 ft | 505 kts | 305° |
| 2026-05-07 22:04 | 10.14024 | 72.14003 | 39763 ft | 505 kts | 305° |
| 2026-05-07 22:04 | 10.17928 | 72.08103 | 39782 ft | 506 kts | 305° |
| 2026-05-07 22:05 | 10.21854 | 72.02162 | 39785 ft | 506 kts | 304° |
| 2026-05-07 22:05 | 10.25770 | 71.96234 | 39785 ft | 506 kts | 304° |
| 2026-05-07 22:06 | 10.29689 | 71.90299 | 39784 ft | 506 kts | 304° |
| 2026-05-07 22:06 | 10.33610 | 71.84358 | 39786 ft | 505 kts | 304° |
| 2026-05-07 22:07 | 10.37492 | 71.78474 | 39786 ft | 504 kts | 304° |
| 2026-05-07 22:07 | 10.41391 | 71.72560 | 39782 ft | 500 kts | 305° |
| 2026-05-07 22:08 | 10.45231 | 71.66733 | 39787 ft | 495 kts | 304° |
| 2026-05-07 22:08 | 10.49058 | 71.60921 | 39786 ft | 495 kts | 305° |
| 2026-05-07 22:09 | 10.52891 | 71.55100 | 39788 ft | 497 kts | 304° |
| 2026-05-07 22:09 | 10.56725 | 71.49274 | 39789 ft | 496 kts | 304° |
| 2026-05-07 22:10 | 10.60543 | 71.43465 | 39789 ft | 497 kts | 305° |
| 2026-05-07 22:10 | 10.64392 | 71.37611 | 39787 ft | 497 kts | 305° |
| 2026-05-07 22:11 | 10.68245 | 71.31747 | 39789 ft | 496 kts | 304° |
| 2026-05-07 22:11 | 10.72073 | 71.25914 | 39790 ft | 496 kts | 305° |
| 2026-05-07 22:12 | 10.75888 | 71.20103 | 39790 ft | 495 kts | 304° |
| 2026-05-07 22:12 | 10.79717 | 71.14265 | 39794 ft | 494 kts | 304° |
| 2026-05-07 22:13 | 10.83511 | 71.08476 | 39790 ft | 493 kts | 304° |
| 2026-05-07 22:13 | 10.87315 | 71.02670 | 39790 ft | 495 kts | 304° |
| 2026-05-07 22:14 | 10.91137 | 70.96833 | 39796 ft | 494 kts | 304° |
| 2026-05-07 22:14 | 10.94967 | 70.90980 | 39795 ft | 499 kts | 304° |
| 2026-05-07 22:15 | 10.98809 | 70.85110 | 39800 ft | 501 kts | 304° |
| 2026-05-07 22:15 | 11.02647 | 70.79238 | 39798 ft | 494 kts | 304° |
| 2026-05-07 22:16 | 11.06445 | 70.73425 | 39803 ft | 494 kts | 303° |
| 2026-05-07 22:16 | 11.10254 | 70.67592 | 39800 ft | 493 kts | 304° |
| 2026-05-07 22:17 | 11.14035 | 70.61798 | 39803 ft | 493 kts | 303° |
| 2026-05-07 22:17 | 11.17849 | 70.55951 | 39800 ft | 494 kts | 304° |
| 2026-05-07 22:18 | 11.23536 | 70.47227 | 39803 ft | 497 kts | 303° |
| 2026-05-07 22:19 | 11.27386 | 70.41317 | 39802 ft | 500 kts | 303° |
| 2026-05-07 22:19 | 11.31218 | 70.35429 | 39803 ft | 500 kts | 303° |
| 2026-05-07 22:20 | 11.35064 | 70.29518 | 39800 ft | 498 kts | 303° |
| 2026-05-07 22:20 | 11.38873 | 70.23661 | 39803 ft | 499 kts | 303° |
| 2026-05-07 22:21 | 11.42706 | 70.17762 | 39799 ft | 496 kts | 304° |
| 2026-05-07 22:21 | 11.46521 | 70.11886 | 39802 ft | 497 kts | 304° |
| 2026-05-07 22:22 | 11.50347 | 70.05993 | 39803 ft | 498 kts | 304° |
| 2026-05-07 22:22 | 11.54149 | 70.00133 | 39799 ft | 498 kts | 304° |
| 2026-05-07 22:23 | 11.57977 | 69.94230 | 39803 ft | 499 kts | 304° |
| 2026-05-07 22:23 | 11.61816 | 69.88306 | 39806 ft | 499 kts | 303° |
| 2026-05-07 22:24 | 11.65604 | 69.82433 | 39804 ft | 497 kts | 303° |
| 2026-05-07 22:24 | 11.69395 | 69.76519 | 39805 ft | 495 kts | 304° |
| 2026-05-07 22:25 | 11.73141 | 69.70676 | 39807 ft | 493 kts | 303° |
| 2026-05-07 22:25 | 11.76902 | 69.64811 | 39805 ft | 493 kts | 304° |
| 2026-05-07 22:26 | 11.80648 | 69.58973 | 39807 ft | 493 kts | 304° |
| 2026-05-07 22:26 | 11.84405 | 69.53109 | 39808 ft | 493 kts | 304° |
| 2026-05-07 22:27 | 11.88176 | 69.47225 | 39806 ft | 496 kts | 304° |
| 2026-05-07 22:27 | 11.91943 | 69.41341 | 39807 ft | 495 kts | 303° |
| 2026-05-07 22:28 | 11.95720 | 69.35436 | 39807 ft | 495 kts | 304° |
| 2026-05-07 22:28 | 11.99462 | 69.29585 | 39806 ft | 493 kts | 303° |
| 2026-05-07 22:29 | 12.03213 | 69.23713 | 39810 ft | 492 kts | 303° |
| 2026-05-07 22:29 | 12.06947 | 69.17865 | 39809 ft | 493 kts | 303° |
| 2026-05-07 22:30 | 12.10718 | 69.11958 | 39812 ft | 494 kts | 303° |
| 2026-05-07 22:30 | 12.14466 | 69.06082 | 39811 ft | 496 kts | 303° |
| 2026-05-07 22:31 | 12.18233 | 69.00173 | 39818 ft | 497 kts | 303° |
| 2026-05-07 22:31 | 12.22006 | 68.94277 | 39812 ft | 495 kts | 303° |
| 2026-05-07 22:32 | 12.25765 | 68.88401 | 39812 ft | 495 kts | 303° |
| 2026-05-07 22:32 | 12.29543 | 68.82494 | 39811 ft | 493 kts | 303° |
| 2026-05-07 22:33 | 12.33279 | 68.76647 | 39813 ft | 493 kts | 303° |
| 2026-05-07 22:33 | 12.37040 | 68.70756 | 39815 ft | 493 kts | 303° |
| 2026-05-07 22:34 | 12.40163 | 68.65863 | 39814 ft | 493 kts | 303° |
| 2026-05-07 22:34 | 12.43906 | 68.59995 | 39815 ft | 493 kts | 303° |
| 2026-05-07 22:35 | 12.47661 | 68.54103 | 39816 ft | 493 kts | 303° |
| 2026-05-07 22:35 | 12.51416 | 68.48210 | 39814 ft | 494 kts | 303° |
| 2026-05-07 22:36 | 12.55155 | 68.42336 | 39816 ft | 494 kts | 303° |
| 2026-05-07 22:36 | 12.58889 | 68.36467 | 39816 ft | 493 kts | 303° |
| 2026-05-07 22:37 | 12.62643 | 68.30564 | 39817 ft | 492 kts | 302° |
| 2026-05-07 22:37 | 12.66357 | 68.24719 | 39814 ft | 492 kts | 302° |
| 2026-05-07 22:38 | 12.70091 | 68.18839 | 39823 ft | 492 kts | 302° |
| 2026-05-07 22:38 | 12.73830 | 68.12945 | 39820 ft | 497 kts | 303° |
| 2026-05-07 22:39 | 12.77607 | 68.06991 | 39816 ft | 496 kts | 302° |
| 2026-05-07 22:39 | 12.81356 | 68.01077 | 39815 ft | 497 kts | 303° |
| 2026-05-07 22:40 | 12.85144 | 67.95148 | 39811 ft | 495 kts | 303° |
| 2026-05-07 22:40 | 12.88908 | 67.89272 | 39820 ft | 495 kts | 302° |
| 2026-05-07 22:41 | 12.92693 | 67.83357 | 39820 ft | 494 kts | 303° |
| 2026-05-07 22:41 | 12.96436 | 67.77497 | 39820 ft | 494 kts | 302° |
| 2026-05-07 22:42 | 13.00208 | 67.71587 | 39817 ft | 495 kts | 302° |
| 2026-05-07 22:42 | 13.03964 | 67.65697 | 39820 ft | 494 kts | 303° |
| 2026-05-07 22:43 | 13.07729 | 67.59792 | 39826 ft | 494 kts | 302° |
| 2026-05-07 22:43 | 13.11491 | 67.53886 | 39827 ft | 493 kts | 303° |
| 2026-05-07 22:44 | 13.15250 | 67.47983 | 39827 ft | 494 kts | 303° |
| 2026-05-07 22:44 | 13.18995 | 67.42096 | 39823 ft | 494 kts | 303° |
| 2026-05-07 22:45 | 13.22727 | 67.36226 | 39826 ft | 492 kts | 302° |
| 2026-05-07 22:45 | 13.26473 | 67.30331 | 39829 ft | 492 kts | 302° |
| 2026-05-07 22:46 | 13.30199 | 67.24463 | 39830 ft | 492 kts | 303° |
| 2026-05-07 22:46 | 13.33938 | 67.18570 | 39830 ft | 493 kts | 302° |
| 2026-05-07 22:47 | 13.37696 | 67.12643 | 39829 ft | 493 kts | 302° |
| 2026-05-07 22:47 | 13.41420 | 67.06766 | 39830 ft | 493 kts | 302° |
| 2026-05-07 22:48 | 13.45164 | 67.00854 | 39829 ft | 494 kts | 302° |
| 2026-05-07 22:48 | 13.48908 | 66.94937 | 39828 ft | 492 kts | 302° |
| 2026-05-07 22:49 | 13.52612 | 66.89080 | 39828 ft | 491 kts | 302° |
| 2026-05-07 22:49 | 13.56345 | 66.83172 | 39830 ft | 492 kts | 302° |
| 2026-05-07 22:50 | 13.60083 | 66.77253 | 39833 ft | 492 kts | 302° |
| 2026-05-07 22:50 | 13.63797 | 66.71368 | 39829 ft | 492 kts | 302° |
| 2026-05-07 22:51 | 13.67531 | 66.65447 | 39831 ft | 492 kts | 302° |
| 2026-05-07 22:51 | 13.71258 | 66.59533 | 39840 ft | 493 kts | 302° |
| 2026-05-07 22:52 | 13.74964 | 66.53650 | 39837 ft | 492 kts | 302° |
| 2026-05-07 22:52 | 13.78686 | 66.47737 | 39835 ft | 492 kts | 302° |
| 2026-05-07 22:53 | 13.82412 | 66.41809 | 39835 ft | 494 kts | 302° |
| 2026-05-07 22:53 | 13.86163 | 66.35841 | 39837 ft | 496 kts | 302° |
| 2026-05-07 22:54 | 13.89888 | 66.29908 | 39837 ft | 496 kts | 302° |
| 2026-05-07 22:54 | 13.93637 | 66.23935 | 39838 ft | 496 kts | 302° |
| 2026-05-07 22:55 | 13.97392 | 66.17947 | 39840 ft | 496 kts | 302° |
| 2026-05-07 22:55 | 14.01135 | 66.11975 | 39839 ft | 496 kts | 302° |
| 2026-05-07 22:56 | 14.04863 | 66.06021 | 39840 ft | 496 kts | 302° |
| 2026-05-07 22:56 | 14.08618 | 66.00020 | 39841 ft | 496 kts | 302° |
| 2026-05-07 22:57 | 14.12339 | 65.94069 | 39838 ft | 496 kts | 302° |
| 2026-05-07 22:57 | 14.16085 | 65.88074 | 39840 ft | 496 kts | 302° |
| 2026-05-07 22:58 | 14.19828 | 65.82081 | 39843 ft | 496 kts | 302° |
| 2026-05-07 22:58 | 14.23539 | 65.76134 | 39843 ft | 496 kts | 302° |
| 2026-05-07 22:59 | 14.27279 | 65.70135 | 39843 ft | 496 kts | 302° |
| 2026-05-07 22:59 | 14.31003 | 65.64157 | 39837 ft | 496 kts | 302° |
| 2026-05-07 23:00 | 14.34732 | 65.58167 | 39846 ft | 495 kts | 302° |
| 2026-05-07 23:00 | 14.38441 | 65.52206 | 39849 ft | 495 kts | 302° |
| 2026-05-07 23:01 | 14.42166 | 65.46214 | 39849 ft | 496 kts | 302° |
| 2026-05-07 23:01 | 14.45865 | 65.40260 | 39847 ft | 492 kts | 302° |
| 2026-05-07 23:02 | 14.49554 | 65.34318 | 39849 ft | 490 kts | 302° |
| 2026-05-07 23:02 | 14.53205 | 65.28431 | 39849 ft | 489 kts | 302° |
| 2026-05-07 23:03 | 14.56882 | 65.22499 | 39851 ft | 489 kts | 302° |
| 2026-05-07 23:03 | 14.60568 | 65.16559 | 39851 ft | 489 kts | 302° |
| 2026-05-07 23:04 | 14.64245 | 65.10693 | 39851 ft | 490 kts | 302° |
| 2026-05-07 23:04 | 14.67963 | 65.04774 | 39852 ft | 490 kts | 302° |
| 2026-05-07 23:05 | 14.71667 | 64.98862 | 39852 ft | 490 kts | 302° |
| 2026-05-07 23:05 | 14.75343 | 64.92984 | 39855 ft | 490 kts | 302° |
| 2026-05-07 23:06 | 14.79045 | 64.87059 | 39852 ft | 490 kts | 302° |
| 2026-05-07 23:06 | 14.82751 | 64.81125 | 39856 ft | 490 kts | 302° |
| 2026-05-07 23:07 | 14.86426 | 64.75235 | 39855 ft | 490 kts | 302° |
| 2026-05-07 23:07 | 14.90123 | 64.69308 | 39856 ft | 489 kts | 302° |
| 2026-05-07 23:08 | 14.93809 | 64.63390 | 39858 ft | 489 kts | 302° |
| 2026-05-07 23:08 | 14.97466 | 64.57517 | 39855 ft | 489 kts | 302° |
| 2026-05-07 23:09 | 15.01148 | 64.51596 | 39858 ft | 489 kts | 302° |
| 2026-05-07 23:09 | 15.04842 | 64.45656 | 39858 ft | 489 kts | 302° |
| 2026-05-07 23:10 | 15.08493 | 64.39777 | 39855 ft | 489 kts | 302° |
| 2026-05-07 23:10 | 15.12173 | 64.33848 | 39856 ft | 489 kts | 302° |
| 2026-05-07 23:11 | 15.15855 | 64.27912 | 39858 ft | 488 kts | 301° |
| 2026-05-07 23:11 | 15.19511 | 64.22012 | 39857 ft | 488 kts | 301° |
| 2026-05-07 23:12 | 15.23178 | 64.16091 | 39851 ft | 488 kts | 301° |
| 2026-05-07 23:12 | 15.26826 | 64.10194 | 39853 ft | 488 kts | 301° |
| 2026-05-07 23:13 | 15.30497 | 64.04257 | 39849 ft | 488 kts | 301° |
| 2026-05-07 23:13 | 15.34157 | 63.98334 | 39850 ft | 488 kts | 301° |
| 2026-05-07 23:14 | 15.37822 | 63.92397 | 39854 ft | 488 kts | 301° |
| 2026-05-07 23:14 | 15.41460 | 63.86499 | 39854 ft | 488 kts | 301° |
| 2026-05-07 23:15 | 15.45120 | 63.80562 | 39853 ft | 487 kts | 301° |
| 2026-05-07 23:15 | 15.48756 | 63.74658 | 39854 ft | 487 kts | 301° |
| 2026-05-07 23:16 | 15.52415 | 63.68712 | 39854 ft | 488 kts | 301° |
| 2026-05-07 23:16 | 15.56063 | 63.62780 | 39853 ft | 488 kts | 301° |
| 2026-05-07 23:17 | 15.59712 | 63.56842 | 39850 ft | 488 kts | 301° |
| 2026-05-07 23:17 | 15.63331 | 63.50947 | 39850 ft | 488 kts | 301° |
| 2026-05-07 23:18 | 15.66981 | 63.44997 | 39853 ft | 488 kts | 301° |
| 2026-05-07 23:18 | 15.70606 | 63.39084 | 39853 ft | 488 kts | 301° |
| 2026-05-07 23:19 | 15.74253 | 63.33130 | 39851 ft | 488 kts | 301° |
| 2026-05-07 23:19 | 15.77897 | 63.27174 | 39850 ft | 488 kts | 301° |
| 2026-05-07 23:20 | 15.81524 | 63.21245 | 39852 ft | 488 kts | 301° |
| 2026-05-07 23:20 | 15.85164 | 63.15287 | 39849 ft | 488 kts | 301° |
| 2026-05-07 23:21 | 15.88788 | 63.09351 | 39851 ft | 488 kts | 301° |
| 2026-05-07 23:21 | 15.91816 | 63.04387 | 39852 ft | 488 kts | 301° |
| 2026-05-07 23:22 | 15.95454 | 62.98420 | 39850 ft | 487 kts | 301° |
| 2026-05-07 23:22 | 15.99065 | 62.92492 | 39850 ft | 487 kts | 301° |
| 2026-05-07 23:23 | 16.02695 | 62.86527 | 39851 ft | 487 kts | 301° |
| 2026-05-07 23:23 | 16.06301 | 62.80599 | 39851 ft | 487 kts | 301° |
| 2026-05-07 23:24 | 16.09927 | 62.74632 | 39852 ft | 487 kts | 301° |
| 2026-05-07 23:24 | 16.13548 | 62.68667 | 39849 ft | 487 kts | 301° |
| 2026-05-07 23:25 | 16.17149 | 62.62731 | 39850 ft | 487 kts | 301° |
| 2026-05-07 23:25 | 16.20762 | 62.56771 | 39851 ft | 486 kts | 301° |
| 2026-05-07 23:26 | 16.24382 | 62.50793 | 39852 ft | 486 kts | 301° |
| 2026-05-07 23:26 | 16.27970 | 62.44864 | 39851 ft | 486 kts | 301° |
| 2026-05-07 23:27 | 16.33382 | 62.35912 | 39847 ft | 486 kts | 301° |
| 2026-05-07 23:27 | 16.36989 | 62.29938 | 39848 ft | 486 kts | 301° |
| 2026-05-07 23:28 | 16.40588 | 62.23974 | 39847 ft | 486 kts | 301° |
| 2026-05-07 23:28 | 16.44171 | 62.18031 | 39847 ft | 486 kts | 301° |
| 2026-05-07 23:29 | 16.47764 | 62.12067 | 39848 ft | 485 kts | 301° |
| 2026-05-07 23:29 | 16.51359 | 62.06093 | 39848 ft | 485 kts | 301° |
| 2026-05-07 23:30 | 16.54927 | 62.00159 | 39847 ft | 485 kts | 301° |
| 2026-05-07 23:30 | 16.58514 | 61.94189 | 39849 ft | 485 kts | 301° |
| 2026-05-07 23:31 | 16.62105 | 61.88209 | 39848 ft | 485 kts | 301° |
| 2026-05-07 23:31 | 16.65663 | 61.82277 | 39846 ft | 485 kts | 301° |
| 2026-05-07 23:32 | 16.69246 | 61.76299 | 39844 ft | 485 kts | 301° |
| 2026-05-07 23:32 | 16.72834 | 61.70310 | 39846 ft | 485 kts | 301° |
| 2026-05-07 23:33 | 16.76386 | 61.64372 | 39846 ft | 485 kts | 301° |
| 2026-05-07 23:33 | 16.79968 | 61.58378 | 39843 ft | 485 kts | 301° |
| 2026-05-07 23:34 | 16.83534 | 61.52407 | 39846 ft | 485 kts | 301° |
| 2026-05-07 23:34 | 16.87116 | 61.46405 | 39843 ft | 485 kts | 301° |
| 2026-05-07 23:35 | 16.90665 | 61.40454 | 39846 ft | 486 kts | 301° |
| 2026-05-07 23:35 | 16.94257 | 61.34423 | 39848 ft | 491 kts | 301° |
| 2026-05-07 23:36 | 16.97848 | 61.28390 | 39844 ft | 488 kts | 301° |
| 2026-05-07 23:36 | 17.01414 | 61.22396 | 39846 ft | 484 kts | 301° |
| 2026-05-07 23:37 | 17.04972 | 61.16408 | 39842 ft | 484 kts | 301° |
| 2026-05-07 23:37 | 17.08510 | 61.10448 | 39843 ft | 484 kts | 301° |
| 2026-05-07 23:38 | 17.12065 | 61.04454 | 39840 ft | 484 kts | 301° |
| 2026-05-07 23:38 | 17.15618 | 60.98458 | 39841 ft | 484 kts | 301° |
| 2026-05-07 23:39 | 17.19165 | 60.92468 | 39840 ft | 484 kts | 301° |
| 2026-05-07 23:39 | 17.22681 | 60.86525 | 39840 ft | 484 kts | 301° |
| 2026-05-07 23:40 | 17.26227 | 60.80526 | 39840 ft | 483 kts | 301° |
| 2026-05-07 23:40 | 17.29772 | 60.74524 | 39841 ft | 483 kts | 300° |
| 2026-05-07 23:41 | 17.33284 | 60.68571 | 39840 ft | 483 kts | 300° |
| 2026-05-07 23:41 | 17.36821 | 60.62571 | 39841 ft | 484 kts | 300° |
| 2026-05-07 23:42 | 17.40341 | 60.56593 | 39840 ft | 484 kts | 300° |
| 2026-05-07 23:42 | 17.43880 | 60.50579 | 39837 ft | 484 kts | 301° |
| 2026-05-07 23:43 | 17.47413 | 60.44572 | 39838 ft | 483 kts | 300° |
| 2026-05-07 23:43 | 17.50918 | 60.38604 | 39837 ft | 483 kts | 300° |
| 2026-05-07 23:44 | 17.54450 | 60.32587 | 39837 ft | 483 kts | 300° |
| 2026-05-07 23:44 | 17.57956 | 60.26606 | 39838 ft | 484 kts | 300° |
| 2026-05-07 23:45 | 17.61482 | 60.20586 | 39836 ft | 484 kts | 300° |
| 2026-05-07 23:45 | 17.64995 | 60.14584 | 39839 ft | 484 kts | 300° |
| 2026-05-07 23:46 | 17.68520 | 60.08557 | 39839 ft | 484 kts | 300° |
| 2026-05-07 23:46 | 17.72018 | 60.02556 | 39835 ft | 483 kts | 299° |
| 2026-05-07 23:47 | 17.74730 | 59.96126 | 39838 ft | 481 kts | 288° |
| 2026-05-07 23:47 | 17.76930 | 59.89487 | 39836 ft | 482 kts | 288° |
| 2026-05-07 23:48 | 17.79047 | 59.82838 | 39840 ft | 483 kts | 287° |
| 2026-05-07 23:48 | 17.81183 | 59.76136 | 39835 ft | 482 kts | 287° |
| 2026-05-07 23:49 | 17.83309 | 59.69498 | 39843 ft | 483 kts | 287° |
| 2026-05-07 23:49 | 17.85467 | 59.62779 | 39841 ft | 483 kts | 287° |
| 2026-05-07 23:50 | 17.87602 | 59.56124 | 39838 ft | 483 kts | 287° |
| 2026-05-07 23:50 | 17.89736 | 59.49454 | 39832 ft | 484 kts | 288° |
| 2026-05-07 23:51 | 17.91884 | 59.42742 | 39839 ft | 484 kts | 287° |
| 2026-05-07 23:51 | 17.94029 | 59.36023 | 39835 ft | 483 kts | 288° |
| 2026-05-07 23:52 | 17.96156 | 59.29352 | 39840 ft | 484 kts | 288° |
| 2026-05-07 23:52 | 17.98296 | 59.22632 | 39839 ft | 484 kts | 287° |
| 2026-05-07 23:53 | 18.00419 | 59.15956 | 39841 ft | 484 kts | 287° |
| 2026-05-07 23:53 | 18.02553 | 59.09237 | 39832 ft | 485 kts | 287° |
| 2026-05-07 23:54 | 18.04687 | 59.02513 | 39841 ft | 484 kts | 287° |
| 2026-05-07 23:54 | 18.06805 | 58.95827 | 39838 ft | 483 kts | 287° |
| 2026-05-07 23:55 | 18.08932 | 58.89098 | 39832 ft | 484 kts | 287° |
| 2026-05-07 23:55 | 18.11043 | 58.82418 | 39836 ft | 484 kts | 287° |
| 2026-05-07 23:56 | 18.13167 | 58.75685 | 39836 ft | 483 kts | 287° |
| 2026-05-07 23:56 | 18.15264 | 58.69034 | 39838 ft | 477 kts | 287° |
| 2026-05-07 23:57 | 18.17342 | 58.62432 | 39831 ft | 475 kts | 287° |
| 2026-05-07 23:57 | 18.19425 | 58.55800 | 39840 ft | 477 kts | 287° |
| 2026-05-07 23:58 | 18.21498 | 58.49190 | 39833 ft | 478 kts | 287° |
| 2026-05-07 23:58 | 18.23585 | 58.42537 | 39845 ft | 478 kts | 287° |
| 2026-05-07 23:59 | 18.25668 | 58.35882 | 39837 ft | 477 kts | 287° |
| 2026-05-07 23:59 | 18.27735 | 58.29267 | 39836 ft | 482 kts | 287° |
| 2026-05-08 00:00 | 18.29841 | 58.22521 | 39841 ft | 484 kts | 287° |
| 2026-05-08 00:00 | 18.31928 | 58.15825 | 39841 ft | 483 kts | 287° |
| 2026-05-08 00:01 | 18.34028 | 58.09080 | 39834 ft | 482 kts | 287° |
| 2026-05-08 00:01 | 18.36109 | 58.02388 | 39840 ft | 479 kts | 287° |
| 2026-05-08 00:02 | 18.38164 | 57.95770 | 39836 ft | 477 kts | 287° |
| 2026-05-08 00:02 | 18.40219 | 57.89103 | 39841 ft | 479 kts | 287° |
| 2026-05-08 00:03 | 18.42273 | 57.82418 | 39845 ft | 479 kts | 286° |
| 2026-05-08 00:03 | 18.44313 | 57.75776 | 39841 ft | 478 kts | 287° |
| 2026-05-08 00:04 | 18.46362 | 57.69097 | 39838 ft | 477 kts | 287° |
| 2026-05-08 00:04 | 18.48379 | 57.62519 | 39840 ft | 473 kts | 286° |
| 2026-05-08 00:05 | 18.50403 | 57.55906 | 39843 ft | 472 kts | 287° |
| 2026-05-08 00:05 | 18.52420 | 57.49303 | 39840 ft | 473 kts | 287° |
| 2026-05-08 00:06 | 18.54088 | 57.43840 | 39839 ft | 473 kts | 287° |
| 2026-05-08 00:06 | 18.56434 | 57.36149 | 39840 ft | 472 kts | 287° |
| 2026-05-08 00:07 | 18.58107 | 57.30648 | 39831 ft | 473 kts | 287° |
| 2026-05-08 00:07 | 18.60121 | 57.24027 | 39837 ft | 474 kts | 287° |
| 2026-05-08 00:08 | 18.62132 | 57.17404 | 39839 ft | 473 kts | 286° |
| 2026-05-08 00:08 | 18.64131 | 57.10812 | 39834 ft | 473 kts | 287° |
| 2026-05-08 00:09 | 18.66136 | 57.04190 | 39835 ft | 474 kts | 287° |
| 2026-05-08 00:09 | 18.68131 | 56.97592 | 39841 ft | 474 kts | 286° |
| 2026-05-08 00:10 | 18.70132 | 56.90963 | 39843 ft | 474 kts | 286° |
| 2026-05-08 00:10 | 18.72134 | 56.84327 | 39847 ft | 474 kts | 286° |
| 2026-05-08 00:11 | 18.74132 | 56.77688 | 39845 ft | 474 kts | 286° |
| 2026-05-08 00:11 | 18.76127 | 56.71054 | 39853 ft | 474 kts | 286° |
| 2026-05-08 00:12 | 18.78115 | 56.64435 | 39840 ft | 475 kts | 286° |
| 2026-05-08 00:12 | 18.80109 | 56.57782 | 39848 ft | 475 kts | 286° |
| 2026-05-08 00:13 | 18.82094 | 56.51154 | 39860 ft | 475 kts | 286° |
| 2026-05-08 00:13 | 18.84084 | 56.44499 | 39855 ft | 475 kts | 286° |
| 2026-05-08 00:14 | 18.86072 | 56.37840 | 39857 ft | 475 kts | 286° |
| 2026-05-08 00:14 | 18.88047 | 56.31214 | 39854 ft | 475 kts | 286° |
| 2026-05-08 00:15 | 18.90032 | 56.24548 | 39846 ft | 475 kts | 286° |
| 2026-05-08 00:15 | 18.92003 | 56.17918 | 39861 ft | 475 kts | 286° |
| 2026-05-08 00:16 | 18.93981 | 56.11254 | 39854 ft | 475 kts | 286° |
| 2026-05-08 00:16 | 18.95961 | 56.04575 | 39865 ft | 475 kts | 286° |
| 2026-05-08 00:17 | 18.97937 | 55.97909 | 39857 ft | 475 kts | 286° |
| 2026-05-08 00:17 | 18.99903 | 55.91243 | 39862 ft | 475 kts | 286° |
| 2026-05-08 00:18 | 19.01854 | 55.84598 | 39854 ft | 475 kts | 286° |
| 2026-05-08 00:18 | 19.03817 | 55.77912 | 39862 ft | 475 kts | 285° |
| 2026-05-08 00:19 | 19.05766 | 55.71273 | 39858 ft | 476 kts | 285° |
| 2026-05-08 00:19 | 19.07725 | 55.64573 | 39855 ft | 476 kts | 285° |
| 2026-05-08 00:20 | 19.09665 | 55.57913 | 39862 ft | 476 kts | 285° |
| 2026-05-08 00:20 | 19.11613 | 55.51222 | 39853 ft | 476 kts | 285° |
| 2026-05-08 00:21 | 19.13563 | 55.44516 | 39859 ft | 476 kts | 285° |
| 2026-05-08 00:21 | 19.15499 | 55.37847 | 39858 ft | 476 kts | 285° |
| 2026-05-08 00:22 | 19.17444 | 55.31137 | 39853 ft | 476 kts | 285° |
| 2026-05-08 00:22 | 19.19387 | 55.24427 | 39854 ft | 476 kts | 285° |
| 2026-05-08 00:23 | 19.21317 | 55.17750 | 39854 ft | 477 kts | 285° |
| 2026-05-08 00:23 | 19.23259 | 55.11020 | 39863 ft | 477 kts | 285° |
| 2026-05-08 00:24 | 19.25185 | 55.04339 | 39852 ft | 477 kts | 285° |
| 2026-05-08 00:24 | 19.27122 | 54.97610 | 39855 ft | 477 kts | 285° |
| 2026-05-08 00:25 | 19.29041 | 54.90928 | 39848 ft | 477 kts | 285° |
| 2026-05-08 00:25 | 19.30972 | 54.84199 | 39842 ft | 477 kts | 285° |
| 2026-05-08 00:26 | 19.32890 | 54.77505 | 39842 ft | 477 kts | 285° |
| 2026-05-08 00:26 | 19.34813 | 54.70781 | 39842 ft | 477 kts | 285° |
| 2026-05-08 00:27 | 19.36741 | 54.64030 | 39842 ft | 477 kts | 285° |
| 2026-05-08 00:27 | 19.38655 | 54.57321 | 39843 ft | 477 kts | 285° |
| 2026-05-08 00:28 | 19.40574 | 54.50579 | 39842 ft | 477 kts | 285° |
| 2026-05-08 00:28 | 19.42491 | 54.43838 | 39848 ft | 478 kts | 285° |
| 2026-05-08 00:29 | 19.44394 | 54.37134 | 39842 ft | 477 kts | 285° |
| 2026-05-08 00:29 | 19.46309 | 54.30377 | 39843 ft | 477 kts | 285° |
| 2026-05-08 00:30 | 19.48218 | 54.23630 | 39841 ft | 477 kts | 285° |
| 2026-05-08 00:30 | 19.50113 | 54.16926 | 39839 ft | 478 kts | 285° |
| 2026-05-08 00:31 | 19.52018 | 54.10174 | 39833 ft | 478 kts | 285° |
| 2026-05-08 00:31 | 19.53922 | 54.03411 | 39834 ft | 478 kts | 285° |
| 2026-05-08 00:32 | 19.55815 | 53.96684 | 39835 ft | 478 kts | 284° |
| 2026-05-08 00:32 | 19.57709 | 53.89914 | 39836 ft | 478 kts | 284° |
| 2026-05-08 00:33 | 19.59586 | 53.83178 | 39834 ft | 478 kts | 284° |
| 2026-05-08 00:33 | 19.62244 | 53.76706 | 39836 ft | 480 kts | 297° |
| 2026-05-08 00:34 | 19.65618 | 53.70617 | 39834 ft | 482 kts | 299° |
| 2026-05-08 00:34 | 19.69125 | 53.64538 | 39835 ft | 482 kts | 300° |
| 2026-05-08 00:35 | 19.72605 | 53.58499 | 39832 ft | 482 kts | 299° |
| 2026-05-08 00:35 | 19.76091 | 53.52405 | 39831 ft | 482 kts | 299° |
| 2026-05-08 00:36 | 19.79590 | 53.46264 | 39833 ft | 488 kts | 299° |
| 2026-05-08 00:36 | 19.83110 | 53.40078 | 39832 ft | 493 kts | 299° |
| 2026-05-08 00:37 | 19.86668 | 53.33822 | 39832 ft | 493 kts | 299° |
| 2026-05-08 00:38 | 19.91972 | 53.24486 | 39832 ft | 493 kts | 299° |
| 2026-05-08 00:38 | 19.95516 | 53.18238 | 39832 ft | 493 kts | 299° |
| 2026-05-08 00:39 | 19.99055 | 53.11992 | 39828 ft | 492 kts | 299° |
| 2026-05-08 00:39 | 20.02572 | 53.05778 | 39829 ft | 492 kts | 299° |
| 2026-05-08 00:40 | 20.06108 | 52.99522 | 39830 ft | 493 kts | 299° |
| 2026-05-08 00:40 | 20.09647 | 52.93256 | 39829 ft | 493 kts | 299° |
| 2026-05-08 00:41 | 20.13162 | 52.87027 | 39826 ft | 493 kts | 299° |
| 2026-05-08 00:41 | 20.16695 | 52.80758 | 39826 ft | 492 kts | 299° |
| 2026-05-08 00:42 | 20.20218 | 52.74500 | 39825 ft | 492 kts | 298° |
| 2026-05-08 00:42 | 20.24377 | 52.68734 | 39826 ft | 496 kts | 314° |
| 2026-05-08 00:43 | 20.30008 | 52.64433 | 39824 ft | 499 kts | 328° |
| 2026-05-08 00:43 | 20.36101 | 52.60840 | 39823 ft | 501 kts | 330° |
| 2026-05-08 00:44 | 20.42230 | 52.57355 | 39822 ft | 501 kts | 330° |
| 2026-05-08 00:44 | 20.48377 | 52.53829 | 39821 ft | 501 kts | 330° |
| 2026-05-08 00:45 | 20.54481 | 52.50291 | 39822 ft | 501 kts | 329° |
| 2026-05-08 00:45 | 20.60624 | 52.46716 | 39820 ft | 502 kts | 329° |
| 2026-05-08 00:46 | 20.66767 | 52.43137 | 39817 ft | 502 kts | 329° |
| 2026-05-08 00:46 | 20.72891 | 52.39567 | 39818 ft | 502 kts | 329° |
| 2026-05-08 00:47 | 20.78991 | 52.36009 | 39819 ft | 502 kts | 329° |
| 2026-05-08 00:47 | 20.85135 | 52.32423 | 39818 ft | 502 kts | 329° |
| 2026-05-08 00:48 | 20.91263 | 52.28842 | 39817 ft | 501 kts | 329° |
| 2026-05-08 00:48 | 20.97352 | 52.25280 | 39813 ft | 501 kts | 329° |
| 2026-05-08 00:49 | 21.03490 | 52.21686 | 39819 ft | 502 kts | 329° |
| 2026-05-08 00:49 | 21.09610 | 52.18100 | 39815 ft | 501 kts | 329° |
| 2026-05-08 00:50 | 21.15734 | 52.14507 | 39817 ft | 501 kts | 329° |
| 2026-05-08 00:50 | 21.21825 | 52.10932 | 39813 ft | 501 kts | 329° |
| 2026-05-08 00:51 | 21.27951 | 52.07331 | 39813 ft | 501 kts | 329° |
| 2026-05-08 00:51 | 21.34031 | 52.03755 | 39813 ft | 500 kts | 329° |
| 2026-05-08 00:52 | 21.39116 | 52.00761 | 39813 ft | 501 kts | 329° |
| 2026-05-08 00:52 | 21.45244 | 51.97149 | 39812 ft | 501 kts | 329° |
| 2026-05-08 00:53 | 21.51324 | 51.93563 | 39814 ft | 501 kts | 329° |
| 2026-05-08 00:53 | 21.57436 | 51.89954 | 39815 ft | 501 kts | 329° |
| 2026-05-08 00:54 | 21.63515 | 51.86361 | 39817 ft | 500 kts | 329° |
| 2026-05-08 00:54 | 21.69630 | 51.82744 | 39815 ft | 501 kts | 329° |
| 2026-05-08 00:55 | 21.75757 | 51.79116 | 39814 ft | 500 kts | 329° |
| 2026-05-08 00:55 | 21.81825 | 51.75519 | 39818 ft | 501 kts | 329° |
| 2026-05-08 00:56 | 21.87910 | 51.71909 | 39817 ft | 501 kts | 329° |
| 2026-05-08 00:56 | 21.94022 | 51.68279 | 39824 ft | 501 kts | 328° |
| 2026-05-08 00:57 | 22.00143 | 51.64640 | 39823 ft | 501 kts | 328° |
| 2026-05-08 00:57 | 22.06215 | 51.61027 | 39823 ft | 501 kts | 328° |
| 2026-05-08 00:58 | 22.12322 | 51.57389 | 39828 ft | 501 kts | 328° |
| 2026-05-08 00:58 | 22.18430 | 51.53747 | 39828 ft | 501 kts | 328° |
| 2026-05-08 00:59 | 22.24501 | 51.50123 | 39826 ft | 501 kts | 328° |
| 2026-05-08 00:59 | 22.30610 | 51.46473 | 39829 ft | 501 kts | 328° |
| 2026-05-08 01:00 | 22.36732 | 51.42812 | 39832 ft | 501 kts | 328° |
| 2026-05-08 01:00 | 22.42815 | 51.39171 | 39837 ft | 502 kts | 328° |
| 2026-05-08 01:01 | 22.48892 | 51.35529 | 39837 ft | 501 kts | 328° |
| 2026-05-08 01:01 | 22.55001 | 51.31864 | 39837 ft | 502 kts | 328° |
| 2026-05-08 01:02 | 22.61134 | 51.28181 | 39845 ft | 502 kts | 327° |
| 2026-05-08 01:02 | 22.67210 | 51.24529 | 39840 ft | 502 kts | 327° |
| 2026-05-08 01:03 | 22.73337 | 51.20842 | 39840 ft | 502 kts | 327° |
| 2026-05-08 01:03 | 22.79446 | 51.17162 | 39843 ft | 502 kts | 327° |
| 2026-05-08 01:04 | 22.85839 | 51.14123 | 39842 ft | 508 kts | 342° |
| 2026-05-08 01:04 | 22.92894 | 51.13167 | 39844 ft | 514 kts | 358° |
| 2026-05-08 01:05 | 23.00072 | 51.13553 | 39848 ft | 516 kts | 3° |
| 2026-05-08 01:05 | 23.07204 | 51.14231 | 39849 ft | 517 kts | 2° |
| 2026-05-08 01:06 | 23.14400 | 51.14853 | 39845 ft | 518 kts | 2° |
| 2026-05-08 01:06 | 23.21553 | 51.15408 | 39850 ft | 517 kts | 1° |
| 2026-05-08 01:07 | 23.28696 | 51.15932 | 39842 ft | 513 kts | 1° |
| 2026-05-08 01:07 | 23.32198 | 51.16185 | 39415 ft | 508 kts | 1° |
| 2026-05-08 01:07 | 23.35701 | 51.16435 | 38699 ft | 510 kts | 1° |
| 2026-05-08 01:07 | 23.39243 | 51.16688 | 37869 ft | 512 kts | 1° |
| 2026-05-08 01:08 | 23.42819 | 51.16946 | 37075 ft | 513 kts | 1° |
| 2026-05-08 01:08 | 23.46382 | 51.17206 | 36303 ft | 514 kts | 1° |
| 2026-05-08 01:08 | 23.49975 | 51.17468 | 35540 ft | 515 kts | 1° |
| 2026-05-08 01:08 | 23.53525 | 51.17729 | 34792 ft | 516 kts | 1° |
| 2026-05-08 01:09 | 23.57119 | 51.17993 | 34051 ft | 517 kts | 1° |
| 2026-05-08 01:09 | 23.60728 | 51.18260 | 33212 ft | 519 kts | 1° |
| 2026-05-08 01:09 | 23.64288 | 51.18522 | 32371 ft | 519 kts | 1° |
| 2026-05-08 01:09 | 23.67911 | 51.18788 | 31578 ft | 520 kts | 1° |
| 2026-05-08 01:10 | 23.71544 | 51.19056 | 30787 ft | 520 kts | 1° |
| 2026-05-08 01:10 | 23.75103 | 51.19318 | 29996 ft | 520 kts | 1° |
| 2026-05-08 01:10 | 23.78726 | 51.19585 | 29259 ft | 521 kts | 1° |
| 2026-05-08 01:10 | 23.82357 | 51.19851 | 28554 ft | 521 kts | 1° |
| 2026-05-08 01:11 | 23.85973 | 51.20118 | 27831 ft | 517 kts | 1° |
| 2026-05-08 01:11 | 23.89557 | 51.20384 | 27143 ft | 512 kts | 1° |
| 2026-05-08 01:11 | 23.93052 | 51.20642 | 26515 ft | 507 kts | 1° |
| 2026-05-08 01:11 | 23.96556 | 51.20902 | 25878 ft | 503 kts | 2° |
| 2026-05-08 01:12 | 24.00047 | 51.21160 | 25246 ft | 498 kts | 2° |
| 2026-05-08 01:12 | 24.03495 | 51.21415 | 24629 ft | 494 kts | 2° |
| 2026-05-08 01:12 | 24.06916 | 51.21668 | 24012 ft | 490 kts | 2° |
| 2026-05-08 01:12 | 24.10308 | 51.21919 | 23401 ft | 485 kts | 2° |
| 2026-05-08 01:13 | 24.13659 | 51.22167 | 22695 ft | 481 kts | 2° |
| 2026-05-08 01:13 | 24.16986 | 51.22413 | 22008 ft | 476 kts | 3° |
| 2026-05-08 01:13 | 24.20282 | 51.22657 | 21336 ft | 471 kts | 3° |
| 2026-05-08 01:13 | 24.23502 | 51.22896 | 20714 ft | 465 kts | 3° |
| 2026-05-08 01:14 | 24.26730 | 51.23136 | 20065 ft | 461 kts | 3° |
| 2026-05-08 01:14 | 24.29914 | 51.23372 | 19423 ft | 456 kts | 4° |
| 2026-05-08 01:14 | 24.33061 | 51.23640 | 18805 ft | 452 kts | 7° |
| 2026-05-08 01:14 | 24.36073 | 51.24366 | 18184 ft | 447 kts | 19° |
| 2026-05-08 01:15 | 24.38846 | 51.25874 | 17462 ft | 441 kts | 36° |
| 2026-05-08 01:15 | 24.41049 | 51.28149 | 16827 ft | 432 kts | 54° |
| 2026-05-08 01:15 | 24.42483 | 51.30985 | 16199 ft | 422 kts | 72° |
| 2026-05-08 01:15 | 24.43030 | 51.34112 | 15534 ft | 414 kts | 90° |
| 2026-05-08 01:16 | 24.42655 | 51.37173 | 14873 ft | 407 kts | 108° |
| 2026-05-08 01:16 | 24.41387 | 51.39909 | 14299 ft | 400 kts | 128° |
| 2026-05-08 01:16 | 24.39347 | 51.41957 | 14055 ft | 398 kts | 148° |
| 2026-05-08 01:16 | 24.36805 | 51.43164 | 14000 ft | 400 kts | 165° |
| 2026-05-08 01:17 | 24.34052 | 51.43604 | 14000 ft | 401 kts | 178° |
| 2026-05-08 01:17 | 24.31262 | 51.43554 | 13999 ft | 401 kts | 182° |
| 2026-05-08 01:17 | 24.28503 | 51.43392 | 13999 ft | 401 kts | 182° |
| 2026-05-08 01:17 | 24.25715 | 51.43207 | 14000 ft | 401 kts | 183° |
| 2026-05-08 01:18 | 24.22921 | 51.43001 | 14002 ft | 401 kts | 183° |
| 2026-05-08 01:18 | 24.20156 | 51.42615 | 14002 ft | 401 kts | 192° |
| 2026-05-08 01:18 | 24.17548 | 51.41623 | 14002 ft | 403 kts | 206° |
| 2026-05-08 01:18 | 24.15263 | 51.39854 | 14000 ft | 405 kts | 223° |
| 2026-05-08 01:19 | 24.13506 | 51.37427 | 14004 ft | 407 kts | 238° |
| 2026-05-08 01:19 | 24.12471 | 51.34554 | 14022 ft | 410 kts | 259° |
| 2026-05-08 01:19 | 24.12606 | 51.31449 | 14006 ft | 414 kts | 287° |
| 2026-05-08 01:19 | 24.14040 | 51.28740 | 13867 ft | 412 kts | 313° |
| 2026-05-08 01:20 | 24.16333 | 51.26859 | 14006 ft | 414 kts | 334° |
| 2026-05-08 01:20 | 24.19066 | 51.25920 | 14094 ft | 414 kts | 351° |
| 2026-05-08 01:20 | 24.21895 | 51.25604 | 14019 ft | 414 kts | 357° |
| 2026-05-08 01:20 | 24.24774 | 51.25556 | 14002 ft | 414 kts | 5° |
| 2026-05-08 01:21 | 24.27604 | 51.26116 | 14005 ft | 412 kts | 19° |
| 2026-05-08 01:21 | 24.30258 | 51.27306 | 14003 ft | 410 kts | 28° |
| 2026-05-08 01:21 | 24.32721 | 51.28866 | 13976 ft | 407 kts | 34° |
| 2026-05-08 01:21 | 24.35018 | 51.30624 | 13407 ft | 400 kts | 37° |
| 2026-05-08 01:22 | 24.37286 | 51.32393 | 12626 ft | 400 kts | 36° |
| 2026-05-08 01:22 | 24.39579 | 51.34049 | 12161 ft | 399 kts | 33° |
| 2026-05-08 01:22 | 24.41982 | 51.35569 | 12009 ft | 399 kts | 29° |
| 2026-05-08 01:22 | 24.44485 | 51.36912 | 11996 ft | 400 kts | 26° |
| 2026-05-08 01:23 | 24.46944 | 51.38335 | 12001 ft | 398 kts | 32° |
| 2026-05-08 01:23 | 24.49223 | 51.40057 | 12001 ft | 397 kts | 38° |
| 2026-05-08 01:23 | 24.51424 | 51.41902 | 11999 ft | 397 kts | 37° |
| 2026-05-08 01:23 | 24.53732 | 51.43589 | 11996 ft | 398 kts | 33° |
| 2026-05-08 01:24 | 24.56128 | 51.45136 | 11992 ft | 398 kts | 31° |
| 2026-05-08 01:24 | 24.58558 | 51.46598 | 11995 ft | 399 kts | 29° |
| 2026-05-08 01:24 | 24.60992 | 51.47994 | 11994 ft | 399 kts | 28° |
| 2026-05-08 01:24 | 24.63463 | 51.49375 | 11918 ft | 396 kts | 27° |
| 2026-05-08 01:25 | 24.65902 | 51.50718 | 11270 ft | 391 kts | 27° |
| 2026-05-08 01:25 | 24.68342 | 51.52048 | 10562 ft | 389 kts | 27° |
| 2026-05-08 01:25 | 24.70775 | 51.53331 | 9929 ft | 384 kts | 25° |
| 2026-05-08 01:25 | 24.73196 | 51.54500 | 9499 ft | 373 kts | 25° |
| 2026-05-08 01:26 | 24.75490 | 51.55596 | 9062 ft | 346 kts | 25° |
| 2026-05-08 01:26 | 24.77600 | 51.56612 | 8602 ft | 324 kts | 25° |
| 2026-05-08 01:26 | 24.79603 | 51.57583 | 8082 ft | 308 kts | 25° |
| 2026-05-08 01:26 | 24.81547 | 51.58531 | 7393 ft | 301 kts | 25° |
| 2026-05-08 01:27 | 24.83392 | 51.59591 | 6699 ft | 296 kts | 34° |
| 2026-05-08 01:27 | 24.84962 | 51.61015 | 6051 ft | 290 kts | 48° |
| 2026-05-08 01:27 | 24.86220 | 51.62740 | 5264 ft | 288 kts | 53° |
| 2026-05-08 01:27 | 24.87657 | 51.64224 | 4572 ft | 285 kts | 32° |
| 2026-05-08 01:28 | 24.89335 | 51.65203 | 3996 ft | 278 kts | 24° |
| 2026-05-08 01:28 | 24.91106 | 51.66060 | 3609 ft | 274 kts | 22° |
| 2026-05-08 01:28 | 24.92816 | 51.66877 | 3485 ft | 260 kts | 22° |
| 2026-05-08 01:28 | 24.94417 | 51.67643 | 3465 ft | 241 kts | 23° |
| 2026-05-08 01:29 | 24.95874 | 51.68343 | 3474 ft | 221 kts | 22° |
| 2026-05-08 01:29 | 24.97218 | 51.68997 | 3491 ft | 200 kts | 22° |
| 2026-05-08 01:29 | 24.98433 | 51.69609 | 3480 ft | 186 kts | 22° |
| 2026-05-08 01:29 | 24.99611 | 51.70211 | 3483 ft | 186 kts | 22° |
| 2026-05-08 01:30 | 25.00785 | 51.70790 | 3471 ft | 187 kts | 21° |
| 2026-05-08 01:30 | 25.02061 | 51.70811 | 3490 ft | 184 kts | 345° |
| 2026-05-08 01:30 | 25.03270 | 51.70370 | 3472 ft | 183 kts | 339° |
| 2026-05-08 01:30 | 25.04463 | 51.69850 | 3478 ft | 184 kts | 338° |
| 2026-05-08 01:31 | 25.05632 | 51.69333 | 3470 ft | 182 kts | 338° |
| 2026-05-08 01:31 | 25.06815 | 51.68812 | 3471 ft | 183 kts | 338° |
| 2026-05-08 01:31 | 25.08002 | 51.68286 | 3465 ft | 182 kts | 338° |
| 2026-05-08 01:31 | 25.09121 | 51.67786 | 3308 ft | 165 kts | 338° |
| 2026-05-08 01:32 | 25.10129 | 51.67333 | 3114 ft | 150 kts | 338° |
| 2026-05-08 01:32 | 25.11049 | 51.66895 | 2925 ft | 142 kts | 336° |
| 2026-05-08 01:32 | 25.11947 | 51.66445 | 2662 ft | 142 kts | 337° |
| 2026-05-08 01:32 | 25.12854 | 51.66021 | 2486 ft | 139 kts | 343° |
| 2026-05-08 01:33 | 25.13769 | 51.65683 | 2324 ft | 139 kts | 343° |
| 2026-05-08 01:33 | 25.14660 | 51.65321 | 2135 ft | 138 kts | 341° |
| 2026-05-08 01:33 | 25.15540 | 51.64935 | 1965 ft | 134 kts | 342° |
| 2026-05-08 01:33 | 25.16410 | 51.64553 | 1772 ft | 134 kts | 341° |
| 2026-05-08 01:34 | 25.17280 | 51.64183 | 1633 ft | 133 kts | 342° |
| 2026-05-08 01:34 | 25.18167 | 51.63789 | 1463 ft | 137 kts | 338° |
| 2026-05-08 01:34 | 25.19034 | 51.63400 | 1265 ft | 134 kts | 340° |
| 2026-05-08 01:34 | 25.19892 | 51.63021 | 1147 ft | 132 kts | 340° |
| 2026-05-08 01:35 | 25.20765 | 51.62652 | 1023 ft | 140 kts | 340° |
| 2026-05-08 01:35 | 25.21655 | 51.62232 | 790 ft | 133 kts | 335° |
| 2026-05-08 01:35 | 25.22497 | 51.61873 | 642 ft | 129 kts | 339° |
| 2026-05-08 01:35 | 25.23333 | 51.61510 | 540 ft | 131 kts | 338° |
| 2026-05-08 01:36 | 25.24176 | 51.61138 | 364 ft | 131 kts | 338° |
| 2026-05-08 01:36 | 25.25022 | 51.60764 | 175 ft | 131 kts | 339° |
| 2026-05-08 01:36 | 25.25848 | 51.60402 | 54 ft | 121 kts | 339° |
| 2026-05-08 01:36 | 25.26574 | 51.60083 | 33 ft | 103 kts | 339° |
| 2026-05-08 01:37 | 25.27059 | 51.59871 | 32 ft | 35 kts | 338° |
| 2026-05-08 01:37 | 25.27203 | 51.59818 | 32 ft | 21 kts | 348° |
| 2026-05-08 01:37 | 25.27343 | 51.59824 | 33 ft | 16 kts | 7° |
| 2026-05-08 01:37 | 25.27422 | 51.59854 | 34 ft | 12 kts | 38° |
| 2026-05-08 01:38 | 25.27425 | 51.59919 | 35 ft | 9 kts | 140° |
| 2026-05-08 01:38 | 25.27359 | 51.59946 | 35 ft | 11 kts | 160° |
| 2026-05-08 01:38 | 25.27275 | 51.59979 | 35 ft | 14 kts | 160° |
| 2026-05-08 01:38 | 25.27177 | 51.60023 | 35 ft | 17 kts | 157° |
| 2026-05-08 01:39 | 25.27059 | 51.60077 | 34 ft | 20 kts | 157° |
| 2026-05-08 01:39 | 25.26922 | 51.60136 | 34 ft | 22 kts | 159° |
| 2026-05-08 01:39 | 25.26770 | 51.60200 | 34 ft | 25 kts | 158° |
| 2026-05-08 01:39 | 25.26603 | 51.60274 | 34 ft | 27 kts | 158° |
| 2026-05-08 01:40 | 25.26522 | 51.60377 | 35 ft | 16 kts | 54° |
| 2026-05-08 01:40 | 25.26589 | 51.60400 | 35 ft | 15 kts | 18° |
| 2026-05-08 01:40 | 25.26646 | 51.60494 | 36 ft | 16 kts | 68° |
| 2026-05-08 01:40 | 25.26695 | 51.60596 | 36 ft | 12 kts | 32° |
| 2026-05-08 01:41 | 25.26774 | 51.60583 | 36 ft | 11 kts | 336° |
| 2026-05-08 01:41 | 25.26789 | 51.60576 | 36 ft | 0 kts | 337° |